Time,TemperatureF,DewpointF,PressureIn,WindDirection,WindDirectionDegrees,WindSpeedMPH,WindSpeedGustMPH,Humidity,HourlyPrecipIn,Conditions,Clouds,dailyrainin,SoftwareType,DateUTC
2013-04-25 00:00:00,58.9,38.2,30.17,West,274,0.0,5.0,46,0.00,,---,0.01,VWS V14.01,2013-04-25 04:00:00,
2013-04-25 00:01:00,58.9,38.2,30.17,West,274,0.0,0.0,46,0.00,,---,0.00,VWS V14.01,2013-04-25 04:01:00,
2013-04-25 00:02:00,59.0,37.1,30.17,West,274,0.0,0.0,44,0.00,,---,0.00,VWS V14.01,2013-04-25 04:02:00,
2013-04-25 00:03:00,59.0,38.3,30.17,West,274,0.0,0.0,46,0.00,,---,0.00,VWS V14.01,2013-04-25 04:03:00,
2013-04-25 00:04:00,59.0,38.3,30.17,West,274,0.0,0.0,46,0.00,,---,0.00,VWS V14.01,2013-04-25 04:04:00,
2013-04-25 00:05:00,59.3,39.6,30.17,West,276,0.0,0.0,48,0.00,,---,0.00,VWS V14.01,2013-04-25 04:05:00,
2013-04-25 00:06:00,59.6,39.9,30.17,West,276,0.0,0.0,48,0.00,,---,0.00,VWS V14.01,2013-04-25 04:06:00,
2013-04-25 00:07:00,59.8,37.9,30.17,West,276,0.0,0.0,44,0.00,,---,0.00,VWS V14.01,2013-04-25 04:07:00,
2013-04-25 00:08:00,59.8,39.0,30.17,West,276,0.0,0.0,46,0.00,,---,0.00,VWS V14.01,2013-04-25 04:08:00,
2013-04-25 00:09:00,59.9,39.1,30.17,West,276,0.0,1.0,46,0.00,,---,0.00,VWS V14.01,2013-04-25 04:09:00,
2013-04-25 00:10:00,60.1,39.3,30.17,West,276,0.0,1.0,46,0.00,,---,0.00,VWS V14.01,2013-04-25 04:10:00,
2013-04-25 00:11:00,60.1,38.1,30.17,West,276,0.0,0.0,44,0.00,,---,0.00,VWS V14.01,2013-04-25 04:11:00,
2013-04-25 00:12:00,60.4,38.4,30.17,West,276,0.0,0.0,44,0.00,,---,0.00,VWS V14.01,2013-04-25 04:12:00,
2013-04-25 00:13:00,60.5,38.5,30.17,West,276,0.0,1.0,44,0.00,,---,0.00,VWS V14.01,2013-04-25 04:13:00,
2013-04-25 00:14:00,60.5,38.5,30.17,West,276,0.0,3.0,44,0.00,,---,0.00,VWS V14.01,2013-04-25 04:14:00,
2013-04-25 00:15:00,60.9,38.9,30.17,West,276,1.0,3.0,44,0.00,,---,0.00,VWS V14.01,2013-04-25 04:15:00,
2013-04-25 00:16:00,60.9,38.9,30.17,West,276,0.0,3.0,44,0.00,,---,0.00,VWS V14.01,2013-04-25 04:16:00,
2013-04-25 00:17:00,61.2,39.1,30.17,West,274,0.0,3.0,44,0.00,,---,0.00,VWS V14.01,2013-04-25 04:17:00,
2013-04-25 00:18:00,61.2,39.1,30.17,West,274,1.0,4.0,44,0.00,,---,0.00,VWS V14.01,2013-04-25 04:18:00,
2013-04-25 00:19:00,61.3,39.2,30.17,West,276,0.0,4.0,44,0.00,,---,0.00,VWS V14.01,2013-04-25 04:19:00,
2013-04-25 00:20:00,61.3,38.0,30.17,West,276,0.0,4.0,42,0.00,,---,0.00,VWS V14.01,2013-04-25 04:20:00,
2013-04-25 00:21:00,61.5,38.2,30.17,West,276,2.0,2.0,42,0.00,,---,0.00,VWS V14.01,2013-04-25 04:21:00,
2013-04-25 00:22:00,61.5,38.2,30.17,West,281,4.0,5.0,42,0.00,,---,0.00,VWS V14.01,2013-04-25 04:22:00,
2013-04-25 00:23:00,61.5,38.2,30.17,West,281,2.0,5.0,42,0.00,,---,0.00,VWS V14.01,2013-04-25 04:23:00,
2013-04-25 00:24:00,61.5,37.6,30.17,West,281,0.0,5.0,41,0.00,,---,0.00,VWS V14.01,2013-04-25 04:24:00,
2013-04-25 00:25:00,61.5,37.6,30.17,West,281,0.0,5.0,41,0.00,,---,0.00,VWS V14.01,2013-04-25 04:25:00,
2013-04-25 00:26:00,61.5,37.6,30.17,West,281,0.0,5.0,41,0.00,,---,0.00,VWS V14.01,2013-04-25 04:26:00,
2013-04-25 00:27:00,61.5,37.6,30.17,West,281,0.0,5.0,41,0.00,,---,0.00,VWS V14.01,2013-04-25 04:27:00,
2013-04-25 00:28:00,61.6,40.1,30.17,West,279,0.0,5.0,45,0.00,,---,0.00,VWS V14.01,2013-04-25 04:28:00,
2013-04-25 00:29:00,61.8,39.1,30.17,West,279,0.0,5.0,43,0.00,,---,0.00,VWS V14.01,2013-04-25 04:29:00,
2013-04-25 00:30:00,62.0,39.3,30.17,West,279,3.0,5.0,43,0.00,,---,0.00,VWS V14.01,2013-04-25 04:30:00,
2013-04-25 00:31:00,62.1,39.4,30.17,WSW,251,4.0,6.0,43,0.00,,---,0.00,VWS V14.01,2013-04-25 04:31:00,
2013-04-25 00:32:00,62.1,39.4,30.17,West,274,3.0,6.0,43,0.00,,---,0.00,VWS V14.01,2013-04-25 04:32:00,
2013-04-25 00:33:00,62.3,39.5,30.17,West,275,0.0,6.0,43,0.00,,---,0.00,VWS V14.01,2013-04-25 04:33:00,
2013-04-25 00:34:00,62.3,38.3,30.17,West,281,0.0,6.0,41,0.00,,---,0.00,VWS V14.01,2013-04-25 04:34:00,
2013-04-25 00:35:00,62.3,38.9,30.17,West,281,0.0,6.0,42,0.00,,---,0.00,VWS V14.01,2013-04-25 04:35:00,
2013-04-25 00:36:00,62.4,39.0,30.17,WNW,283,0.0,6.0,42,0.00,,---,0.00,VWS V14.01,2013-04-25 04:36:00,
2013-04-25 00:37:00,62.4,37.1,30.17,WNW,286,5.0,6.0,39,0.00,,---,0.00,VWS V14.01,2013-04-25 04:37:00,
2013-04-25 00:38:00,62.4,37.1,30.17,WNW,302,1.0,6.0,39,0.00,,---,0.00,VWS V14.01,2013-04-25 04:38:00,
2013-04-25 00:39:00,62.3,37.0,30.17,NW,306,3.0,6.0,39,0.00,,---,0.00,VWS V14.01,2013-04-25 04:39:00,
2013-04-25 00:40:00,62.3,37.7,30.17,NNW,334,0.0,6.0,40,0.00,,---,0.00,VWS V14.01,2013-04-25 04:40:00,
2013-04-25 00:41:00,62.3,38.9,30.17,NNW,334,1.0,2.0,42,0.00,,---,0.00,VWS V14.01,2013-04-25 04:41:00,
2013-04-25 00:42:00,62.1,38.8,30.17,WNW,288,0.0,3.0,42,0.00,,---,0.00,VWS V14.01,2013-04-25 04:42:00,
2013-04-25 00:43:00,62.1,38.8,30.17,WNW,288,0.0,3.0,42,0.00,,---,0.00,VWS V14.01,2013-04-25 04:43:00,
2013-04-25 00:44:00,62.1,38.8,30.17,WNW,292,0.0,4.0,42,0.00,,---,0.00,VWS V14.01,2013-04-25 04:44:00,
2013-04-25 00:45:00,62.1,37.5,30.17,WNW,288,2.0,4.0,40,0.00,,---,0.00,VWS V14.01,2013-04-25 04:45:00,
2013-04-25 00:46:00,62.1,37.5,30.17,WNW,288,2.0,4.0,40,0.00,,---,0.00,VWS V14.01,2013-04-25 04:46:00,
2013-04-25 00:47:00,62.1,37.5,30.17,West,281,5.0,5.0,40,0.00,,---,0.00,VWS V14.01,2013-04-25 04:47:00,
2013-04-25 00:48:00,62.1,37.5,30.17,West,281,5.0,5.0,40,0.00,,---,0.00,VWS V14.01,2013-04-25 04:48:00,
2013-04-25 00:49:00,62.0,37.4,30.17,WNW,298,0.0,5.0,40,0.00,,---,0.00,VWS V14.01,2013-04-25 04:49:00,
2013-04-25 00:50:00,62.0,37.4,30.17,WNW,298,0.0,5.0,40,0.00,,---,0.00,VWS V14.01,2013-04-25 04:50:00,
2013-04-25 00:51:00,62.0,38.0,30.17,WNW,298,0.0,0.0,41,0.00,,---,0.00,VWS V14.01,2013-04-25 04:51:00,
2013-04-25 00:52:00,62.0,38.0,30.17,WNW,293,5.0,5.0,41,0.00,,---,0.00,VWS V14.01,2013-04-25 04:52:00,
2013-04-25 00:53:00,62.0,38.0,30.17,WNW,293,0.0,5.0,41,0.00,,---,0.00,VWS V14.01,2013-04-25 04:53:00,
2013-04-25 00:54:00,62.0,38.0,30.17,WNW,295,0.0,5.0,41,0.00,,---,0.00,VWS V14.01,2013-04-25 04:54:00,
2013-04-25 00:55:00,62.0,37.4,30.17,NW,305,5.0,5.0,40,0.00,,---,0.00,VWS V14.01,2013-04-25 04:55:00,
2013-04-25 00:56:00,62.0,37.4,30.17,WNW,302,0.0,6.0,40,0.00,,---,0.00,VWS V14.01,2013-04-25 04:56:00,
2013-04-25 00:57:00,62.0,37.4,30.17,WNW,296,1.0,6.0,40,0.00,,---,0.00,VWS V14.01,2013-04-25 04:57:00,
2013-04-25 00:58:00,62.0,37.4,30.17,West,271,5.0,6.0,40,0.00,,---,0.00,VWS V14.01,2013-04-25 04:58:00,
2013-04-25 00:59:00,62.0,35.5,30.17,WNW,298,5.0,6.0,37,0.00,,---,0.00,VWS V14.01,2013-04-25 04:59:00,
2013-04-25 01:00:00,62.0,35.5,30.17,WNW,296,1.0,6.0,37,0.00,,---,0.00,VWS V14.01,2013-04-25 05:00:00,
2013-04-25 01:01:00,62.0,35.5,30.17,WNW,296,0.0,2.0,37,0.00,,---,0.00,VWS V14.01,2013-04-25 05:01:00,
2013-04-25 01:02:00,62.1,36.9,30.17,WNW,298,2.0,2.0,39,0.00,,---,0.00,VWS V14.01,2013-04-25 05:02:00,
2013-04-25 01:03:00,62.3,37.0,30.17,NNW,346,4.0,4.0,39,0.00,,---,0.00,VWS V14.01,2013-04-25 05:03:00,
2013-04-25 01:04:00,62.3,37.0,30.17,NNW,346,3.0,4.0,39,0.00,,---,0.00,VWS V14.01,2013-04-25 05:04:00,
2013-04-25 01:05:00,62.4,37.1,30.17,NW,310,2.0,4.0,39,0.00,,---,0.00,VWS V14.01,2013-04-25 05:05:00,
2013-04-25 01:06:00,62.4,37.1,30.17,WNW,300,0.0,4.0,39,0.00,,---,0.00,VWS V14.01,2013-04-25 05:06:00,
2013-04-25 01:07:00,62.6,37.3,30.17,WNW,300,0.0,4.0,39,0.00,,---,0.00,VWS V14.01,2013-04-25 05:07:00,
2013-04-25 01:08:00,62.7,37.4,30.17,West,266,2.0,6.0,39,0.00,,---,0.00,VWS V14.01,2013-04-25 05:08:00,
2013-04-25 01:09:00,62.7,37.4,30.17,West,278,1.0,6.0,39,0.00,,---,0.00,VWS V14.01,2013-04-25 05:09:00,
2013-04-25 01:10:00,62.9,34.8,30.17,West,276,0.0,6.0,35,0.00,,---,0.00,VWS V14.01,2013-04-25 05:10:00,
2013-04-25 01:11:00,62.9,34.1,30.17,WNW,290,0.0,6.0,34,0.00,,---,0.00,VWS V14.01,2013-04-25 05:11:00,
2013-04-25 01:12:00,62.9,32.6,30.17,WSW,254,0.0,6.0,32,0.00,,---,0.00,VWS V14.01,2013-04-25 05:12:00,
2013-04-25 01:13:00,62.9,32.6,30.17,WNW,296,2.0,6.0,32,0.00,,---,0.00,VWS V14.01,2013-04-25 05:13:00,
2013-04-25 01:14:00,63.1,34.3,30.17,WNW,299,2.0,6.0,34,0.00,,---,0.00,VWS V14.01,2013-04-25 05:14:00,
2013-04-25 01:15:00,63.1,34.3,30.17,WNW,293,3.0,6.0,34,0.00,,---,0.00,VWS V14.01,2013-04-25 05:15:00,
2013-04-25 01:16:00,63.2,34.4,30.17,WNW,293,0.0,6.0,34,0.00,,---,0.00,VWS V14.01,2013-04-25 05:16:00,
2013-04-25 01:17:00,63.2,34.4,30.17,West,276,1.0,6.0,34,0.00,,---,0.00,VWS V14.01,2013-04-25 05:17:00,
2013-04-25 01:18:00,63.2,33.6,30.17,West,272,5.0,6.0,33,0.00,,---,0.00,VWS V14.01,2013-04-25 05:18:00,
2013-04-25 01:19:00,63.2,32.9,30.17,WSW,244,2.0,7.0,32,0.00,,---,0.00,VWS V14.01,2013-04-25 05:19:00,
2013-04-25 01:20:00,63.4,33.0,30.17,West,262,3.0,7.0,32,0.00,,---,0.00,VWS V14.01,2013-04-25 05:20:00,
2013-04-25 01:21:00,63.4,33.0,30.17,West,275,6.0,8.0,32,0.00,,---,0.00,VWS V14.01,2013-04-25 05:21:00,
2013-04-25 01:22:00,63.4,33.0,30.17,West,276,3.0,8.0,32,0.00,,---,0.00,VWS V14.01,2013-04-25 05:22:00,
2013-04-25 01:23:00,63.4,33.0,30.17,WSW,258,5.0,8.0,32,0.00,,---,0.00,VWS V14.01,2013-04-25 05:23:00,
2013-04-25 01:24:00,63.5,33.1,30.17,West,276,5.0,8.0,32,0.00,,---,0.00,VWS V14.01,2013-04-25 05:24:00,
2013-04-25 01:25:00,63.5,33.1,30.17,West,274,5.0,8.0,32,0.00,,---,0.00,VWS V14.01,2013-04-25 05:25:00,
2013-04-25 01:26:00,63.5,32.3,30.17,WNW,285,10.0,10.0,31,0.00,,---,0.00,VWS V14.01,2013-04-25 05:26:00,
2013-04-25 01:27:00,63.7,30.0,30.17,WNW,289,6.0,10.0,28,0.00,,---,0.00,VWS V14.01,2013-04-25 05:27:00,
2013-04-25 01:28:00,63.7,30.0,30.17,WNW,289,7.0,10.0,28,0.00,,---,0.00,VWS V14.01,2013-04-25 05:28:00,
2013-04-25 01:29:00,63.7,30.0,30.17,West,271,7.0,10.0,28,0.00,,---,0.00,VWS V14.01,2013-04-25 05:29:00,
2013-04-25 01:30:00,63.7,30.0,30.17,WSW,248,5.0,10.0,28,0.00,,---,0.00,VWS V14.01,2013-04-25 05:30:00,
2013-04-25 01:31:00,63.7,30.9,30.17,West,271,5.0,7.0,29,0.00,,---,0.00,VWS V14.01,2013-04-25 05:31:00,
2013-04-25 01:32:00,63.7,30.0,30.17,WSW,258,4.0,7.0,28,0.00,,---,0.00,VWS V14.01,2013-04-25 05:32:00,
2013-04-25 01:33:00,63.9,29.3,30.17,West,272,3.0,7.0,27,0.00,,---,0.00,VWS V14.01,2013-04-25 05:33:00,
2013-04-25 01:34:00,64.0,29.4,30.17,West,274,6.0,9.0,27,0.00,,---,0.00,VWS V14.01,2013-04-25 05:34:00,
2013-04-25 01:35:00,64.0,29.4,30.17,West,266,6.0,9.0,27,0.00,,---,0.00,VWS V14.01,2013-04-25 05:35:00,
2013-04-25 01:36:00,64.0,29.4,30.17,West,271,5.0,9.0,27,0.00,,---,0.00,VWS V14.01,2013-04-25 05:36:00,
2013-04-25 01:37:00,64.0,29.4,30.17,West,276,1.0,9.0,27,0.00,,---,0.00,VWS V14.01,2013-04-25 05:37:00,
2013-04-25 01:38:00,64.0,29.4,30.17,West,275,0.0,9.0,27,0.00,,---,0.00,VWS V14.01,2013-04-25 05:38:00,
2013-04-25 01:39:00,64.2,23.5,30.17,WNW,289,5.0,9.0,21,0.00,,---,0.00,VWS V14.01,2013-04-25 05:39:00,
2013-04-25 01:40:00,64.2,22.3,30.17,West,266,0.0,9.0,20,0.00,,---,0.00,VWS V14.01,2013-04-25 05:40:00,
2013-04-25 01:41:00,64.3,22.4,30.17,NW,326,6.0,7.0,20,0.00,,---,0.00,VWS V14.01,2013-04-25 05:41:00,
2013-04-25 01:42:00,64.5,22.6,30.17,SW,224,2.0,10.0,20,0.00,,---,0.00,VWS V14.01,2013-04-25 05:42:00,
2013-04-25 01:43:00,64.7,22.7,30.17,WNW,303,6.0,10.0,20,0.00,,---,0.00,VWS V14.01,2013-04-25 05:43:00,
2013-04-25 01:44:00,64.8,24.0,30.17,West,259,3.0,10.0,21,0.00,,---,0.00,VWS V14.01,2013-04-25 05:44:00,
2013-04-25 01:45:00,65.0,26.3,30.17,WSW,248,0.0,10.0,23,0.00,,---,0.00,VWS V14.01,2013-04-25 05:45:00,
2013-04-25 01:46:00,65.0,26.3,30.17,WSW,252,0.0,10.0,23,0.00,,---,0.00,VWS V14.01,2013-04-25 05:46:00,
2013-04-25 01:47:00,65.2,26.5,30.17,WSW,245,1.0,10.0,23,0.00,,---,0.00,VWS V14.01,2013-04-25 05:47:00,
2013-04-25 01:48:00,65.2,26.5,30.17,West,275,3.0,10.0,23,0.00,,---,0.00,VWS V14.01,2013-04-25 05:48:00,
2013-04-25 01:49:00,65.2,24.3,30.17,West,259,0.0,10.0,21,0.00,,---,0.00,VWS V14.01,2013-04-25 05:49:00,
2013-04-25 01:50:00,65.5,24.6,30.17,SW,235,6.0,10.0,21,0.00,,---,0.00,VWS V14.01,2013-04-25 05:50:00,
2013-04-25 01:51:00,65.5,24.6,30.17,WSW,250,0.0,6.0,21,0.00,,---,0.00,VWS V14.01,2013-04-25 05:51:00,
2013-04-25 01:52:00,65.5,24.6,30.17,West,259,2.0,6.0,21,0.00,,---,0.00,VWS V14.01,2013-04-25 05:52:00,
2013-04-25 01:53:00,65.5,23.4,30.17,WSW,250,3.0,6.0,20,0.00,,---,0.00,VWS V14.01,2013-04-25 05:53:00,
2013-04-25 01:54:00,65.3,23.2,30.17,WSW,255,3.0,6.0,20,0.00,,---,0.00,VWS V14.01,2013-04-25 05:54:00,
2013-04-25 01:55:00,65.3,20.7,30.17,West,276,0.0,6.0,18,0.00,,---,0.00,VWS V14.01,2013-04-25 05:55:00,
2013-04-25 01:56:00,65.5,20.9,30.17,West,275,3.0,6.0,18,0.00,,---,0.00,VWS V14.01,2013-04-25 05:56:00,
2013-04-25 01:57:00,65.5,22.2,30.17,West,265,0.0,6.0,19,0.00,,---,0.00,VWS V14.01,2013-04-25 05:57:00,
2013-04-25 01:58:00,65.5,23.4,30.17,West,266,2.0,6.0,20,0.00,,---,0.00,VWS V14.01,2013-04-25 05:58:00,
2013-04-25 01:59:00,65.6,23.5,30.17,West,272,5.0,6.0,20,0.00,,---,0.00,VWS V14.01,2013-04-25 05:59:00,
2013-04-25 02:00:00,65.6,21.0,30.17,West,272,0.0,6.0,18,0.00,,---,0.00,VWS V14.01,2013-04-25 06:00:00,
2013-04-25 02:01:00,65.6,21.0,30.17,West,262,0.0,0.0,18,0.00,,---,0.00,VWS V14.01,2013-04-25 06:01:00,
2013-04-25 02:02:00,65.6,22.3,30.17,West,259,3.0,3.0,19,0.00,,---,0.00,VWS V14.01,2013-04-25 06:02:00,
2013-04-25 02:03:00,65.8,22.4,30.17,WSW,252,5.0,5.0,19,0.00,,---,0.00,VWS V14.01,2013-04-25 06:03:00,
2013-04-25 02:04:00,65.8,22.4,30.17,WNW,288,5.0,6.0,19,0.00,,---,0.00,VWS V14.01,2013-04-25 06:04:00,
2013-04-25 02:05:00,65.8,23.6,30.17,West,275,1.0,6.0,20,0.00,,---,0.00,VWS V14.01,2013-04-25 06:05:00,
2013-04-25 02:06:00,65.8,23.6,30.17,West,266,1.0,6.0,20,0.00,,---,0.00,VWS V14.01,2013-04-25 06:06:00,
2013-04-25 02:07:00,65.8,22.4,30.17,WNW,282,7.0,7.0,19,0.00,,---,0.00,VWS V14.01,2013-04-25 06:07:00,
2013-04-25 02:08:00,65.8,22.4,30.17,West,261,8.0,9.0,19,0.00,,---,0.00,VWS V14.01,2013-04-25 06:08:00,
2013-04-25 02:09:00,65.6,22.3,30.17,WSW,257,1.0,9.0,19,0.00,,---,0.00,VWS V14.01,2013-04-25 06:09:00,
2013-04-25 02:10:00,65.6,16.7,30.17,SW,226,0.0,9.0,15,0.00,,---,0.00,VWS V14.01,2013-04-25 06:10:00,
2013-04-25 02:11:00,65.6,16.7,30.17,West,281,6.0,6.0,15,0.00,,---,0.00,VWS V14.01,2013-04-25 06:11:00,
2013-04-25 02:12:00,65.6,16.7,30.17,West,276,1.0,6.0,15,0.00,,---,0.00,VWS V14.01,2013-04-25 06:12:00,
2013-04-25 02:13:00,65.6,22.3,30.17,WNW,285,2.0,6.0,19,0.00,,---,0.00,VWS V14.01,2013-04-25 06:13:00,
2013-04-25 02:14:00,65.8,22.4,30.17,West,261,3.0,6.0,19,0.00,,---,0.00,VWS V14.01,2013-04-25 06:14:00,
2013-04-25 02:15:00,65.8,23.6,30.17,West,261,2.0,6.0,20,0.00,,---,0.00,VWS V14.01,2013-04-25 06:15:00,
2013-04-25 02:16:00,66.0,23.8,30.17,WNW,286,0.0,6.0,20,0.00,,---,0.00,VWS V14.01,2013-04-25 06:16:00,
2013-04-25 02:17:00,66.3,22.8,30.17,WNW,289,0.0,6.0,19,0.00,,---,0.00,VWS V14.01,2013-04-25 06:17:00,
2013-04-25 02:18:00,66.3,22.8,30.17,West,278,5.0,6.0,19,0.00,,---,0.00,VWS V14.01,2013-04-25 06:18:00,
2013-04-25 02:19:00,66.4,21.6,30.17,West,262,3.0,6.0,18,0.00,,---,0.00,VWS V14.01,2013-04-25 06:19:00,
2013-04-25 02:20:00,66.4,18.9,30.17,West,271,2.0,6.0,16,0.00,,---,0.00,VWS V14.01,2013-04-25 06:20:00,
2013-04-25 02:21:00,66.4,20.3,30.17,West,275,0.0,3.0,17,0.00,,---,0.00,VWS V14.01,2013-04-25 06:21:00,
2013-04-25 02:22:00,66.4,21.6,30.17,WSW,254,5.0,5.0,18,0.00,,---,0.00,VWS V14.01,2013-04-25 06:22:00,
2013-04-25 02:23:00,66.4,21.6,30.17,WSW,254,0.0,5.0,18,0.00,,---,0.00,VWS V14.01,2013-04-25 06:23:00,
2013-04-25 02:24:00,66.6,23.1,30.17,WSW,250,0.0,6.0,19,0.00,,---,0.00,VWS V14.01,2013-04-25 06:24:00,
2013-04-25 02:25:00,66.6,15.9,30.17,WSW,250,2.0,6.0,14,0.00,,---,0.00,VWS V14.01,2013-04-25 06:25:00,
2013-04-25 02:26:00,66.6,15.9,30.17,WSW,250,0.0,6.0,14,0.00,,---,0.00,VWS V14.01,2013-04-25 06:26:00,
2013-04-25 02:27:00,66.8,19.2,30.17,WSW,240,5.0,6.0,16,0.00,,---,0.00,VWS V14.01,2013-04-25 06:27:00,
2013-04-25 02:28:00,66.8,17.7,30.17,WSW,242,5.0,7.0,15,0.00,,---,0.00,VWS V14.01,2013-04-25 06:28:00,
2013-04-25 02:29:00,66.6,14.2,30.17,WSW,254,0.0,8.0,13,0.00,,---,0.00,VWS V14.01,2013-04-25 06:29:00,
2013-04-25 02:30:00,66.6,12.4,30.17,WSW,251,0.0,8.0,12,0.00,,---,0.00,VWS V14.01,2013-04-25 06:30:00,
2013-04-25 02:31:00,66.6,14.2,30.17,West,261,0.0,2.0,13,0.00,,---,0.00,VWS V14.01,2013-04-25 06:31:00,
2013-04-25 02:32:00,66.8,14.4,30.17,WNW,283,5.0,6.0,13,0.00,,---,0.00,VWS V14.01,2013-04-25 06:32:00,
2013-04-25 02:33:00,66.8,14.4,30.17,West,274,8.0,8.0,13,0.00,,---,0.00,VWS V14.01,2013-04-25 06:33:00,
2013-04-25 02:34:00,66.6,14.2,30.17,WSW,255,0.0,8.0,13,0.00,,---,0.00,VWS V14.01,2013-04-25 06:34:00,
2013-04-25 02:35:00,66.8,12.6,30.17,West,259,3.0,8.0,12,0.00,,---,0.00,VWS V14.01,2013-04-25 06:35:00,
2013-04-25 02:36:00,66.8,12.6,30.17,WNW,288,2.0,8.0,12,0.00,,---,0.00,VWS V14.01,2013-04-25 06:36:00,
2013-04-25 02:37:00,66.8,14.4,30.17,WNW,288,0.0,8.0,13,0.00,,---,0.00,VWS V14.01,2013-04-25 06:37:00,
2013-04-25 02:38:00,66.9,17.8,30.17,West,276,1.0,8.0,15,0.00,,---,0.00,VWS V14.01,2013-04-25 06:38:00,
2013-04-25 02:39:00,66.9,17.8,30.17,WSW,245,3.0,8.0,15,0.00,,---,0.00,VWS V14.01,2013-04-25 06:39:00,
2013-04-25 02:40:00,66.9,14.5,30.17,WSW,245,0.0,8.0,13,0.00,,---,0.00,VWS V14.01,2013-04-25 06:40:00,
2013-04-25 02:41:00,66.9,12.7,30.17,WSW,245,0.0,0.0,12,0.00,,---,0.00,VWS V14.01,2013-04-25 06:41:00,
2013-04-25 02:42:00,66.9,14.5,30.17,WSW,245,0.0,0.0,13,0.00,,---,0.00,VWS V14.01,2013-04-25 06:42:00,
2013-04-25 02:43:00,66.9,17.8,30.17,WSW,245,5.0,5.0,15,0.00,,---,0.00,VWS V14.01,2013-04-25 06:43:00,
2013-04-25 02:44:00,66.9,12.7,30.17,WSW,245,0.0,5.0,12,0.00,,---,0.00,VWS V14.01,2013-04-25 06:44:00,
2013-04-25 02:45:00,66.9,12.7,30.17,WSW,245,1.0,5.0,12,0.00,,---,0.00,VWS V14.01,2013-04-25 06:45:00,
2013-04-25 02:46:00,66.9,16.2,30.17,WSW,258,0.0,5.0,14,0.00,,---,0.00,VWS V14.01,2013-04-25 06:46:00,
2013-04-25 02:47:00,66.9,14.5,30.17,WNW,289,3.0,5.0,13,0.00,,---,0.00,VWS V14.01,2013-04-25 06:47:00,
2013-04-25 02:48:00,66.9,14.5,30.17,SSW,207,2.0,5.0,13,0.00,,---,0.00,VWS V14.01,2013-04-25 06:48:00,
2013-04-25 02:49:00,66.9,10.7,30.17,SSW,211,0.0,5.0,11,0.00,,---,0.00,VWS V14.01,2013-04-25 06:49:00,
2013-04-25 02:50:00,66.9,10.7,30.17,WSW,255,5.0,6.0,11,0.00,,---,0.00,VWS V14.01,2013-04-25 06:50:00,
2013-04-25 02:51:00,66.9,14.5,30.17,WNW,282,0.0,5.0,13,0.00,,---,0.00,VWS V14.01,2013-04-25 06:51:00,
2013-04-25 02:52:00,67.1,14.6,30.17,WSW,248,1.0,5.0,13,0.00,,---,0.00,VWS V14.01,2013-04-25 06:52:00,
2013-04-25 02:53:00,67.1,14.6,30.17,West,268,8.0,10.0,13,0.00,,---,0.00,VWS V14.01,2013-04-25 06:53:00,
2013-04-25 02:54:00,67.1,10.9,30.17,West,265,3.0,10.0,11,0.00,,---,0.00,VWS V14.01,2013-04-25 06:54:00,
2013-04-25 02:55:00,67.1,10.9,30.17,West,264,3.0,10.0,11,0.00,,---,0.00,VWS V14.01,2013-04-25 06:55:00,
2013-04-25 02:56:00,67.1,14.6,30.17,WSW,242,5.0,10.0,13,0.00,,---,0.00,VWS V14.01,2013-04-25 06:56:00,
2013-04-25 02:57:00,67.1,14.6,30.17,WSW,242,4.0,10.0,13,0.00,,---,0.00,VWS V14.01,2013-04-25 06:57:00,
2013-04-25 02:58:00,67.1,14.6,30.17,SW,218,3.0,10.0,13,0.00,,---,0.00,VWS V14.01,2013-04-25 06:58:00,
2013-04-25 02:59:00,67.1,12.8,30.17,WNW,283,7.0,10.0,12,0.00,,---,0.00,VWS V14.01,2013-04-25 06:59:00,
2013-04-25 03:00:00,67.1,12.8,30.17,West,276,0.0,10.0,12,0.00,,---,0.00,VWS V14.01,2013-04-25 07:00:00,
2013-04-25 03:01:00,67.1,12.8,30.17,West,276,0.0,0.0,12,0.00,,---,0.00,VWS V14.01,2013-04-25 07:01:00,
2013-04-25 03:02:00,67.1,12.8,30.17,WNW,285,0.0,1.0,12,0.00,,---,0.00,VWS V14.01,2013-04-25 07:02:00,
2013-04-25 03:03:00,67.1,16.3,30.17,WNW,290,2.0,3.0,14,0.00,,---,0.00,VWS V14.01,2013-04-25 07:03:00,
2013-04-25 03:04:00,66.9,16.2,30.17,SW,217,0.0,3.0,14,0.00,,---,0.00,VWS V14.01,2013-04-25 07:04:00,
2013-04-25 03:05:00,66.9,12.7,30.17,SW,230,0.0,3.0,12,0.00,,---,0.00,VWS V14.01,2013-04-25 07:05:00,
2013-04-25 03:06:00,66.9,12.7,30.17,WNW,282,2.0,3.0,12,0.00,,---,0.00,VWS V14.01,2013-04-25 07:06:00,
2013-04-25 03:07:00,66.9,8.6,30.17,WNW,295,0.0,5.0,10,0.00,,---,0.00,VWS V14.01,2013-04-25 07:07:00,
2013-04-25 03:08:00,66.9,12.7,30.17,WNW,293,2.0,5.0,12,0.00,,---,0.00,VWS V14.01,2013-04-25 07:08:00,
2013-04-25 03:09:00,66.8,12.6,30.17,WNW,286,0.0,5.0,12,0.00,,---,0.00,VWS V14.01,2013-04-25 07:09:00,
2013-04-25 03:10:00,66.8,10.6,30.17,NW,306,1.0,5.0,11,0.00,,---,0.00,VWS V14.01,2013-04-25 07:10:00,
2013-04-25 03:11:00,66.8,8.5,30.17,SW,223,0.0,5.0,10,0.00,,---,0.00,VWS V14.01,2013-04-25 07:11:00,
2013-04-25 03:12:00,66.8,10.6,30.17,NNE,18,3.0,5.0,11,0.00,,---,0.00,VWS V14.01,2013-04-25 07:12:00,
2013-04-25 03:13:00,66.8,10.6,30.17,NNE,18,3.0,5.0,11,0.00,,---,0.00,VWS V14.01,2013-04-25 07:13:00,
2013-04-25 03:14:00,66.8,10.6,30.17,East,98,0.0,5.0,11,0.00,,---,0.00,VWS V14.01,2013-04-25 07:14:00,
2013-04-25 03:15:00,66.8,10.6,30.16,East,98,0.0,5.0,11,0.00,,---,0.00,VWS V14.01,2013-04-25 07:15:00,
2013-04-25 03:16:00,66.4,12.3,30.16,SSW,192,5.0,5.0,12,0.00,,---,0.00,VWS V14.01,2013-04-25 07:16:00,
2013-04-25 03:17:00,66.4,14.1,30.16,WNW,300,2.0,5.0,13,0.00,,---,0.00,VWS V14.01,2013-04-25 07:17:00,
2013-04-25 03:18:00,66.6,14.2,30.16,WNW,286,0.0,5.0,13,0.00,,---,0.00,VWS V14.01,2013-04-25 07:18:00,
2013-04-25 03:19:00,66.6,12.4,30.16,West,264,7.0,7.0,12,0.00,,---,0.00,VWS V14.01,2013-04-25 07:19:00,
2013-04-25 03:20:00,66.8,12.6,30.16,WNW,283,1.0,7.0,12,0.00,,---,0.00,VWS V14.01,2013-04-25 07:20:00,
2013-04-25 03:21:00,66.8,12.6,30.16,WNW,300,0.0,2.0,12,0.00,,---,0.00,VWS V14.01,2013-04-25 07:21:00,
2013-04-25 03:22:00,66.9,10.7,30.16,West,276,3.0,6.0,11,0.00,,---,0.00,VWS V14.01,2013-04-25 07:22:00,
2013-04-25 03:23:00,66.9,12.7,30.16,WSW,244,2.0,6.0,12,0.00,,---,0.00,VWS V14.01,2013-04-25 07:23:00,
2013-04-25 03:24:00,67.1,12.8,30.16,WSW,250,3.0,6.0,12,0.00,,---,0.00,VWS V14.01,2013-04-25 07:24:00,
2013-04-25 03:25:00,67.1,10.9,30.16,WSW,251,0.0,6.0,11,0.00,,---,0.00,VWS V14.01,2013-04-25 07:25:00,
2013-04-25 03:26:00,67.3,11.0,30.16,WSW,251,0.0,6.0,11,0.00,,---,0.00,VWS V14.01,2013-04-25 07:26:00,
2013-04-25 03:27:00,67.3,11.0,30.16,WSW,251,0.0,6.0,11,0.00,,---,0.00,VWS V14.01,2013-04-25 07:27:00,
2013-04-25 03:28:00,67.4,11.1,30.16,WSW,251,0.0,6.0,11,0.00,,---,0.00,VWS V14.01,2013-04-25 07:28:00,
2013-04-25 03:29:00,67.4,11.1,30.16,NW,305,11.0,12.0,11,0.00,,---,0.00,VWS V14.01,2013-04-25 07:29:00,
2013-04-25 03:30:00,67.4,11.1,30.16,WNW,293,2.0,12.0,11,0.00,,---,0.00,VWS V14.01,2013-04-25 07:30:00,
2013-04-25 03:31:00,67.4,11.1,30.16,North,355,1.0,3.0,11,0.00,,---,0.00,VWS V14.01,2013-04-25 07:31:00,
2013-04-25 03:32:00,67.4,13.1,30.16,WNW,296,0.0,3.0,12,0.00,,---,0.00,VWS V14.01,2013-04-25 07:32:00,
2013-04-25 03:33:00,67.4,13.1,30.16,WNW,292,0.0,3.0,12,0.00,,---,0.00,VWS V14.01,2013-04-25 07:33:00,
2013-04-25 03:34:00,67.4,13.1,30.16,West,275,1.0,3.0,12,0.00,,---,0.00,VWS V14.01,2013-04-25 07:34:00,
2013-04-25 03:35:00,67.4,13.1,30.16,WSW,254,1.0,5.0,12,0.00,,---,0.00,VWS V14.01,2013-04-25 07:35:00,
2013-04-25 03:36:00,67.6,15.0,30.16,WSW,254,3.0,5.0,13,0.00,,---,0.00,VWS V14.01,2013-04-25 07:36:00,
2013-04-25 03:37:00,67.6,15.0,30.16,SW,234,0.0,10.0,13,0.00,,---,0.00,VWS V14.01,2013-04-25 07:37:00,
2013-04-25 03:38:00,67.6,9.1,30.16,SW,233,7.0,10.0,10,0.00,,---,0.00,VWS V14.01,2013-04-25 07:38:00,
2013-04-25 03:39:00,67.6,11.2,30.16,West,264,2.0,10.0,11,0.00,,---,0.00,VWS V14.01,2013-04-25 07:39:00,
2013-04-25 03:40:00,67.6,11.2,30.16,West,264,3.0,10.0,11,0.00,,---,0.00,VWS V14.01,2013-04-25 07:40:00,
2013-04-25 03:41:00,67.4,11.1,30.16,WSW,257,6.0,7.0,11,0.00,,---,0.00,VWS V14.01,2013-04-25 07:41:00,
2013-04-25 03:42:00,67.4,13.1,30.16,WSW,244,9.0,9.0,12,0.00,,---,0.00,VWS V14.01,2013-04-25 07:42:00,
2013-04-25 03:43:00,67.4,14.9,30.16,WSW,248,5.0,11.0,13,0.00,,---,0.00,VWS V14.01,2013-04-25 07:43:00,
2013-04-25 03:44:00,67.3,13.0,30.16,WSW,244,3.0,11.0,12,0.00,,---,0.00,VWS V14.01,2013-04-25 07:44:00,
2013-04-25 03:45:00,67.3,13.0,30.15,WSW,245,1.0,11.0,12,0.00,,---,0.00,VWS V14.01,2013-04-25 07:45:00,
2013-04-25 03:46:00,67.3,14.8,30.15,WSW,245,0.0,11.0,13,0.00,,---,0.00,VWS V14.01,2013-04-25 07:46:00,
2013-04-25 03:47:00,67.4,14.9,30.15,WSW,245,3.0,11.0,13,0.00,,---,0.00,VWS V14.01,2013-04-25 07:47:00,
2013-04-25 03:48:00,67.4,14.9,30.15,WNW,283,1.0,11.0,13,0.00,,---,0.00,VWS V14.01,2013-04-25 07:48:00,
2013-04-25 03:49:00,67.6,16.7,30.15,West,266,3.0,11.0,14,0.00,,---,0.00,VWS V14.01,2013-04-25 07:49:00,
2013-04-25 03:50:00,67.8,15.2,30.15,WSW,250,3.0,11.0,13,0.00,,---,0.00,VWS V14.01,2013-04-25 07:50:00,
2013-04-25 03:51:00,67.8,15.2,30.15,WSW,255,2.0,5.0,13,0.00,,---,0.00,VWS V14.01,2013-04-25 07:51:00,
2013-04-25 03:52:00,67.8,15.2,30.15,WSW,257,5.0,7.0,13,0.00,,---,0.00,VWS V14.01,2013-04-25 07:52:00,
2013-04-25 03:53:00,67.8,15.2,30.15,WSW,255,2.0,8.0,13,0.00,,---,0.00,VWS V14.01,2013-04-25 07:53:00,
2013-04-25 03:54:00,67.9,17.0,30.15,West,268,3.0,8.0,14,0.00,,---,0.00,VWS V14.01,2013-04-25 07:54:00,
2013-04-25 03:55:00,67.9,15.3,30.15,West,274,2.0,8.0,13,0.00,,---,0.00,VWS V14.01,2013-04-25 07:55:00,
2013-04-25 03:56:00,67.9,18.6,30.15,NW,317,2.0,8.0,15,0.00,,---,0.00,VWS V14.01,2013-04-25 07:56:00,
2013-04-25 03:57:00,67.9,18.6,30.15,NW,319,2.0,8.0,15,0.00,,---,0.00,VWS V14.01,2013-04-25 07:57:00,
2013-04-25 03:58:00,67.9,18.6,30.15,NW,326,2.0,8.0,15,0.00,,---,0.00,VWS V14.01,2013-04-25 07:58:00,
2013-04-25 03:59:00,68.1,15.4,30.15,NW,322,1.0,8.0,13,0.00,,---,0.00,VWS V14.01,2013-04-25 07:59:00,
2013-04-25 04:00:00,68.1,15.4,30.15,NW,322,0.0,8.0,13,0.00,,---,0.00,VWS V14.01,2013-04-25 08:00:00,
2013-04-25 04:01:00,68.1,15.4,30.15,NW,322,0.0,0.0,13,0.00,,---,0.00,VWS V14.01,2013-04-25 08:01:00,
2013-04-25 04:02:00,68.1,15.4,30.15,WSW,247,5.0,6.0,13,0.00,,---,0.00,VWS V14.01,2013-04-25 08:02:00,
2013-04-25 04:03:00,68.1,15.4,30.15,WSW,247,2.0,6.0,13,0.00,,---,0.00,VWS V14.01,2013-04-25 08:03:00,
2013-04-25 04:04:00,68.3,18.9,30.15,West,261,3.0,6.0,15,0.00,,---,0.00,VWS V14.01,2013-04-25 08:04:00,
2013-04-25 04:05:00,68.3,15.6,30.15,West,262,0.0,6.0,13,0.00,,---,0.00,VWS V14.01,2013-04-25 08:05:00,
2013-04-25 04:06:00,68.3,17.3,30.15,WSW,258,0.0,6.0,14,0.00,,---,0.00,VWS V14.01,2013-04-25 08:06:00,
2013-04-25 04:07:00,68.3,17.3,30.15,West,261,1.0,6.0,14,0.00,,---,0.00,VWS V14.01,2013-04-25 08:07:00,
2013-04-25 04:08:00,68.3,17.3,30.15,WNW,285,5.0,6.0,14,0.00,,---,0.00,VWS V14.01,2013-04-25 08:08:00,
2013-04-25 04:09:00,68.3,17.3,30.15,West,281,3.0,6.0,14,0.00,,---,0.00,VWS V14.01,2013-04-25 08:09:00,
2013-04-25 04:10:00,68.3,17.3,30.15,West,281,0.0,6.0,14,0.00,,---,0.00,VWS V14.01,2013-04-25 08:10:00,
2013-04-25 04:11:00,68.3,17.3,30.15,SSW,197,1.0,6.0,14,0.00,,---,0.00,VWS V14.01,2013-04-25 08:11:00,
2013-04-25 04:12:00,68.3,15.6,30.15,WNW,288,6.0,6.0,13,0.00,,---,0.00,VWS V14.01,2013-04-25 08:12:00,
2013-04-25 04:13:00,68.3,17.3,30.15,WSW,251,3.0,6.0,14,0.00,,---,0.00,VWS V14.01,2013-04-25 08:13:00,
2013-04-25 04:14:00,68.3,18.9,30.15,WSW,251,0.0,6.0,15,0.00,,---,0.00,VWS V14.01,2013-04-25 08:14:00,
2013-04-25 04:15:00,68.3,18.9,30.15,WSW,252,0.0,6.0,15,0.00,,---,0.00,VWS V14.01,2013-04-25 08:15:00,
2013-04-25 04:16:00,68.3,17.3,30.15,WSW,252,2.0,6.0,14,0.00,,---,0.00,VWS V14.01,2013-04-25 08:16:00,
2013-04-25 04:17:00,68.3,17.3,30.15,West,259,0.0,6.0,14,0.00,,---,0.00,VWS V14.01,2013-04-25 08:17:00,
2013-04-25 04:18:00,68.3,18.9,30.15,WSW,251,4.0,6.0,15,0.00,,---,0.00,VWS V14.01,2013-04-25 08:18:00,
2013-04-25 04:19:00,68.3,18.9,30.15,WNW,283,2.0,6.0,15,0.00,,---,0.00,VWS V14.01,2013-04-25 08:19:00,
2013-04-25 04:20:00,68.3,18.9,30.15,WSW,257,2.0,6.0,15,0.00,,---,0.00,VWS V14.01,2013-04-25 08:20:00,
2013-04-25 04:21:00,68.3,18.9,30.15,WSW,254,3.0,5.0,15,0.00,,---,0.00,VWS V14.01,2013-04-25 08:21:00,
2013-04-25 04:22:00,68.3,18.9,30.15,West,272,2.0,5.0,15,0.00,,---,0.00,VWS V14.01,2013-04-25 08:22:00,
2013-04-25 04:23:00,68.3,18.9,30.15,West,272,1.0,6.0,15,0.00,,---,0.00,VWS V14.01,2013-04-25 08:23:00,
2013-04-25 04:24:00,68.3,18.9,30.15,West,272,0.0,6.0,15,0.00,,---,0.00,VWS V14.01,2013-04-25 08:24:00,
2013-04-25 04:25:00,68.1,20.2,30.15,West,272,0.0,6.0,16,0.00,,---,0.00,VWS V14.01,2013-04-25 08:25:00,
2013-04-25 04:26:00,68.3,20.4,30.15,West,269,0.0,6.0,16,0.00,,---,0.00,VWS V14.01,2013-04-25 08:26:00,
2013-04-25 04:27:00,68.3,20.4,30.15,West,269,0.0,6.0,16,0.00,,---,0.00,VWS V14.01,2013-04-25 08:27:00,
2013-04-25 04:28:00,68.3,20.4,30.15,West,261,3.0,6.0,16,0.00,,---,0.00,VWS V14.01,2013-04-25 08:28:00,
2013-04-25 04:29:00,68.3,21.8,30.15,WSW,255,0.0,6.0,17,0.00,,---,0.00,VWS V14.01,2013-04-25 08:29:00,
2013-04-25 04:30:00,68.3,21.8,30.14,WNW,283,1.0,6.0,17,0.00,,---,0.00,VWS V14.01,2013-04-25 08:30:00,
2013-04-25 04:31:00,68.3,18.9,30.14,WSW,255,1.0,3.0,15,0.00,,---,0.00,VWS V14.01,2013-04-25 08:31:00,
2013-04-25 04:32:00,68.3,20.4,30.14,WNW,288,5.0,5.0,16,0.00,,---,0.00,VWS V14.01,2013-04-25 08:32:00,
2013-04-25 04:33:00,68.3,20.4,30.14,West,276,7.0,7.0,16,0.00,,---,0.00,VWS V14.01,2013-04-25 08:33:00,
2013-04-25 04:34:00,68.3,21.8,30.14,WNW,289,6.0,7.0,17,0.00,,---,0.00,VWS V14.01,2013-04-25 08:34:00,
2013-04-25 04:35:00,68.3,21.8,30.14,WNW,299,3.0,7.0,17,0.00,,---,0.00,VWS V14.01,2013-04-25 08:35:00,
2013-04-25 04:36:00,68.1,20.2,30.14,WSW,251,3.0,7.0,16,0.00,,---,0.00,VWS V14.01,2013-04-25 08:36:00,
2013-04-25 04:37:00,68.1,20.2,30.14,WSW,251,3.0,7.0,16,0.00,,---,0.00,VWS V14.01,2013-04-25 08:37:00,
2013-04-25 04:38:00,68.1,21.7,30.14,WNW,292,2.0,7.0,17,0.00,,---,0.00,VWS V14.01,2013-04-25 08:38:00,
2013-04-25 04:39:00,68.1,20.2,30.14,WSW,244,3.0,7.0,16,0.00,,---,0.00,VWS V14.01,2013-04-25 08:39:00,
2013-04-25 04:40:00,67.9,18.6,30.14,WSW,242,0.0,7.0,15,0.00,,---,0.00,VWS V14.01,2013-04-25 08:40:00,
2013-04-25 04:41:00,67.9,21.5,30.14,WSW,242,5.0,5.0,17,0.00,,---,0.00,VWS V14.01,2013-04-25 08:41:00,
2013-04-25 04:42:00,67.9,18.6,30.14,WSW,244,0.0,5.0,15,0.00,,---,0.00,VWS V14.01,2013-04-25 08:42:00,
2013-04-25 04:43:00,67.9,20.1,30.14,WSW,244,0.0,5.0,16,0.00,,---,0.00,VWS V14.01,2013-04-25 08:43:00,
2013-04-25 04:44:00,67.9,20.1,30.14,WSW,244,0.0,5.0,16,0.00,,---,0.00,VWS V14.01,2013-04-25 08:44:00,
2013-04-25 04:45:00,67.9,20.1,30.14,West,266,2.0,5.0,16,0.00,,---,0.00,VWS V14.01,2013-04-25 08:45:00,
2013-04-25 04:46:00,67.9,20.1,30.14,West,274,0.0,5.0,16,0.00,,---,0.00,VWS V14.01,2013-04-25 08:46:00,
2013-04-25 04:47:00,67.9,20.1,30.14,WNW,296,7.0,7.0,16,0.00,,---,0.00,VWS V14.01,2013-04-25 08:47:00,
2013-04-25 04:48:00,67.9,20.1,30.14,WNW,289,2.0,7.0,16,0.00,,---,0.00,VWS V14.01,2013-04-25 08:48:00,
2013-04-25 04:49:00,67.8,20.0,30.14,WNW,282,2.0,7.0,16,0.00,,---,0.00,VWS V14.01,2013-04-25 08:49:00,
2013-04-25 04:50:00,67.8,20.0,30.14,WSW,257,5.0,7.0,16,0.00,,---,0.00,VWS V14.01,2013-04-25 08:50:00,
2013-04-25 04:51:00,67.8,18.5,30.14,WSW,237,4.0,6.0,15,0.00,,---,0.00,VWS V14.01,2013-04-25 08:51:00,
2013-04-25 04:52:00,67.8,16.9,30.14,West,269,8.0,8.0,14,0.00,,---,0.00,VWS V14.01,2013-04-25 08:52:00,
2013-04-25 04:53:00,67.8,18.5,30.14,West,266,1.0,8.0,15,0.00,,---,0.00,VWS V14.01,2013-04-25 08:53:00,
2013-04-25 04:54:00,67.6,19.9,30.14,West,266,0.0,8.0,16,0.00,,---,0.00,VWS V14.01,2013-04-25 08:54:00,
2013-04-25 04:55:00,67.6,19.9,30.14,West,266,0.0,8.0,16,0.00,,---,0.00,VWS V14.01,2013-04-25 08:55:00,
2013-04-25 04:56:00,67.4,19.7,30.14,West,266,0.0,8.0,16,0.00,,---,0.00,VWS V14.01,2013-04-25 08:56:00,
2013-04-25 04:57:00,67.4,19.7,30.14,West,281,4.0,8.0,16,0.00,,---,0.00,VWS V14.01,2013-04-25 08:57:00,
2013-04-25 04:58:00,67.4,18.2,30.14,West,281,4.0,8.0,15,0.00,,---,0.00,VWS V14.01,2013-04-25 08:58:00,
2013-04-25 04:59:00,67.4,18.2,30.14,WNW,292,2.0,8.0,15,0.00,,---,0.00,VWS V14.01,2013-04-25 08:59:00,
2013-04-25 05:00:00,67.3,21.0,30.15,NW,317,2.0,8.0,17,0.00,,---,0.00,VWS V14.01,2013-04-25 09:00:00,
2013-04-25 05:01:00,67.3,19.6,30.15,NW,317,0.0,1.0,16,0.00,,---,0.00,VWS V14.01,2013-04-25 09:01:00,
2013-04-25 05:02:00,67.3,19.6,30.15,NW,317,0.0,3.0,16,0.00,,---,0.00,VWS V14.01,2013-04-25 09:02:00,
2013-04-25 05:03:00,67.3,19.6,30.15,NW,317,0.0,3.0,16,0.00,,---,0.00,VWS V14.01,2013-04-25 09:03:00,
2013-04-25 05:04:00,67.3,21.0,30.15,WNW,295,2.0,5.0,17,0.00,,---,0.00,VWS V14.01,2013-04-25 09:04:00,
2013-04-25 05:05:00,67.3,21.0,30.15,WNW,295,0.0,5.0,17,0.00,,---,0.00,VWS V14.01,2013-04-25 09:05:00,
2013-04-25 05:06:00,67.3,21.0,30.15,West,266,5.0,8.0,17,0.00,,---,0.00,VWS V14.01,2013-04-25 09:06:00,
2013-04-25 05:07:00,67.1,17.9,30.15,West,266,3.0,8.0,15,0.00,,---,0.00,VWS V14.01,2013-04-25 09:07:00,
2013-04-25 05:08:00,67.1,17.9,30.15,West,261,6.0,8.0,15,0.00,,---,0.00,VWS V14.01,2013-04-25 09:08:00,
2013-04-25 05:09:00,67.1,17.9,30.15,WSW,240,5.0,8.0,15,0.00,,---,0.00,VWS V14.01,2013-04-25 09:09:00,
2013-04-25 05:10:00,66.9,17.8,30.15,WNW,285,2.0,8.0,15,0.00,,---,0.00,VWS V14.01,2013-04-25 09:10:00,
2013-04-25 05:11:00,66.9,19.3,30.15,West,268,4.0,8.0,16,0.00,,---,0.00,VWS V14.01,2013-04-25 09:11:00,
2013-04-25 05:12:00,66.9,19.3,30.15,West,272,5.0,8.0,16,0.00,,---,0.00,VWS V14.01,2013-04-25 09:12:00,
2013-04-25 05:13:00,66.8,19.2,30.15,West,274,8.0,10.0,16,0.00,,---,0.00,VWS V14.01,2013-04-25 09:13:00,
2013-04-25 05:14:00,66.8,17.7,30.15,WSW,250,7.0,10.0,15,0.00,,---,0.00,VWS V14.01,2013-04-25 09:14:00,
2013-04-25 05:15:00,66.6,17.5,30.15,WSW,248,6.0,10.0,15,0.00,,---,0.00,VWS V14.01,2013-04-25 09:15:00,
2013-04-25 05:16:00,66.6,17.5,30.15,WSW,244,4.0,10.0,15,0.00,,---,0.00,VWS V14.01,2013-04-25 09:16:00,
2013-04-25 05:17:00,66.4,17.4,30.15,WSW,242,0.0,10.0,15,0.00,,---,0.00,VWS V14.01,2013-04-25 09:17:00,
2013-04-25 05:18:00,66.3,17.3,30.15,WSW,242,0.0,10.0,15,0.00,,---,0.00,VWS V14.01,2013-04-25 09:18:00,
2013-04-25 05:19:00,66.3,17.3,30.15,WSW,242,0.0,10.0,15,0.00,,---,0.00,VWS V14.01,2013-04-25 09:19:00,
2013-04-25 05:20:00,66.3,17.3,30.15,WSW,242,0.0,10.0,15,0.00,,---,0.00,VWS V14.01,2013-04-25 09:20:00,
2013-04-25 05:21:00,66.3,17.3,30.15,WSW,244,0.0,3.0,15,0.00,,---,0.00,VWS V14.01,2013-04-25 09:21:00,
2013-04-25 05:22:00,66.1,18.6,30.15,NW,310,6.0,6.0,16,0.00,,---,0.00,VWS V14.01,2013-04-25 09:22:00,
2013-04-25 05:23:00,66.1,18.6,30.15,NW,310,0.0,6.0,16,0.00,,---,0.00,VWS V14.01,2013-04-25 09:23:00,
2013-04-25 05:24:00,66.1,20.0,30.15,West,275,2.0,6.0,17,0.00,,---,0.00,VWS V14.01,2013-04-25 09:24:00,
2013-04-25 05:25:00,66.1,17.1,30.15,West,275,1.0,6.0,15,0.00,,---,0.00,VWS V14.01,2013-04-25 09:25:00,
2013-04-25 05:26:00,66.1,18.6,30.15,WSW,251,2.0,6.0,16,0.00,,---,0.00,VWS V14.01,2013-04-25 09:26:00,
2013-04-25 05:27:00,66.0,17.1,30.15,WSW,251,2.0,6.0,15,0.00,,---,0.00,VWS V14.01,2013-04-25 09:27:00,
2013-04-25 05:28:00,66.0,17.1,30.15,WSW,251,4.0,6.0,15,0.00,,---,0.00,VWS V14.01,2013-04-25 09:28:00,
2013-04-25 05:29:00,66.0,17.1,30.15,WSW,251,2.0,6.0,15,0.00,,---,0.00,VWS V14.01,2013-04-25 09:29:00,
2013-04-25 05:30:00,65.8,16.9,30.16,West,259,3.0,6.0,15,0.00,,---,0.00,VWS V14.01,2013-04-25 09:30:00,
2013-04-25 05:31:00,65.8,18.4,30.16,West,259,0.0,3.0,16,0.00,,---,0.00,VWS V14.01,2013-04-25 09:31:00,
2013-04-25 05:32:00,65.8,16.9,30.16,West,259,0.0,3.0,15,0.00,,---,0.00,VWS V14.01,2013-04-25 09:32:00,
2013-04-25 05:33:00,65.8,18.4,30.16,West,259,0.0,3.0,16,0.00,,---,0.00,VWS V14.01,2013-04-25 09:33:00,
2013-04-25 05:34:00,65.8,19.8,30.16,West,259,0.0,3.0,17,0.00,,---,0.00,VWS V14.01,2013-04-25 09:34:00,
2013-04-25 05:35:00,65.8,19.8,30.16,WSW,251,5.0,5.0,17,0.00,,---,0.00,VWS V14.01,2013-04-25 09:35:00,
2013-04-25 05:36:00,65.6,19.6,30.16,WSW,251,2.0,5.0,17,0.00,,---,0.00,VWS V14.01,2013-04-25 09:36:00,
2013-04-25 05:37:00,65.6,19.6,30.16,WSW,251,2.0,5.0,17,0.00,,---,0.00,VWS V14.01,2013-04-25 09:37:00,
2013-04-25 05:38:00,65.6,18.2,30.16,West,281,8.0,8.0,16,0.00,,---,0.00,VWS V14.01,2013-04-25 09:38:00,
2013-04-25 05:39:00,65.6,16.7,30.16,West,271,5.0,8.0,15,0.00,,---,0.00,VWS V14.01,2013-04-25 09:39:00,
2013-04-25 05:40:00,65.5,16.7,30.16,West,264,0.0,8.0,15,0.00,,---,0.00,VWS V14.01,2013-04-25 09:40:00,
2013-04-25 05:41:00,65.5,16.7,30.16,WSW,258,2.0,2.0,15,0.00,,---,0.00,VWS V14.01,2013-04-25 09:41:00,
2013-04-25 05:42:00,65.5,16.7,30.16,WSW,258,2.0,3.0,15,0.00,,---,0.00,VWS V14.01,2013-04-25 09:42:00,
2013-04-25 05:43:00,65.3,16.5,30.16,WSW,244,1.0,5.0,15,0.00,,---,0.00,VWS V14.01,2013-04-25 09:43:00,
2013-04-25 05:44:00,65.3,16.5,30.16,WSW,244,0.0,5.0,15,0.00,,---,0.00,VWS V14.01,2013-04-25 09:44:00,
2013-04-25 05:45:00,65.2,17.9,30.16,West,271,1.0,6.0,16,0.00,,---,0.00,VWS V14.01,2013-04-25 09:45:00,
2013-04-25 05:46:00,65.2,17.9,30.16,West,265,0.0,6.0,16,0.00,,---,0.00,VWS V14.01,2013-04-25 09:46:00,
2013-04-25 05:47:00,65.2,19.3,30.16,West,278,6.0,7.0,17,0.00,,---,0.00,VWS V14.01,2013-04-25 09:47:00,
2013-04-25 05:48:00,65.2,19.3,30.16,West,274,2.0,7.0,17,0.00,,---,0.00,VWS V14.01,2013-04-25 09:48:00,
2013-04-25 05:49:00,65.0,17.8,30.16,West,274,0.0,7.0,16,0.00,,---,0.00,VWS V14.01,2013-04-25 09:49:00,
2013-04-25 05:50:00,65.0,16.3,30.16,WSW,258,0.0,7.0,15,0.00,,---,0.00,VWS V14.01,2013-04-25 09:50:00,
2013-04-25 05:51:00,65.0,16.3,30.16,WSW,258,0.0,0.0,15,0.00,,---,0.00,VWS V14.01,2013-04-25 09:51:00,
2013-04-25 05:52:00,64.8,16.1,30.16,WNW,296,0.0,3.0,15,0.00,,---,0.00,VWS V14.01,2013-04-25 09:52:00,
2013-04-25 05:53:00,64.8,16.1,30.16,West,268,0.0,5.0,15,0.00,,---,0.00,VWS V14.01,2013-04-25 09:53:00,
2013-04-25 05:54:00,64.8,17.6,30.16,West,268,2.0,5.0,16,0.00,,---,0.00,VWS V14.01,2013-04-25 09:54:00,
2013-04-25 05:55:00,64.7,16.0,30.16,West,268,0.0,6.0,15,0.00,,---,0.00,VWS V14.01,2013-04-25 09:55:00,
2013-04-25 05:56:00,64.7,16.0,30.16,West,268,0.0,6.0,15,0.00,,---,0.00,VWS V14.01,2013-04-25 09:56:00,
2013-04-25 05:57:00,64.7,16.0,30.16,NW,326,5.0,6.0,15,0.00,,---,0.00,VWS V14.01,2013-04-25 09:57:00,
2013-04-25 05:58:00,64.7,14.4,30.16,NW,324,0.0,6.0,14,0.00,,---,0.00,VWS V14.01,2013-04-25 09:58:00,
2013-04-25 05:59:00,64.5,14.3,30.16,NW,324,0.0,6.0,14,0.00,,---,0.00,VWS V14.01,2013-04-25 09:59:00,
2013-04-25 06:00:00,64.5,14.3,30.17,NW,324,0.0,6.0,14,0.00,,---,0.00,VWS V14.01,2013-04-25 10:00:00,
2013-04-25 06:01:00,64.3,14.1,30.17,SW,226,6.0,6.0,14,0.00,,---,0.00,VWS V14.01,2013-04-25 10:01:00,
2013-04-25 06:02:00,64.3,17.2,30.17,WSW,241,6.0,7.0,16,0.00,,---,0.00,VWS V14.01,2013-04-25 10:02:00,
2013-04-25 06:03:00,64.2,17.1,30.17,West,259,3.0,7.0,16,0.00,,---,0.00,VWS V14.01,2013-04-25 10:03:00,
2013-04-25 06:04:00,64.2,15.6,30.17,WSW,252,0.0,7.0,15,0.00,,---,0.00,VWS V14.01,2013-04-25 10:04:00,
2013-04-25 06:05:00,64.0,16.9,30.17,WSW,252,0.0,7.0,16,0.00,,---,0.00,VWS V14.01,2013-04-25 10:05:00,
2013-04-25 06:06:00,64.0,16.9,30.17,ESE,106,1.0,7.0,16,0.00,,---,0.00,VWS V14.01,2013-04-25 10:06:00,
2013-04-25 06:07:00,63.9,13.8,30.17,NE,48,0.0,7.0,14,0.00,,---,0.00,VWS V14.01,2013-04-25 10:07:00,
2013-04-25 06:08:00,63.9,15.4,30.17,NE,48,2.0,7.0,15,0.00,,---,0.00,VWS V14.01,2013-04-25 10:08:00,
2013-04-25 06:09:00,63.7,16.7,30.17,West,274,0.0,7.0,16,0.00,,---,0.00,VWS V14.01,2013-04-25 10:09:00,
2013-04-25 06:10:00,63.7,15.2,30.17,West,274,0.0,7.0,15,0.00,,---,0.00,VWS V14.01,2013-04-25 10:10:00,
2013-04-25 06:11:00,63.7,15.2,30.17,West,265,1.0,3.0,15,0.00,,---,0.00,VWS V14.01,2013-04-25 10:11:00,
2013-04-25 06:12:00,63.7,15.2,30.17,West,268,3.0,6.0,15,0.00,,---,0.00,VWS V14.01,2013-04-25 10:12:00,
2013-04-25 06:13:00,63.5,16.5,30.17,West,261,4.0,6.0,16,0.00,,---,0.00,VWS V14.01,2013-04-25 10:13:00,
2013-04-25 06:14:00,63.5,15.1,30.17,West,261,5.0,6.0,15,0.00,,---,0.00,VWS V14.01,2013-04-25 10:14:00,
2013-04-25 06:15:00,63.5,15.1,30.18,West,281,3.0,6.0,15,0.00,,---,0.00,VWS V14.01,2013-04-25 10:15:00,
2013-04-25 06:16:00,63.4,15.0,30.18,WNW,289,3.0,6.0,15,0.00,,---,0.00,VWS V14.01,2013-04-25 10:16:00,
2013-04-25 06:17:00,63.4,15.0,30.18,WNW,289,5.0,6.0,15,0.00,,---,0.00,VWS V14.01,2013-04-25 10:17:00,
2013-04-25 06:18:00,63.4,15.0,30.18,WNW,288,0.0,6.0,15,0.00,,---,0.00,VWS V14.01,2013-04-25 10:18:00,
2013-04-25 06:19:00,63.4,15.0,30.18,WNW,285,2.0,6.0,15,0.00,,---,0.00,VWS V14.01,2013-04-25 10:19:00,
2013-04-25 06:20:00,63.2,14.8,30.18,WNW,283,0.0,6.0,15,0.00,,---,0.00,VWS V14.01,2013-04-25 10:20:00,
2013-04-25 06:21:00,63.2,14.8,30.18,NW,326,0.0,3.0,15,0.00,,---,0.00,VWS V14.01,2013-04-25 10:21:00,
2013-04-25 06:22:00,63.2,14.8,30.18,NW,323,1.0,3.0,15,0.00,,---,0.00,VWS V14.01,2013-04-25 10:22:00,
2013-04-25 06:23:00,63.2,16.3,30.18,West,268,5.0,5.0,16,0.00,,---,0.00,VWS V14.01,2013-04-25 10:23:00,
2013-04-25 06:24:00,63.1,13.2,30.18,NW,305,0.0,5.0,14,0.00,,---,0.00,VWS V14.01,2013-04-25 10:24:00,
2013-04-25 06:25:00,63.1,13.2,30.18,NW,305,0.0,5.0,14,0.00,,---,0.00,VWS V14.01,2013-04-25 10:25:00,
2013-04-25 06:26:00,63.1,13.2,30.18,WNW,292,0.0,5.0,14,0.00,,---,0.00,VWS V14.01,2013-04-25 10:26:00,
2013-04-25 06:27:00,63.1,13.2,30.18,WNW,292,0.0,5.0,14,0.00,,---,0.00,VWS V14.01,2013-04-25 10:27:00,
2013-04-25 06:28:00,63.1,13.2,30.18,WNW,292,0.0,5.0,14,0.00,,---,0.00,VWS V14.01,2013-04-25 10:28:00,
2013-04-25 06:29:00,62.9,14.6,30.18,NNW,330,0.0,5.0,15,0.00,,---,0.00,VWS V14.01,2013-04-25 10:29:00,
2013-04-25 06:30:00,62.9,14.6,30.18,NNW,330,0.0,5.0,15,0.00,,---,0.00,VWS V14.01,2013-04-25 10:30:00,
2013-04-25 06:31:00,62.9,17.5,30.18,NW,306,0.0,0.0,17,0.00,,---,0.00,VWS V14.01,2013-04-25 10:31:00,
2013-04-25 06:32:00,62.9,14.6,30.18,WNW,299,0.0,0.0,15,0.00,,---,0.00,VWS V14.01,2013-04-25 10:32:00,
2013-04-25 06:33:00,62.9,14.6,30.18,WNW,298,0.0,1.0,15,0.00,,---,0.00,VWS V14.01,2013-04-25 10:33:00,
2013-04-25 06:34:00,62.7,14.4,30.18,WNW,286,0.0,3.0,15,0.00,,---,0.00,VWS V14.01,2013-04-25 10:34:00,
2013-04-25 06:35:00,62.7,14.4,30.18,WNW,286,0.0,3.0,15,0.00,,---,0.00,VWS V14.01,2013-04-25 10:35:00,
2013-04-25 06:36:00,62.7,12.8,30.18,WNW,286,1.0,3.0,14,0.00,,---,0.00,VWS V14.01,2013-04-25 10:36:00,
2013-04-25 06:37:00,62.6,14.3,30.18,West,259,5.0,5.0,15,0.00,,---,0.00,VWS V14.01,2013-04-25 10:37:00,
2013-04-25 06:38:00,62.6,14.3,30.18,WSW,247,4.0,6.0,15,0.00,,---,0.00,VWS V14.01,2013-04-25 10:38:00,
2013-04-25 06:39:00,62.4,14.2,30.18,WSW,247,0.0,6.0,15,0.00,,---,0.00,VWS V14.01,2013-04-25 10:39:00,
2013-04-25 06:40:00,62.4,12.6,30.18,WSW,244,0.0,6.0,14,0.00,,---,0.00,VWS V14.01,2013-04-25 10:40:00,
2013-04-25 06:41:00,62.3,12.5,30.18,WSW,244,0.0,0.0,14,0.00,,---,0.00,VWS V14.01,2013-04-25 10:41:00,
2013-04-25 06:42:00,62.3,14.1,30.18,WSW,244,0.0,0.0,15,0.00,,---,0.00,VWS V14.01,2013-04-25 10:42:00,
2013-04-25 06:43:00,62.1,13.9,30.18,West,281,0.0,0.0,15,0.00,,---,0.00,VWS V14.01,2013-04-25 10:43:00,
2013-04-25 06:44:00,62.1,13.9,30.18,NW,312,2.0,3.0,15,0.00,,---,0.00,VWS V14.01,2013-04-25 10:44:00,
2013-04-25 06:45:00,62.1,13.9,30.19,NW,312,0.0,3.0,15,0.00,,---,0.00,VWS V14.01,2013-04-25 10:45:00,
2013-04-25 06:46:00,62.0,15.3,30.19,NW,312,0.0,3.0,16,0.00,,---,0.00,VWS V14.01,2013-04-25 10:46:00,
2013-04-25 06:47:00,62.0,15.3,30.19,NW,312,0.0,3.0,16,0.00,,---,0.00,VWS V14.01,2013-04-25 10:47:00,
2013-04-25 06:48:00,62.0,15.3,30.19,West,268,2.0,3.0,16,0.00,,---,0.00,VWS V14.01,2013-04-25 10:48:00,
2013-04-25 06:49:00,62.0,15.3,30.19,West,268,2.0,3.0,16,0.00,,---,0.00,VWS V14.01,2013-04-25 10:49:00,
2013-04-25 06:50:00,62.0,15.3,30.19,West,271,2.0,6.0,16,0.00,,---,0.00,VWS V14.01,2013-04-25 10:50:00,
2013-04-25 06:51:00,61.8,13.7,30.19,WNW,288,0.0,4.0,15,0.00,,---,0.00,VWS V14.01,2013-04-25 10:51:00,
2013-04-25 06:52:00,61.8,15.2,30.19,WNW,282,4.0,4.0,16,0.00,,---,0.00,VWS V14.01,2013-04-25 10:52:00,
2013-04-25 06:53:00,61.8,13.7,30.19,West,266,2.0,5.0,15,0.00,,---,0.00,VWS V14.01,2013-04-25 10:53:00,
2013-04-25 06:54:00,61.8,13.7,30.19,WNW,289,0.0,5.0,15,0.00,,---,0.00,VWS V14.01,2013-04-25 10:54:00,
2013-04-25 06:55:00,61.6,13.5,30.19,WNW,289,0.0,5.0,15,0.00,,---,0.00,VWS V14.01,2013-04-25 10:55:00,
2013-04-25 06:56:00,61.6,13.5,30.19,WSW,255,1.0,5.0,15,0.00,,---,0.00,VWS V14.01,2013-04-25 10:56:00,
2013-04-25 06:57:00,61.5,14.9,30.19,West,276,2.0,6.0,16,0.00,,---,0.00,VWS V14.01,2013-04-25 10:57:00,
2013-04-25 06:58:00,61.5,14.9,30.19,WSW,254,3.0,6.0,16,0.00,,---,0.00,VWS V14.01,2013-04-25 10:58:00,
2013-04-25 06:59:00,61.3,14.8,30.19,West,271,6.0,6.0,16,0.00,,---,0.00,VWS V14.01,2013-04-25 10:59:00,
2013-04-25 07:00:00,61.3,13.3,30.20,West,264,4.0,6.0,15,0.00,,---,0.00,VWS V14.01,2013-04-25 11:00:00,
2013-04-25 07:01:00,61.3,13.3,30.20,West,264,3.0,3.0,15,0.00,,---,0.00,VWS V14.01,2013-04-25 11:01:00,
2013-04-25 07:02:00,61.2,14.7,30.20,West,262,4.0,4.0,16,0.00,,---,0.00,VWS V14.01,2013-04-25 11:02:00,
2013-04-25 07:03:00,61.2,13.2,30.20,West,261,2.0,4.0,15,0.00,,---,0.00,VWS V14.01,2013-04-25 11:03:00,
2013-04-25 07:04:00,61.0,13.0,30.20,West,261,2.0,4.0,15,0.00,,---,0.00,VWS V14.01,2013-04-25 11:04:00,
2013-04-25 07:05:00,61.0,13.0,30.20,WSW,257,5.0,6.0,15,0.00,,---,0.00,VWS V14.01,2013-04-25 11:05:00,
2013-04-25 07:06:00,60.9,14.4,30.20,WSW,257,2.0,6.0,16,0.00,,---,0.00,VWS V14.01,2013-04-25 11:06:00,
2013-04-25 07:07:00,60.9,14.4,30.20,WNW,288,0.0,6.0,16,0.00,,---,0.00,VWS V14.01,2013-04-25 11:07:00,
2013-04-25 07:08:00,60.9,14.4,30.20,WNW,288,0.0,6.0,16,0.00,,---,0.00,VWS V14.01,2013-04-25 11:08:00,
2013-04-25 07:09:00,60.7,15.7,30.20,WNW,285,1.0,6.0,17,0.00,,---,0.00,VWS V14.01,2013-04-25 11:09:00,
2013-04-25 07:10:00,60.7,17.0,30.20,WNW,285,1.0,6.0,18,0.00,,---,0.00,VWS V14.01,2013-04-25 11:10:00,
2013-04-25 07:11:00,60.7,17.0,30.20,West,271,1.0,6.0,18,0.00,,---,0.00,VWS V14.01,2013-04-25 11:11:00,
2013-04-25 07:12:00,60.5,15.5,30.20,West,271,0.0,6.0,17,0.00,,---,0.00,VWS V14.01,2013-04-25 11:12:00,
2013-04-25 07:13:00,60.5,15.5,30.20,West,271,1.0,6.0,17,0.00,,---,0.00,VWS V14.01,2013-04-25 11:13:00,
2013-04-25 07:14:00,60.5,15.5,30.20,West,271,0.0,6.0,17,0.00,,---,0.00,VWS V14.01,2013-04-25 11:14:00,
2013-04-25 07:15:00,60.5,15.5,30.20,West,271,0.0,6.0,17,0.00,,---,0.00,VWS V14.01,2013-04-25 11:15:00,
2013-04-25 07:16:00,60.4,16.7,30.20,West,271,0.0,6.0,18,0.00,,---,0.00,VWS V14.01,2013-04-25 11:16:00,
2013-04-25 07:17:00,60.4,16.7,30.20,West,271,1.0,6.0,18,0.00,,---,0.00,VWS V14.01,2013-04-25 11:17:00,
2013-04-25 07:18:00,60.4,16.7,30.20,WNW,285,2.0,6.0,18,0.00,,---,0.00,VWS V14.01,2013-04-25 11:18:00,
2013-04-25 07:19:00,60.4,16.7,30.20,WNW,285,0.0,6.0,18,0.00,,---,0.00,VWS V14.01,2013-04-25 11:19:00,
2013-04-25 07:20:00,60.2,16.6,30.20,WNW,285,0.0,6.0,18,0.00,,---,0.00,VWS V14.01,2013-04-25 11:20:00,
2013-04-25 07:21:00,60.2,17.8,30.20,WNW,285,0.0,2.0,19,0.00,,---,0.00,VWS V14.01,2013-04-25 11:21:00,
2013-04-25 07:22:00,60.2,16.6,30.20,West,281,2.0,3.0,18,0.00,,---,0.00,VWS V14.01,2013-04-25 11:22:00,
2013-04-25 07:23:00,60.1,16.5,30.20,West,281,1.0,3.0,18,0.00,,---,0.00,VWS V14.01,2013-04-25 11:23:00,
2013-04-25 07:24:00,60.1,15.2,30.20,WSW,241,0.0,3.0,17,0.00,,---,0.00,VWS V14.01,2013-04-25 11:24:00,
2013-04-25 07:25:00,59.9,16.3,30.20,WSW,241,0.0,3.0,18,0.00,,---,0.00,VWS V14.01,2013-04-25 11:25:00,
2013-04-25 07:26:00,59.9,16.3,30.20,WSW,241,0.0,3.0,18,0.00,,---,0.00,VWS V14.01,2013-04-25 11:26:00,
2013-04-25 07:27:00,59.9,16.3,30.20,WSW,241,0.0,3.0,18,0.00,,---,0.00,VWS V14.01,2013-04-25 11:27:00,
2013-04-25 07:28:00,59.8,16.2,30.20,WSW,240,0.0,3.0,18,0.00,,---,0.00,VWS V14.01,2013-04-25 11:28:00,
2013-04-25 07:29:00,59.8,16.2,30.20,WSW,241,1.0,3.0,18,0.00,,---,0.00,VWS V14.01,2013-04-25 11:29:00,
2013-04-25 07:30:00,59.8,16.2,30.20,WSW,241,1.0,3.0,18,0.00,,---,0.00,VWS V14.01,2013-04-25 11:30:00,
2013-04-25 07:31:00,59.8,16.2,30.20,WSW,241,0.0,1.0,18,0.00,,---,0.00,VWS V14.01,2013-04-25 11:31:00,
2013-04-25 07:32:00,59.6,16.1,30.20,WSW,241,0.0,1.0,18,0.00,,---,0.00,VWS V14.01,2013-04-25 11:32:00,
2013-04-25 07:33:00,59.6,18.5,30.20,WSW,241,2.0,2.0,20,0.00,,---,0.00,VWS V14.01,2013-04-25 11:33:00,
2013-04-25 07:34:00,59.5,18.4,30.20,WSW,241,1.0,2.0,20,0.00,,---,0.00,VWS V14.01,2013-04-25 11:34:00,
2013-04-25 07:35:00,59.5,18.4,30.20,WSW,241,6.0,6.0,20,0.00,,---,0.00,VWS V14.01,2013-04-25 11:35:00,
2013-04-25 07:36:00,59.3,17.1,30.20,WSW,241,2.0,6.0,19,0.00,,---,0.00,VWS V14.01,2013-04-25 11:36:00,
2013-04-25 07:37:00,59.3,17.1,30.20,WSW,241,2.0,6.0,19,0.00,,---,0.00,VWS V14.01,2013-04-25 11:37:00,
2013-04-25 07:38:00,59.2,17.0,30.20,WSW,241,4.0,6.0,19,0.00,,---,0.00,VWS V14.01,2013-04-25 11:38:00,
2013-04-25 07:39:00,59.2,18.2,30.20,WSW,241,3.0,6.0,20,0.00,,---,0.00,VWS V14.01,2013-04-25 11:39:00,
2013-04-25 07:40:00,59.2,18.2,30.20,WSW,241,3.0,6.0,20,0.00,,---,0.00,VWS V14.01,2013-04-25 11:40:00,
2013-04-25 07:41:00,59.0,18.0,30.20,WSW,238,6.0,6.0,20,0.00,,---,0.00,VWS V14.01,2013-04-25 11:41:00,
2013-04-25 07:42:00,58.9,17.9,30.20,WSW,237,5.0,6.0,20,0.00,,---,0.00,VWS V14.01,2013-04-25 11:42:00,
2013-04-25 07:43:00,58.9,17.9,30.20,WSW,237,0.0,6.0,20,0.00,,---,0.00,VWS V14.01,2013-04-25 11:43:00,
2013-04-25 07:44:00,58.7,18.9,30.20,West,278,4.0,6.0,21,0.00,,---,0.00,VWS V14.01,2013-04-25 11:44:00,
2013-04-25 07:45:00,58.7,18.9,30.22,WNW,289,1.0,7.0,21,0.00,,---,0.00,VWS V14.01,2013-04-25 11:45:00,
2013-04-25 07:46:00,58.6,18.8,30.22,WNW,289,0.0,7.0,21,0.00,,---,0.00,VWS V14.01,2013-04-25 11:46:00,
2013-04-25 07:47:00,58.6,18.8,30.22,WNW,289,0.0,7.0,21,0.00,,---,0.00,VWS V14.01,2013-04-25 11:47:00,
2013-04-25 07:48:00,58.4,19.7,30.22,WNW,289,0.0,7.0,22,0.00,,---,0.00,VWS V14.01,2013-04-25 11:48:00,
2013-04-25 07:49:00,58.4,20.8,30.22,WNW,289,0.0,7.0,23,0.00,,---,0.00,VWS V14.01,2013-04-25 11:49:00,
2013-04-25 07:50:00,58.4,20.8,30.22,WSW,252,1.0,7.0,23,0.00,,---,0.00,VWS V14.01,2013-04-25 11:50:00,
2013-04-25 07:51:00,58.3,19.6,30.22,WSW,252,0.0,0.0,22,0.00,,---,0.00,VWS V14.01,2013-04-25 11:51:00,
2013-04-25 07:52:00,58.3,19.6,30.22,WSW,252,0.0,0.0,22,0.00,,---,0.00,VWS V14.01,2013-04-25 11:52:00,
2013-04-25 07:53:00,58.1,19.5,30.22,WSW,252,0.0,0.0,22,0.00,,---,0.00,VWS V14.01,2013-04-25 11:53:00,
2013-04-25 07:54:00,58.1,20.5,30.22,WSW,252,0.0,0.0,23,0.00,,---,0.00,VWS V14.01,2013-04-25 11:54:00,
2013-04-25 07:55:00,58.1,21.5,30.22,WSW,252,0.0,0.0,24,0.00,,---,0.00,VWS V14.01,2013-04-25 11:55:00,
2013-04-25 07:56:00,58.0,20.4,30.22,NW,307,0.0,0.0,23,0.00,,---,0.00,VWS V14.01,2013-04-25 11:56:00,
2013-04-25 07:57:00,58.0,18.3,30.22,NW,307,0.0,0.0,21,0.00,,---,0.00,VWS V14.01,2013-04-25 11:57:00,
2013-04-25 07:58:00,57.8,19.2,30.22,NW,307,0.0,0.0,22,0.00,,---,0.00,VWS V14.01,2013-04-25 11:58:00,
2013-04-25 07:59:00,57.8,19.2,30.22,NW,307,0.0,0.0,22,0.00,,---,0.00,VWS V14.01,2013-04-25 11:59:00,
2013-04-25 08:00:00,57.6,20.1,30.22,NW,307,0.0,0.0,23,0.00,,---,0.00,VWS V14.01,2013-04-25 12:00:00,
2013-04-25 08:01:00,57.6,19.1,30.22,NW,307,0.0,0.0,22,0.00,,---,0.00,VWS V14.01,2013-04-25 12:01:00,
2013-04-25 08:02:00,57.6,19.1,30.22,NW,307,0.0,0.0,22,0.00,,---,0.00,VWS V14.01,2013-04-25 12:02:00,
2013-04-25 08:03:00,57.6,19.1,30.22,NW,307,0.0,0.0,22,0.00,,---,0.00,VWS V14.01,2013-04-25 12:03:00,
2013-04-25 08:04:00,57.5,19.0,30.22,NW,307,0.0,0.0,22,0.00,,---,0.00,VWS V14.01,2013-04-25 12:04:00,
2013-04-25 08:05:00,57.5,20.0,30.22,NW,307,0.0,0.0,23,0.00,,---,0.00,VWS V14.01,2013-04-25 12:05:00,
2013-04-25 08:06:00,57.5,21.0,30.22,NW,307,0.0,0.0,24,0.00,,---,0.00,VWS V14.01,2013-04-25 12:06:00,
2013-04-25 08:07:00,57.3,20.8,30.22,NW,307,0.0,0.0,24,0.00,,---,0.00,VWS V14.01,2013-04-25 12:07:00,
2013-04-25 08:08:00,57.3,20.8,30.22,NW,306,0.0,0.0,24,0.00,,---,0.00,VWS V14.01,2013-04-25 12:08:00,
2013-04-25 08:09:00,57.2,20.8,30.22,NW,306,0.0,0.0,24,0.00,,---,0.00,VWS V14.01,2013-04-25 12:09:00,
2013-04-25 08:10:00,57.0,22.5,30.22,South,183,1.0,3.0,26,0.00,,---,0.00,VWS V14.01,2013-04-25 12:10:00,
2013-04-25 08:11:00,57.0,21.5,30.22,South,183,0.0,1.0,25,0.00,,---,0.00,VWS V14.01,2013-04-25 12:11:00,
2013-04-25 08:12:00,56.9,21.5,30.22,South,183,0.0,3.0,25,0.00,,---,0.00,VWS V14.01,2013-04-25 12:12:00,
2013-04-25 08:13:00,56.7,21.3,30.22,South,183,0.0,3.0,25,0.00,,---,0.00,VWS V14.01,2013-04-25 12:13:00,
2013-04-25 08:14:00,56.6,22.1,30.22,South,183,0.0,3.0,26,0.00,,---,0.00,VWS V14.01,2013-04-25 12:14:00,
2013-04-25 08:15:00,56.6,23.0,30.22,South,175,0.0,3.0,27,0.00,,---,0.00,VWS V14.01,2013-04-25 12:15:00,
2013-04-25 08:16:00,56.5,22.9,30.22,South,183,0.0,3.0,27,0.00,,---,0.00,VWS V14.01,2013-04-25 12:16:00,
2013-04-25 08:17:00,56.3,22.8,30.22,South,183,0.0,3.0,27,0.00,,---,0.00,VWS V14.01,2013-04-25 12:17:00,
2013-04-25 08:18:00,56.2,22.7,30.22,South,183,0.0,3.0,27,0.00,,---,0.00,VWS V14.01,2013-04-25 12:18:00,
2013-04-25 08:19:00,56.2,21.8,30.22,South,183,0.0,3.0,26,0.00,,---,0.00,VWS V14.01,2013-04-25 12:19:00,
2013-04-25 08:20:00,56.0,22.5,30.22,South,183,0.0,3.0,27,0.00,,---,0.00,VWS V14.01,2013-04-25 12:20:00,
2013-04-25 08:21:00,56.0,21.6,30.22,South,183,0.0,0.0,26,0.00,,---,0.00,VWS V14.01,2013-04-25 12:21:00,
2013-04-25 08:22:00,55.9,21.5,30.22,South,183,0.0,0.0,26,0.00,,---,0.00,VWS V14.01,2013-04-25 12:22:00,
2013-04-25 08:23:00,55.7,21.4,30.22,South,183,1.0,1.0,26,0.00,,---,0.00,VWS V14.01,2013-04-25 12:23:00,
2013-04-25 08:24:00,55.7,22.3,30.22,South,183,0.0,2.0,27,0.00,,---,0.00,VWS V14.01,2013-04-25 12:24:00,
2013-04-25 08:25:00,55.6,23.0,30.22,South,183,0.0,2.0,28,0.00,,---,0.00,VWS V14.01,2013-04-25 12:25:00,
2013-04-25 08:26:00,55.4,22.0,30.22,South,183,0.0,2.0,27,0.00,,---,0.00,VWS V14.01,2013-04-25 12:26:00,
2013-04-25 08:27:00,55.3,22.8,30.22,South,183,2.0,2.0,28,0.00,,---,0.00,VWS V14.01,2013-04-25 12:27:00,
2013-04-25 08:28:00,55.3,21.9,30.22,ESE,110,0.0,3.0,27,0.00,,---,0.00,VWS V14.01,2013-04-25 12:28:00,
2013-04-25 08:29:00,55.1,20.9,30.22,ESE,110,0.0,3.0,26,0.00,,---,0.00,VWS V14.01,2013-04-25 12:29:00,
2013-04-25 08:30:00,55.0,19.8,30.23,ESE,110,0.0,3.0,25,0.00,,---,0.00,VWS V14.01,2013-04-25 12:30:00,
2013-04-25 08:31:00,54.8,19.7,30.23,ESE,110,0.0,0.0,25,0.00,,---,0.00,VWS V14.01,2013-04-25 12:31:00,
2013-04-25 08:32:00,54.8,19.7,30.23,ESE,110,0.0,0.0,25,0.00,,---,0.00,VWS V14.01,2013-04-25 12:32:00,
2013-04-25 08:33:00,54.7,22.3,30.23,ESE,110,0.0,0.0,28,0.00,,---,0.00,VWS V14.01,2013-04-25 12:33:00,
2013-04-25 08:34:00,54.7,22.3,30.23,ESE,110,0.0,1.0,28,0.00,,---,0.00,VWS V14.01,2013-04-25 12:34:00,
2013-04-25 08:35:00,54.5,22.1,30.23,ESE,110,0.0,1.0,28,0.00,,---,0.00,VWS V14.01,2013-04-25 12:35:00,
2013-04-25 08:36:00,54.5,22.1,30.23,ESE,110,0.0,1.0,28,0.00,,---,0.00,VWS V14.01,2013-04-25 12:36:00,
2013-04-25 08:37:00,54.4,21.1,30.23,ESE,110,0.0,1.0,27,0.00,,---,0.00,VWS V14.01,2013-04-25 12:37:00,
2013-04-25 08:38:00,54.4,22.0,30.23,ESE,110,0.0,1.0,28,0.00,,---,0.00,VWS V14.01,2013-04-25 12:38:00,
2013-04-25 08:39:00,54.2,21.8,30.23,ESE,110,0.0,1.0,28,0.00,,---,0.00,VWS V14.01,2013-04-25 12:39:00,
2013-04-25 08:40:00,54.2,21.8,30.23,ESE,110,0.0,1.0,28,0.00,,---,0.00,VWS V14.01,2013-04-25 12:40:00,
2013-04-25 08:41:00,54.2,21.8,30.23,ESE,110,0.0,0.0,28,0.00,,---,0.00,VWS V14.01,2013-04-25 12:41:00,
2013-04-25 08:42:00,54.1,21.7,30.23,ESE,110,0.0,0.0,28,0.00,,---,0.00,VWS V14.01,2013-04-25 12:42:00,
2013-04-25 08:43:00,54.1,21.7,30.23,ESE,110,0.0,0.0,28,0.00,,---,0.00,VWS V14.01,2013-04-25 12:43:00,
2013-04-25 08:44:00,53.9,20.7,30.23,ESE,110,0.0,0.0,27,0.00,,---,0.00,VWS V14.01,2013-04-25 12:44:00,
2013-04-25 08:45:00,53.9,20.7,30.24,ESE,110,0.0,0.0,27,0.00,,---,0.00,VWS V14.01,2013-04-25 12:45:00,
2013-04-25 08:46:00,53.9,20.7,30.24,ESE,110,0.0,0.0,27,0.00,,---,0.00,VWS V14.01,2013-04-25 12:46:00,
2013-04-25 08:47:00,53.8,20.6,30.24,ESE,110,0.0,0.0,27,0.00,,---,0.00,VWS V14.01,2013-04-25 12:47:00,
2013-04-25 08:48:00,53.6,20.5,30.24,ESE,110,0.0,0.0,27,0.00,,---,0.00,VWS V14.01,2013-04-25 12:48:00,
2013-04-25 08:49:00,53.6,20.5,30.24,ESE,110,0.0,0.0,27,0.00,,---,0.00,VWS V14.01,2013-04-25 12:49:00,
2013-04-25 08:50:00,53.5,20.4,30.24,ESE,110,0.0,0.0,27,0.00,,---,0.00,VWS V14.01,2013-04-25 12:50:00,
2013-04-25 08:51:00,53.5,19.5,30.24,ESE,110,0.0,0.0,26,0.00,,---,0.00,VWS V14.01,2013-04-25 12:51:00,
2013-04-25 08:52:00,53.5,19.5,30.24,ESE,110,0.0,0.0,26,0.00,,---,0.00,VWS V14.01,2013-04-25 12:52:00,
2013-04-25 08:53:00,53.3,19.3,30.24,ESE,110,0.0,0.0,26,0.00,,---,0.00,VWS V14.01,2013-04-25 12:53:00,
2013-04-25 08:54:00,53.3,19.3,30.24,ESE,110,0.0,0.0,26,0.00,,---,0.00,VWS V14.01,2013-04-25 12:54:00,
2013-04-25 08:55:00,53.3,20.2,30.24,ESE,110,0.0,0.0,27,0.00,,---,0.00,VWS V14.01,2013-04-25 12:55:00,
2013-04-25 08:56:00,53.2,20.1,30.24,ESE,110,0.0,0.0,27,0.00,,---,0.00,VWS V14.01,2013-04-25 12:56:00,
2013-04-25 08:57:00,53.2,21.0,30.24,ESE,110,0.0,0.0,28,0.00,,---,0.00,VWS V14.01,2013-04-25 12:57:00,
2013-04-25 08:58:00,53.2,21.0,30.24,ESE,110,0.0,0.0,28,0.00,,---,0.00,VWS V14.01,2013-04-25 12:58:00,
2013-04-25 08:59:00,53.1,20.0,30.24,ESE,110,1.0,2.0,27,0.00,,---,0.00,VWS V14.01,2013-04-25 12:59:00,
2013-04-25 09:00:00,53.1,20.9,30.24,ESE,110,0.0,2.0,28,0.00,,---,0.00,VWS V14.01,2013-04-25 13:00:00,
2013-04-25 09:01:00,52.9,20.7,30.24,ESE,110,0.0,0.0,28,0.00,,---,0.00,VWS V14.01,2013-04-25 13:01:00,
2013-04-25 09:02:00,52.9,22.3,30.24,ESE,110,0.0,0.0,30,0.00,,---,0.00,VWS V14.01,2013-04-25 13:02:00,
2013-04-25 09:03:00,52.8,21.4,30.24,ESE,110,0.0,0.0,29,0.00,,---,0.00,VWS V14.01,2013-04-25 13:03:00,
2013-04-25 09:04:00,52.8,20.6,30.24,ESE,110,0.0,0.0,28,0.00,,---,0.00,VWS V14.01,2013-04-25 13:04:00,
2013-04-25 09:05:00,52.6,19.6,30.24,ESE,110,0.0,0.0,27,0.00,,---,0.00,VWS V14.01,2013-04-25 13:05:00,
2013-04-25 09:06:00,52.5,20.4,30.24,ESE,110,0.0,0.0,28,0.00,,---,0.00,VWS V14.01,2013-04-25 13:06:00,
2013-04-25 09:07:00,52.5,20.4,30.24,ESE,110,0.0,0.0,28,0.00,,---,0.00,VWS V14.01,2013-04-25 13:07:00,
2013-04-25 09:08:00,52.5,23.5,30.24,ESE,110,0.0,0.0,32,0.00,,---,0.00,VWS V14.01,2013-04-25 13:08:00,
2013-04-25 09:09:00,52.3,22.6,30.24,ESE,110,0.0,0.0,31,0.00,,---,0.00,VWS V14.01,2013-04-25 13:09:00,
2013-04-25 09:10:00,52.3,21.8,30.24,ESE,110,0.0,0.0,30,0.00,,---,0.00,VWS V14.01,2013-04-25 13:10:00,
2013-04-25 09:11:00,52.2,21.7,30.24,ESE,110,0.0,0.0,30,0.00,,---,0.00,VWS V14.01,2013-04-25 13:11:00,
2013-04-25 09:12:00,52.2,21.7,30.24,ESE,110,0.0,0.0,30,0.00,,---,0.00,VWS V14.01,2013-04-25 13:12:00,
2013-04-25 09:13:00,52.2,21.7,30.24,ESE,110,0.0,0.0,30,0.00,,---,0.00,VWS V14.01,2013-04-25 13:13:00,
2013-04-25 09:14:00,52.0,21.5,30.24,ESE,110,0.0,0.0,30,0.00,,---,0.00,VWS V14.01,2013-04-25 13:14:00,
2013-04-25 09:15:00,51.9,20.7,30.24,ESE,110,0.0,0.0,29,0.00,,---,0.00,VWS V14.01,2013-04-25 13:15:00,
2013-04-25 09:16:00,51.9,20.7,30.24,ESE,110,0.0,0.0,29,0.00,,---,0.00,VWS V14.01,2013-04-25 13:16:00,
2013-04-25 09:17:00,51.7,20.5,30.24,ESE,110,0.0,0.0,29,0.00,,---,0.00,VWS V14.01,2013-04-25 13:17:00,
2013-04-25 09:18:00,51.7,22.1,30.24,ESE,110,2.0,2.0,31,0.00,,---,0.00,VWS V14.01,2013-04-25 13:18:00,
2013-04-25 09:19:00,51.6,22.7,30.24,ESE,110,0.0,2.0,32,0.00,,---,0.00,VWS V14.01,2013-04-25 13:19:00,
2013-04-25 09:20:00,51.6,23.5,30.24,ESE,110,0.0,2.0,33,0.00,,---,0.00,VWS V14.01,2013-04-25 13:20:00,
2013-04-25 09:21:00,51.4,21.8,30.24,ESE,110,0.0,0.0,31,0.00,,---,0.00,VWS V14.01,2013-04-25 13:21:00,
2013-04-25 09:22:00,51.4,21.8,30.24,ESE,110,2.0,2.0,31,0.00,,---,0.00,VWS V14.01,2013-04-25 13:22:00,
2013-04-25 09:23:00,51.3,20.1,30.24,East,87,3.0,3.0,29,0.00,,---,0.00,VWS V14.01,2013-04-25 13:23:00,
2013-04-25 09:24:00,51.3,20.9,30.24,East,79,0.0,3.0,30,0.00,,---,0.00,VWS V14.01,2013-04-25 13:24:00,
2013-04-25 09:25:00,51.1,18.3,30.24,East,79,0.0,3.0,27,0.00,,---,0.00,VWS V14.01,2013-04-25 13:25:00,
2013-04-25 09:26:00,51.1,19.1,30.24,East,79,0.0,3.0,28,0.00,,---,0.00,VWS V14.01,2013-04-25 13:26:00,
2013-04-25 09:27:00,51.1,21.5,30.24,East,79,0.0,3.0,31,0.00,,---,0.00,VWS V14.01,2013-04-25 13:27:00,
2013-04-25 09:28:00,51.1,21.5,30.24,East,79,0.0,3.0,31,0.00,,---,0.00,VWS V14.01,2013-04-25 13:28:00,
2013-04-25 09:29:00,51.1,23.0,30.24,East,79,0.0,3.0,33,0.00,,---,0.00,VWS V14.01,2013-04-25 13:29:00,
2013-04-25 09:30:00,51.1,21.5,30.25,ENE,74,0.0,3.0,31,0.00,,---,0.00,VWS V14.01,2013-04-25 13:30:00,
2013-04-25 09:31:00,51.0,20.7,30.25,East,79,0.0,0.0,30,0.00,,---,0.00,VWS V14.01,2013-04-25 13:31:00,
2013-04-25 09:32:00,51.0,19.9,30.25,East,79,0.0,0.0,29,0.00,,---,0.00,VWS V14.01,2013-04-25 13:32:00,
2013-04-25 09:33:00,51.0,18.2,30.25,East,79,0.0,0.0,27,0.00,,---,0.00,VWS V14.01,2013-04-25 13:33:00,
2013-04-25 09:34:00,50.8,21.3,30.25,East,79,0.0,0.0,31,0.00,,---,0.00,VWS V14.01,2013-04-25 13:34:00,
2013-04-25 09:35:00,50.8,20.5,30.25,NE,45,3.0,3.0,30,0.00,,---,0.00,VWS V14.01,2013-04-25 13:35:00,
2013-04-25 09:36:00,50.8,18.9,30.25,West,261,4.0,7.0,28,0.00,,---,0.00,VWS V14.01,2013-04-25 13:36:00,
2013-04-25 09:37:00,50.8,18.0,30.25,SW,217,3.0,8.0,27,0.00,,---,0.00,VWS V14.01,2013-04-25 13:37:00,
2013-04-25 09:38:00,50.8,16.3,30.25,SW,216,0.0,8.0,25,0.00,,---,0.00,VWS V14.01,2013-04-25 13:38:00,
2013-04-25 09:39:00,51.0,18.2,30.25,SW,216,0.0,8.0,27,0.00,,---,0.00,VWS V14.01,2013-04-25 13:39:00,
2013-04-25 09:40:00,51.0,18.2,30.25,SW,216,0.0,8.0,27,0.00,,---,0.00,VWS V14.01,2013-04-25 13:40:00,
2013-04-25 09:41:00,51.0,19.9,30.25,SW,216,0.0,0.0,29,0.00,,---,0.00,VWS V14.01,2013-04-25 13:41:00,
2013-04-25 09:42:00,51.0,21.5,30.25,SW,216,0.0,3.0,31,0.00,,---,0.00,VWS V14.01,2013-04-25 13:42:00,
2013-04-25 09:43:00,51.0,19.1,30.25,SW,216,0.0,3.0,28,0.00,,---,0.00,VWS V14.01,2013-04-25 13:43:00,
2013-04-25 09:44:00,51.0,19.1,30.25,SW,216,0.0,3.0,28,0.00,,---,0.00,VWS V14.01,2013-04-25 13:44:00,
2013-04-25 09:45:00,51.0,19.1,30.26,SW,223,2.0,3.0,28,0.00,,---,0.00,VWS V14.01,2013-04-25 13:45:00,
2013-04-25 09:46:00,51.0,19.1,30.26,SSW,202,5.0,6.0,28,0.00,,---,0.00,VWS V14.01,2013-04-25 13:46:00,
2013-04-25 09:47:00,51.0,22.2,30.26,SSW,202,5.0,8.0,32,0.00,,---,0.00,VWS V14.01,2013-04-25 13:47:00,
2013-04-25 09:48:00,50.8,18.9,30.26,SSW,202,0.0,8.0,28,0.00,,---,0.00,VWS V14.01,2013-04-25 13:48:00,
2013-04-25 09:49:00,50.8,19.7,30.26,SSW,202,0.0,8.0,29,0.00,,---,0.00,VWS V14.01,2013-04-25 13:49:00,
2013-04-25 09:50:00,50.8,18.9,30.26,SSW,202,0.0,8.0,28,0.00,,---,0.00,VWS V14.01,2013-04-25 13:50:00,
2013-04-25 09:51:00,50.8,18.9,30.26,West,272,0.0,0.0,28,0.00,,---,0.00,VWS V14.01,2013-04-25 13:51:00,
2013-04-25 09:52:00,50.8,18.9,30.26,West,272,0.0,0.0,28,0.00,,---,0.00,VWS V14.01,2013-04-25 13:52:00,
2013-04-25 09:53:00,50.8,18.9,30.26,West,272,0.0,0.0,28,0.00,,---,0.00,VWS V14.01,2013-04-25 13:53:00,
2013-04-25 09:54:00,50.8,18.9,30.26,West,272,0.0,0.0,28,0.00,,---,0.00,VWS V14.01,2013-04-25 13:54:00,
2013-04-25 09:55:00,50.8,18.0,30.26,West,272,0.0,0.0,27,0.00,,---,0.00,VWS V14.01,2013-04-25 13:55:00,
2013-04-25 09:56:00,50.8,18.0,30.26,West,272,0.0,0.0,27,0.00,,---,0.00,VWS V14.01,2013-04-25 13:56:00,
2013-04-25 09:57:00,50.8,18.9,30.26,West,272,0.0,0.0,28,0.00,,---,0.00,VWS V14.01,2013-04-25 13:57:00,
2013-04-25 09:58:00,50.8,18.9,30.26,WSW,255,4.0,4.0,28,0.00,,---,0.00,VWS V14.01,2013-04-25 13:58:00,
2013-04-25 09:59:00,50.8,18.9,30.26,SW,233,3.0,5.0,28,0.00,,---,0.00,VWS V14.01,2013-04-25 13:59:00,
2013-04-25 10:00:00,50.7,18.0,30.26,NW,312,2.0,5.0,27,0.00,,---,0.00,VWS V14.01,2013-04-25 14:00:00,
2013-04-25 10:01:00,50.7,20.4,30.26,NW,312,2.0,3.0,30,0.00,,---,0.00,VWS V14.01,2013-04-25 14:01:00,
2013-04-25 10:02:00,50.7,19.6,30.26,SSW,211,7.0,7.0,29,0.00,,---,0.00,VWS V14.01,2013-04-25 14:02:00,
2013-04-25 10:03:00,50.7,19.6,30.26,SW,216,0.0,7.0,29,0.00,,---,0.00,VWS V14.01,2013-04-25 14:03:00,
2013-04-25 10:04:00,50.7,18.8,30.26,NNW,330,2.0,7.0,28,0.00,,---,0.00,VWS V14.01,2013-04-25 14:04:00,
2013-04-25 10:05:00,50.7,19.6,30.26,West,261,6.0,7.0,29,0.00,,---,0.00,VWS V14.01,2013-04-25 14:05:00,
2013-04-25 10:06:00,50.7,19.6,30.26,SW,231,7.0,7.0,29,0.00,,---,0.00,VWS V14.01,2013-04-25 14:06:00,
2013-04-25 10:07:00,50.7,19.6,30.26,SW,230,10.0,13.0,29,0.00,,---,0.00,VWS V14.01,2013-04-25 14:07:00,
2013-04-25 10:08:00,50.7,19.6,30.26,SW,230,10.0,13.0,29,0.00,,---,0.00,VWS V14.01,2013-04-25 14:08:00,
2013-04-25 10:09:00,51.0,18.2,30.26,North,5,0.0,13.0,27,0.00,,---,0.00,VWS V14.01,2013-04-25 14:09:00,
2013-04-25 10:10:00,51.0,18.2,30.26,North,5,0.0,13.0,27,0.00,,---,0.00,VWS V14.01,2013-04-25 14:10:00,
2013-04-25 10:11:00,51.1,17.4,30.26,NNW,343,5.0,5.0,26,0.00,,---,0.00,VWS V14.01,2013-04-25 14:11:00,
2013-04-25 10:12:00,51.1,16.5,30.26,WNW,298,0.0,5.0,25,0.00,,---,0.00,VWS V14.01,2013-04-25 14:12:00,
2013-04-25 10:13:00,51.1,17.4,30.26,WNW,298,0.0,5.0,26,0.00,,---,0.00,VWS V14.01,2013-04-25 14:13:00,
2013-04-25 10:14:00,51.1,18.3,30.26,WNW,298,0.0,5.0,27,0.00,,---,0.00,VWS V14.01,2013-04-25 14:14:00,
2013-04-25 10:15:00,51.1,18.3,30.25,WNW,298,2.0,5.0,27,0.00,,---,0.00,VWS V14.01,2013-04-25 14:15:00,
2013-04-25 10:16:00,51.1,18.3,30.25,WNW,298,0.0,5.0,27,0.00,,---,0.00,VWS V14.01,2013-04-25 14:16:00,
2013-04-25 10:17:00,51.1,18.3,30.25,WNW,298,0.0,5.0,27,0.00,,---,0.00,VWS V14.01,2013-04-25 14:17:00,
2013-04-25 10:18:00,51.1,19.1,30.25,WNW,298,0.0,5.0,28,0.00,,---,0.00,VWS V14.01,2013-04-25 14:18:00,
2013-04-25 10:19:00,51.1,19.1,30.25,WNW,303,1.0,5.0,28,0.00,,---,0.00,VWS V14.01,2013-04-25 14:19:00,
2013-04-25 10:20:00,51.1,18.3,30.25,WNW,303,0.0,5.0,27,0.00,,---,0.00,VWS V14.01,2013-04-25 14:20:00,
2013-04-25 10:21:00,51.1,18.3,30.25,WNW,303,0.0,1.0,27,0.00,,---,0.00,VWS V14.01,2013-04-25 14:21:00,
2013-04-25 10:22:00,51.1,19.1,30.25,WNW,286,5.0,5.0,28,0.00,,---,0.00,VWS V14.01,2013-04-25 14:22:00,
2013-04-25 10:23:00,51.1,19.1,30.25,WNW,286,0.0,5.0,28,0.00,,---,0.00,VWS V14.01,2013-04-25 14:23:00,
2013-04-25 10:24:00,51.0,19.1,30.25,WNW,286,0.0,5.0,28,0.00,,---,0.00,VWS V14.01,2013-04-25 14:24:00,
2013-04-25 10:25:00,51.0,19.1,30.25,WNW,293,0.0,5.0,28,0.00,,---,0.00,VWS V14.01,2013-04-25 14:25:00,
2013-04-25 10:26:00,51.0,19.1,30.25,WNW,293,0.0,5.0,28,0.00,,---,0.00,VWS V14.01,2013-04-25 14:26:00,
2013-04-25 10:27:00,51.0,18.2,30.25,WNW,293,0.0,5.0,27,0.00,,---,0.00,VWS V14.01,2013-04-25 14:27:00,
2013-04-25 10:28:00,51.0,19.1,30.25,WNW,293,0.0,5.0,28,0.00,,---,0.00,VWS V14.01,2013-04-25 14:28:00,
2013-04-25 10:29:00,50.8,18.9,30.25,WNW,293,0.0,5.0,28,0.00,,---,0.00,VWS V14.01,2013-04-25 14:29:00,
2013-04-25 10:30:00,50.8,18.0,30.25,WNW,293,0.0,5.0,27,0.00,,---,0.00,VWS V14.01,2013-04-25 14:30:00,
2013-04-25 10:31:00,50.8,18.0,30.25,WNW,293,0.0,0.0,27,0.00,,---,0.00,VWS V14.01,2013-04-25 14:31:00,
2013-04-25 10:32:00,50.8,18.9,30.25,WNW,293,2.0,2.0,28,0.00,,---,0.00,VWS V14.01,2013-04-25 14:32:00,
2013-04-25 10:33:00,50.8,19.7,30.25,WNW,296,0.0,5.0,29,0.00,,---,0.00,VWS V14.01,2013-04-25 14:33:00,
2013-04-25 10:34:00,50.7,19.6,30.25,WNW,303,4.0,5.0,29,0.00,,---,0.00,VWS V14.01,2013-04-25 14:34:00,
2013-04-25 10:35:00,50.7,19.6,30.25,WNW,302,2.0,5.0,29,0.00,,---,0.00,VWS V14.01,2013-04-25 14:35:00,
2013-04-25 10:36:00,50.7,21.2,30.25,WNW,302,0.0,5.0,31,0.00,,---,0.00,VWS V14.01,2013-04-25 14:36:00,
2013-04-25 10:37:00,50.5,21.8,30.25,WNW,302,0.0,5.0,32,0.00,,---,0.00,VWS V14.01,2013-04-25 14:37:00,
2013-04-25 10:38:00,50.5,21.0,30.25,WNW,302,1.0,5.0,31,0.00,,---,0.00,VWS V14.01,2013-04-25 14:38:00,
2013-04-25 10:39:00,50.5,21.0,30.25,WNW,302,2.0,5.0,31,0.00,,---,0.00,VWS V14.01,2013-04-25 14:39:00,
2013-04-25 10:40:00,50.4,20.9,30.25,WNW,300,3.0,5.0,31,0.00,,---,0.00,VWS V14.01,2013-04-25 14:40:00,
2013-04-25 10:41:00,50.4,20.1,30.25,WNW,300,0.0,3.0,30,0.00,,---,0.00,VWS V14.01,2013-04-25 14:41:00,
2013-04-25 10:42:00,50.4,20.9,30.25,WNW,300,0.0,3.0,31,0.00,,---,0.00,VWS V14.01,2013-04-25 14:42:00,
2013-04-25 10:43:00,50.4,20.9,30.25,WNW,296,2.0,3.0,31,0.00,,---,0.00,VWS V14.01,2013-04-25 14:43:00,
2013-04-25 10:44:00,50.2,20.8,30.25,WNW,298,3.0,3.0,31,0.00,,---,0.00,VWS V14.01,2013-04-25 14:44:00,
2013-04-25 10:45:00,50.2,20.8,30.25,WNW,299,0.0,3.0,31,0.00,,---,0.00,VWS V14.01,2013-04-25 14:45:00,
2013-04-25 10:46:00,50.1,20.7,30.25,West,279,3.0,5.0,31,0.00,,---,0.00,VWS V14.01,2013-04-25 14:46:00,
2013-04-25 10:47:00,50.1,19.1,30.25,West,272,5.0,6.0,29,0.00,,---,0.00,VWS V14.01,2013-04-25 14:47:00,
2013-04-25 10:48:00,50.1,18.3,30.25,WNW,286,3.0,6.0,28,0.00,,---,0.00,VWS V14.01,2013-04-25 14:48:00,
2013-04-25 10:49:00,50.1,18.3,30.25,WNW,286,3.0,6.0,28,0.00,,---,0.00,VWS V14.01,2013-04-25 14:49:00,
2013-04-25 10:50:00,50.1,18.3,30.25,WSW,242,3.0,6.0,28,0.00,,---,0.00,VWS V14.01,2013-04-25 14:50:00,
2013-04-25 10:51:00,50.1,18.3,30.25,WNW,285,1.0,5.0,28,0.00,,---,0.00,VWS V14.01,2013-04-25 14:51:00,
2013-04-25 10:52:00,50.1,18.3,30.25,NW,309,3.0,6.0,28,0.00,,---,0.00,VWS V14.01,2013-04-25 14:52:00,
2013-04-25 10:53:00,50.2,18.4,30.25,NW,307,2.0,6.0,28,0.00,,---,0.00,VWS V14.01,2013-04-25 14:53:00,
2013-04-25 10:54:00,50.2,18.4,30.25,NW,307,0.0,6.0,28,0.00,,---,0.00,VWS V14.01,2013-04-25 14:54:00,
2013-04-25 10:55:00,50.2,18.4,30.25,NW,307,2.0,6.0,28,0.00,,---,0.00,VWS V14.01,2013-04-25 14:55:00,
2013-04-25 10:56:00,50.4,18.5,30.25,NW,307,1.0,6.0,28,0.00,,---,0.00,VWS V14.01,2013-04-25 14:56:00,
2013-04-25 10:57:00,50.4,18.5,30.25,NW,307,0.0,6.0,28,0.00,,---,0.00,VWS V14.01,2013-04-25 14:57:00,
2013-04-25 10:58:00,50.4,18.5,30.25,NW,307,0.0,6.0,28,0.00,,---,0.00,VWS V14.01,2013-04-25 14:58:00,
2013-04-25 10:59:00,50.4,18.5,30.25,NW,307,0.0,6.0,28,0.00,,---,0.00,VWS V14.01,2013-04-25 14:59:00,
2013-04-25 11:00:00,50.4,18.5,30.25,NW,307,0.0,6.0,28,0.00,,---,0.00,VWS V14.01,2013-04-25 15:00:00,
2013-04-25 11:01:00,50.4,18.5,30.25,NW,306,0.0,0.0,28,0.00,,---,0.00,VWS V14.01,2013-04-25 15:01:00,
2013-04-25 11:02:00,50.4,18.5,30.25,NW,306,0.0,0.0,28,0.00,,---,0.00,VWS V14.01,2013-04-25 15:02:00,
2013-04-25 11:03:00,50.4,18.5,30.25,NW,305,0.0,0.0,28,0.00,,---,0.00,VWS V14.01,2013-04-25 15:03:00,
2013-04-25 11:04:00,50.4,19.4,30.25,NW,305,0.0,0.0,29,0.00,,---,0.00,VWS V14.01,2013-04-25 15:04:00,
2013-04-25 11:05:00,50.4,19.4,30.25,WNW,300,3.0,3.0,29,0.00,,---,0.00,VWS V14.01,2013-04-25 15:05:00,
2013-04-25 11:06:00,50.4,18.5,30.25,WSW,247,6.0,6.0,28,0.00,,---,0.00,VWS V14.01,2013-04-25 15:06:00,
2013-04-25 11:07:00,50.4,18.5,30.25,West,275,4.0,6.0,28,0.00,,---,0.00,VWS V14.01,2013-04-25 15:07:00,
2013-04-25 11:08:00,50.2,19.2,30.25,West,275,3.0,6.0,29,0.00,,---,0.00,VWS V14.01,2013-04-25 15:08:00,
2013-04-25 11:09:00,50.2,19.2,30.25,WNW,283,3.0,6.0,29,0.00,,---,0.00,VWS V14.01,2013-04-25 15:09:00,
2013-04-25 11:10:00,50.2,18.4,30.25,West,266,5.0,7.0,28,0.00,,---,0.00,VWS V14.01,2013-04-25 15:10:00,
2013-04-25 11:11:00,50.2,18.4,30.25,West,272,5.0,6.0,28,0.00,,---,0.00,VWS V14.01,2013-04-25 15:11:00,
2013-04-25 11:12:00,50.2,18.4,30.25,WSW,255,6.0,6.0,28,0.00,,---,0.00,VWS V14.01,2013-04-25 15:12:00,
2013-04-25 11:13:00,50.2,18.4,30.25,WNW,298,5.0,6.0,28,0.00,,---,0.00,VWS V14.01,2013-04-25 15:13:00,
2013-04-25 11:14:00,50.4,18.5,30.25,SW,231,4.0,8.0,28,0.00,,---,0.00,VWS V14.01,2013-04-25 15:14:00,
2013-04-25 11:15:00,50.4,18.5,30.24,West,268,0.0,8.0,28,0.00,,---,0.00,VWS V14.01,2013-04-25 15:15:00,
2013-04-25 11:16:00,50.4,18.5,30.24,West,268,2.0,8.0,28,0.00,,---,0.00,VWS V14.01,2013-04-25 15:16:00,
2013-04-25 11:17:00,50.4,18.5,30.24,West,268,1.0,8.0,28,0.00,,---,0.00,VWS V14.01,2013-04-25 15:17:00,
2013-04-25 11:18:00,50.4,19.4,30.24,West,266,4.0,8.0,29,0.00,,---,0.00,VWS V14.01,2013-04-25 15:18:00,
2013-04-25 11:19:00,50.4,19.4,30.24,West,264,2.0,8.0,29,0.00,,---,0.00,VWS V14.01,2013-04-25 15:19:00,
2013-04-25 11:20:00,50.4,19.4,30.24,West,265,2.0,8.0,29,0.00,,---,0.00,VWS V14.01,2013-04-25 15:20:00,
2013-04-25 11:21:00,50.4,19.4,30.24,West,265,2.0,3.0,29,0.00,,---,0.00,VWS V14.01,2013-04-25 15:21:00,
2013-04-25 11:22:00,50.4,20.1,30.24,West,265,0.0,3.0,30,0.00,,---,0.00,VWS V14.01,2013-04-25 15:22:00,
2013-04-25 11:23:00,50.4,20.1,30.24,West,265,0.0,3.0,30,0.00,,---,0.00,VWS V14.01,2013-04-25 15:23:00,
2013-04-25 11:24:00,50.4,20.9,30.24,West,268,1.0,3.0,31,0.00,,---,0.00,VWS V14.01,2013-04-25 15:24:00,
2013-04-25 11:25:00,50.4,20.9,30.24,West,266,2.0,3.0,31,0.00,,---,0.00,VWS V14.01,2013-04-25 15:25:00,
2013-04-25 11:26:00,50.2,20.0,30.24,West,266,0.0,3.0,30,0.00,,---,0.00,VWS V14.01,2013-04-25 15:26:00,
2013-04-25 11:27:00,50.2,20.0,30.24,West,266,0.0,3.0,30,0.00,,---,0.00,VWS V14.01,2013-04-25 15:27:00,
2013-04-25 11:28:00,50.2,22.2,30.24,West,262,3.0,4.0,33,0.00,,---,0.00,VWS V14.01,2013-04-25 15:28:00,
2013-04-25 11:29:00,50.1,20.7,30.24,SSW,213,0.0,6.0,31,0.00,,---,0.00,VWS V14.01,2013-04-25 15:29:00,
2013-04-25 11:30:00,50.1,21.4,30.24,WSW,245,3.0,6.0,32,0.00,,---,0.00,VWS V14.01,2013-04-25 15:30:00,
2013-04-25 11:31:00,50.1,21.4,30.24,West,261,1.0,5.0,32,0.00,,---,0.00,VWS V14.01,2013-04-25 15:31:00,
2013-04-25 11:32:00,49.9,19.7,30.24,WNW,289,2.0,6.0,30,0.00,,---,0.00,VWS V14.01,2013-04-25 15:32:00,
2013-04-25 11:33:00,49.9,19.7,30.24,WNW,286,3.0,6.0,30,0.00,,---,0.00,VWS V14.01,2013-04-25 15:33:00,
2013-04-25 11:34:00,49.9,19.7,30.24,WNW,286,2.0,6.0,30,0.00,,---,0.00,VWS V14.01,2013-04-25 15:34:00,
2013-04-25 11:35:00,49.9,19.7,30.24,WSW,257,3.0,6.0,30,0.00,,---,0.00,VWS V14.01,2013-04-25 15:35:00,
2013-04-25 11:36:00,49.9,19.7,30.24,West,265,0.0,6.0,30,0.00,,---,0.00,VWS V14.01,2013-04-25 15:36:00,
2013-04-25 11:37:00,49.9,19.7,30.24,West,265,2.0,6.0,30,0.00,,---,0.00,VWS V14.01,2013-04-25 15:37:00,
2013-04-25 11:38:00,49.9,19.7,30.24,WSW,252,3.0,6.0,30,0.00,,---,0.00,VWS V14.01,2013-04-25 15:38:00,
2013-04-25 11:39:00,50.1,19.9,30.24,WSW,244,3.0,6.0,30,0.00,,---,0.00,VWS V14.01,2013-04-25 15:39:00,
2013-04-25 11:40:00,50.1,19.9,30.24,SW,234,3.0,6.0,30,0.00,,---,0.00,VWS V14.01,2013-04-25 15:40:00,
2013-04-25 11:41:00,50.1,19.1,30.24,SW,234,0.0,3.0,29,0.00,,---,0.00,VWS V14.01,2013-04-25 15:41:00,
2013-04-25 11:42:00,50.1,19.1,30.24,SW,234,2.0,3.0,29,0.00,,---,0.00,VWS V14.01,2013-04-25 15:42:00,
2013-04-25 11:43:00,50.1,19.9,30.24,WSW,238,1.0,6.0,30,0.00,,---,0.00,VWS V14.01,2013-04-25 15:43:00,
2013-04-25 11:44:00,50.1,19.1,30.24,West,264,1.0,6.0,29,0.00,,---,0.00,VWS V14.01,2013-04-25 15:44:00,
2013-04-25 11:45:00,50.1,19.9,30.24,WSW,241,0.0,6.0,30,0.00,,---,0.00,VWS V14.01,2013-04-25 15:45:00,
2013-04-25 11:46:00,50.1,20.7,30.24,WSW,248,0.0,6.0,31,0.00,,---,0.00,VWS V14.01,2013-04-25 15:46:00,
2013-04-25 11:47:00,50.1,20.7,30.24,WSW,248,0.0,6.0,31,0.00,,---,0.00,VWS V14.01,2013-04-25 15:47:00,
2013-04-25 11:48:00,50.1,19.9,30.24,WSW,248,0.0,6.0,30,0.00,,---,0.00,VWS V14.01,2013-04-25 15:48:00,
2013-04-25 11:49:00,50.1,19.9,30.24,WSW,248,0.0,6.0,30,0.00,,---,0.00,VWS V14.01,2013-04-25 15:49:00,
2013-04-25 11:50:00,50.1,19.1,30.24,WSW,248,0.0,6.0,29,0.00,,---,0.00,VWS V14.01,2013-04-25 15:50:00,
2013-04-25 11:51:00,50.1,19.9,30.24,WSW,247,0.0,0.0,30,0.00,,---,0.00,VWS V14.01,2013-04-25 15:51:00,
2013-04-25 11:52:00,50.1,19.9,30.24,WSW,247,0.0,0.0,30,0.00,,---,0.00,VWS V14.01,2013-04-25 15:52:00,
2013-04-25 11:53:00,50.1,20.7,30.24,WSW,248,0.0,0.0,31,0.00,,---,0.00,VWS V14.01,2013-04-25 15:53:00,
2013-04-25 11:54:00,50.1,20.7,30.24,WSW,247,0.0,0.0,31,0.00,,---,0.00,VWS V14.01,2013-04-25 15:54:00,
2013-04-25 11:55:00,50.1,20.7,30.24,WSW,247,0.0,0.0,31,0.00,,---,0.00,VWS V14.01,2013-04-25 15:55:00,
2013-04-25 11:56:00,50.1,20.7,30.24,WSW,247,0.0,0.0,31,0.00,,---,0.00,VWS V14.01,2013-04-25 15:56:00,
2013-04-25 11:57:00,50.1,21.4,30.24,WSW,248,0.0,0.0,32,0.00,,---,0.00,VWS V14.01,2013-04-25 15:57:00,
2013-04-25 11:58:00,50.1,20.7,30.24,WSW,248,1.0,3.0,31,0.00,,---,0.00,VWS V14.01,2013-04-25 15:58:00,
2013-04-25 11:59:00,50.1,19.9,30.24,WSW,248,2.0,3.0,30,0.00,,---,0.00,VWS V14.01,2013-04-25 15:59:00,
2013-04-25 12:00:00,50.1,19.9,30.25,WSW,248,0.0,3.0,30,0.00,,---,0.00,VWS V14.01,2013-04-25 16:00:00,
2013-04-25 12:01:00,50.1,19.9,30.25,WSW,248,0.0,0.0,30,0.00,,---,0.00,VWS V14.01,2013-04-25 16:01:00,
2013-04-25 12:02:00,50.1,19.9,30.25,WSW,248,1.0,1.0,30,0.00,,---,0.00,VWS V14.01,2013-04-25 16:02:00,
2013-04-25 12:03:00,50.1,20.7,30.25,WSW,248,4.0,4.0,31,0.00,,---,0.00,VWS V14.01,2013-04-25 16:03:00,
2013-04-25 12:04:00,49.9,18.9,30.25,WSW,248,0.0,5.0,29,0.00,,---,0.00,VWS V14.01,2013-04-25 16:04:00,
2013-04-25 12:05:00,49.9,18.9,30.25,WSW,248,3.0,5.0,29,0.00,,---,0.00,VWS V14.01,2013-04-25 16:05:00,
2013-04-25 12:06:00,49.9,19.7,30.25,WSW,248,3.0,5.0,30,0.00,,---,0.00,VWS V14.01,2013-04-25 16:06:00,
2013-04-25 12:07:00,49.9,19.7,30.25,WSW,248,2.0,5.0,30,0.00,,---,0.00,VWS V14.01,2013-04-25 16:07:00,
2013-04-25 12:08:00,49.9,20.5,30.25,WSW,248,2.0,5.0,31,0.00,,---,0.00,VWS V14.01,2013-04-25 16:08:00,
2013-04-25 12:09:00,49.9,19.7,30.25,WSW,248,1.0,5.0,30,0.00,,---,0.00,VWS V14.01,2013-04-25 16:09:00,
2013-04-25 12:10:00,49.9,19.7,30.25,WSW,248,0.0,5.0,30,0.00,,---,0.00,VWS V14.01,2013-04-25 16:10:00,
2013-04-25 12:11:00,49.9,19.7,30.25,WSW,248,0.0,1.0,30,0.00,,---,0.00,VWS V14.01,2013-04-25 16:11:00,
2013-04-25 12:12:00,49.9,21.2,30.25,West,264,0.0,1.0,32,0.00,,---,0.00,VWS V14.01,2013-04-25 16:12:00,
2013-04-25 12:13:00,49.9,21.2,30.25,West,272,3.0,4.0,32,0.00,,---,0.00,VWS V14.01,2013-04-25 16:13:00,
2013-04-25 12:14:00,50.1,19.9,30.25,WSW,252,2.0,4.0,30,0.00,,---,0.00,VWS V14.01,2013-04-25 16:14:00,
2013-04-25 12:15:00,50.1,19.9,30.24,WSW,257,3.0,4.0,30,0.00,,---,0.00,VWS V14.01,2013-04-25 16:15:00,
2013-04-25 12:16:00,50.1,19.9,30.24,WNW,293,2.0,4.0,30,0.00,,---,0.00,VWS V14.01,2013-04-25 16:16:00,
2013-04-25 12:17:00,50.1,20.7,30.24,WNW,293,0.0,4.0,31,0.00,,---,0.00,VWS V14.01,2013-04-25 16:17:00,
2013-04-25 12:18:00,50.1,21.4,30.24,WNW,293,0.0,4.0,32,0.00,,---,0.00,VWS V14.01,2013-04-25 16:18:00,
2013-04-25 12:19:00,50.1,20.7,30.24,WNW,293,0.0,4.0,31,0.00,,---,0.00,VWS V14.01,2013-04-25 16:19:00,
2013-04-25 12:20:00,49.9,20.5,30.24,WNW,293,0.0,4.0,31,0.00,,---,0.00,VWS V14.01,2013-04-25 16:20:00,
2013-04-25 12:21:00,49.9,20.5,30.24,WNW,293,0.0,0.0,31,0.00,,---,0.00,VWS V14.01,2013-04-25 16:21:00,
2013-04-25 12:22:00,49.9,20.5,30.24,WNW,293,0.0,0.0,31,0.00,,---,0.00,VWS V14.01,2013-04-25 16:22:00,
2013-04-25 12:23:00,49.9,20.5,30.24,WNW,293,0.0,0.0,31,0.00,,---,0.00,VWS V14.01,2013-04-25 16:23:00,
2013-04-25 12:24:00,49.9,22.7,30.24,WNW,293,0.0,0.0,34,0.00,,---,0.00,VWS V14.01,2013-04-25 16:24:00,
2013-04-25 12:25:00,49.9,22.0,30.24,WNW,293,0.0,0.0,33,0.00,,---,0.00,VWS V14.01,2013-04-25 16:25:00,
2013-04-25 12:26:00,49.8,22.6,30.24,WNW,293,0.0,0.0,34,0.00,,---,0.00,VWS V14.01,2013-04-25 16:26:00,
2013-04-25 12:27:00,49.8,22.6,30.24,WNW,293,0.0,0.0,34,0.00,,---,0.00,VWS V14.01,2013-04-25 16:27:00,
2013-04-25 12:28:00,49.8,21.9,30.24,WNW,293,0.0,0.0,33,0.00,,---,0.00,VWS V14.01,2013-04-25 16:28:00,
2013-04-25 12:29:00,49.8,21.9,30.24,WNW,293,0.0,0.0,33,0.00,,---,0.00,VWS V14.01,2013-04-25 16:29:00,
2013-04-25 12:30:00,49.6,21.7,30.24,WNW,293,0.0,0.0,33,0.00,,---,0.00,VWS V14.01,2013-04-25 16:30:00,
2013-04-25 12:31:00,49.6,21.7,30.24,WNW,293,0.0,0.0,33,0.00,,---,0.00,VWS V14.01,2013-04-25 16:31:00,
2013-04-25 12:32:00,49.6,22.4,30.24,WNW,293,0.0,0.0,34,0.00,,---,0.00,VWS V14.01,2013-04-25 16:32:00,
2013-04-25 12:33:00,49.6,22.4,30.24,WNW,293,0.0,0.0,34,0.00,,---,0.00,VWS V14.01,2013-04-25 16:33:00,
2013-04-25 12:34:00,49.5,22.3,30.24,WNW,293,0.0,0.0,34,0.00,,---,0.00,VWS V14.01,2013-04-25 16:34:00,
2013-04-25 12:35:00,49.5,22.3,30.24,WNW,293,0.0,0.0,34,0.00,,---,0.00,VWS V14.01,2013-04-25 16:35:00,
2013-04-25 12:36:00,49.4,22.2,30.24,WNW,293,0.0,0.0,34,0.00,,---,0.00,VWS V14.01,2013-04-25 16:36:00,
2013-04-25 12:37:00,49.4,22.2,30.24,WNW,293,0.0,0.0,34,0.00,,---,0.00,VWS V14.01,2013-04-25 16:37:00,
2013-04-25 12:38:00,49.4,24.9,30.24,WNW,293,0.0,0.0,38,0.00,,---,0.00,VWS V14.01,2013-04-25 16:38:00,
2013-04-25 12:39:00,49.2,24.1,30.24,WNW,293,0.0,0.0,37,0.00,,---,0.00,VWS V14.01,2013-04-25 16:39:00,
2013-04-25 12:40:00,49.2,24.1,30.24,WNW,293,0.0,0.0,37,0.00,,---,0.00,VWS V14.01,2013-04-25 16:40:00,
2013-04-25 12:41:00,49.1,24.0,30.24,WNW,293,0.0,0.0,37,0.00,,---,0.00,VWS V14.01,2013-04-25 16:41:00,
2013-04-25 12:42:00,49.1,22.6,30.24,WNW,293,0.0,0.0,35,0.00,,---,0.00,VWS V14.01,2013-04-25 16:42:00,
2013-04-25 12:43:00,48.9,23.1,30.24,WNW,293,0.0,0.0,36,0.00,,---,0.00,VWS V14.01,2013-04-25 16:43:00,
2013-04-25 12:44:00,48.9,23.8,30.24,WNW,293,0.0,0.0,37,0.00,,---,0.00,VWS V14.01,2013-04-25 16:44:00,
2013-04-25 12:45:00,48.9,23.8,30.25,WNW,293,0.0,0.0,37,0.00,,---,0.00,VWS V14.01,2013-04-25 16:45:00,
2013-04-25 12:46:00,48.9,23.8,30.25,WNW,293,0.0,0.0,37,0.00,,---,0.00,VWS V14.01,2013-04-25 16:46:00,
2013-04-25 12:47:00,48.9,23.8,30.25,WNW,293,0.0,0.0,37,0.00,,---,0.00,VWS V14.01,2013-04-25 16:47:00,
2013-04-25 12:48:00,48.6,23.5,30.25,WNW,293,0.0,0.0,37,0.00,,---,0.00,VWS V14.01,2013-04-25 16:48:00,
2013-04-25 12:49:00,48.6,24.2,30.25,WNW,293,0.0,0.0,38,0.00,,---,0.00,VWS V14.01,2013-04-25 16:49:00,
2013-04-25 12:50:00,48.5,24.7,30.25,WNW,293,0.0,0.0,39,0.00,,---,0.00,VWS V14.01,2013-04-25 16:50:00,
2013-04-25 12:51:00,48.5,24.7,30.25,WNW,293,0.0,0.0,39,0.00,,---,0.00,VWS V14.01,2013-04-25 16:51:00,
2013-04-25 12:52:00,48.3,24.5,30.25,WNW,293,0.0,0.0,39,0.00,,---,0.00,VWS V14.01,2013-04-25 16:52:00,
2013-04-25 12:53:00,48.2,24.4,30.25,WNW,293,0.0,0.0,39,0.00,,---,0.00,VWS V14.01,2013-04-25 16:53:00,
2013-04-25 12:54:00,48.2,23.8,30.25,WNW,293,0.0,0.0,38,0.00,,---,0.00,VWS V14.01,2013-04-25 16:54:00,
2013-04-25 12:55:00,48.0,23.6,30.25,WNW,293,0.0,0.0,38,0.00,,---,0.00,VWS V14.01,2013-04-25 16:55:00,
2013-04-25 12:56:00,48.0,23.6,30.25,WNW,293,0.0,0.0,38,0.00,,---,0.00,VWS V14.01,2013-04-25 16:56:00,
2013-04-25 12:57:00,47.9,23.5,30.25,WNW,293,0.0,0.0,38,0.00,,---,0.00,VWS V14.01,2013-04-25 16:57:00,
2013-04-25 12:58:00,47.9,23.5,30.25,WNW,293,0.0,0.0,38,0.00,,---,0.00,VWS V14.01,2013-04-25 16:58:00,
2013-04-25 12:59:00,47.7,23.4,30.25,WNW,293,0.0,0.0,38,0.00,,---,0.00,VWS V14.01,2013-04-25 16:59:00,
2013-04-25 13:00:00,47.7,23.4,30.25,WNW,293,0.0,0.0,38,0.00,,---,0.00,VWS V14.01,2013-04-25 17:00:00,
2013-04-25 13:01:00,47.7,24.0,30.25,WNW,293,0.0,0.0,39,0.00,,---,0.00,VWS V14.01,2013-04-25 17:01:00,
2013-04-25 13:02:00,47.6,23.9,30.25,WNW,293,0.0,0.0,39,0.00,,---,0.00,VWS V14.01,2013-04-25 17:02:00,
2013-04-25 13:03:00,47.6,23.9,30.25,WNW,293,0.0,0.0,39,0.00,,---,0.00,VWS V14.01,2013-04-25 17:03:00,
2013-04-25 13:04:00,47.6,25.1,30.25,WNW,293,0.0,0.0,41,0.00,,---,0.00,VWS V14.01,2013-04-25 17:04:00,
2013-04-25 13:05:00,47.4,24.3,30.25,WNW,293,0.0,0.0,40,0.00,,---,0.00,VWS V14.01,2013-04-25 17:05:00,
2013-04-25 13:06:00,47.4,24.9,30.25,WNW,293,0.0,0.0,41,0.00,,---,0.00,VWS V14.01,2013-04-25 17:06:00,
2013-04-25 13:07:00,47.4,24.9,30.25,WNW,293,0.0,0.0,41,0.00,,---,0.00,VWS V14.01,2013-04-25 17:07:00,
2013-04-25 13:08:00,47.3,24.8,30.25,WNW,293,0.0,0.0,41,0.00,,---,0.00,VWS V14.01,2013-04-25 17:08:00,
2013-04-25 13:09:00,47.3,24.2,30.25,WNW,293,0.0,0.0,40,0.00,,---,0.00,VWS V14.01,2013-04-25 17:09:00,
2013-04-25 13:10:00,47.3,24.2,30.25,WNW,293,0.0,0.0,40,0.00,,---,0.00,VWS V14.01,2013-04-25 17:10:00,
2013-04-25 13:11:00,47.1,24.0,30.25,WNW,293,0.0,0.0,40,0.00,,---,0.00,VWS V14.01,2013-04-25 17:11:00,
2013-04-25 13:12:00,47.1,24.6,30.25,WNW,293,0.0,0.0,41,0.00,,---,0.00,VWS V14.01,2013-04-25 17:12:00,
2013-04-25 13:13:00,47.1,25.2,30.25,WNW,293,0.0,0.0,42,0.00,,---,0.00,VWS V14.01,2013-04-25 17:13:00,
2013-04-25 13:14:00,47.0,26.2,30.25,WNW,293,0.0,0.0,44,0.00,,---,0.00,VWS V14.01,2013-04-25 17:14:00,
2013-04-25 13:15:00,47.0,25.1,30.24,WNW,293,0.0,0.0,42,0.00,,---,0.00,VWS V14.01,2013-04-25 17:15:00,
2013-04-25 13:16:00,46.8,24.4,30.24,WNW,293,0.0,0.0,41,0.00,,---,0.00,VWS V14.01,2013-04-25 17:16:00,
2013-04-25 13:17:00,46.8,24.4,30.24,WNW,293,1.0,2.0,41,0.00,,---,0.00,VWS V14.01,2013-04-25 17:17:00,
2013-04-25 13:18:00,46.7,26.0,30.24,WNW,293,0.0,2.0,44,0.00,,---,0.00,VWS V14.01,2013-04-25 17:18:00,
2013-04-25 13:19:00,46.7,27.0,30.24,WNW,293,0.0,2.0,46,0.00,,---,0.00,VWS V14.01,2013-04-25 17:19:00,
2013-04-25 13:20:00,46.5,26.9,30.24,WNW,293,0.0,2.0,46,0.00,,---,0.00,VWS V14.01,2013-04-25 17:20:00,
2013-04-25 13:21:00,46.5,26.9,30.24,WNW,293,0.0,0.0,46,0.00,,---,0.00,VWS V14.01,2013-04-25 17:21:00,
2013-04-25 13:22:00,46.4,26.8,30.24,WNW,293,0.0,0.0,46,0.00,,---,0.00,VWS V14.01,2013-04-25 17:22:00,
2013-04-25 13:23:00,46.4,26.8,30.24,WNW,293,0.0,0.0,46,0.00,,---,0.00,VWS V14.01,2013-04-25 17:23:00,
2013-04-25 13:24:00,46.2,25.5,30.24,WNW,293,0.0,0.0,44,0.00,,---,0.00,VWS V14.01,2013-04-25 17:24:00,
2013-04-25 13:25:00,46.2,25.5,30.24,WNW,293,0.0,0.0,44,0.00,,---,0.00,VWS V14.01,2013-04-25 17:25:00,
2013-04-25 13:26:00,46.1,24.9,30.24,WNW,293,2.0,2.0,43,0.00,,---,0.00,VWS V14.01,2013-04-25 17:26:00,
2013-04-25 13:27:00,46.1,24.9,30.24,WNW,293,0.0,2.0,43,0.00,,---,0.00,VWS V14.01,2013-04-25 17:27:00,
2013-04-25 13:28:00,46.1,24.3,30.24,WNW,293,0.0,2.0,42,0.00,,---,0.00,VWS V14.01,2013-04-25 17:28:00,
2013-04-25 13:29:00,46.0,24.8,30.24,WNW,293,0.0,2.0,43,0.00,,---,0.00,VWS V14.01,2013-04-25 17:29:00,
2013-04-25 13:30:00,46.0,24.8,30.24,WNW,293,0.0,2.0,43,0.00,,---,0.00,VWS V14.01,2013-04-25 17:30:00,
2013-04-25 13:31:00,46.0,24.8,30.24,WNW,293,0.0,0.0,43,0.00,,---,0.00,VWS V14.01,2013-04-25 17:31:00,
2013-04-25 13:32:00,46.0,24.8,30.24,WNW,293,0.0,0.0,43,0.00,,---,0.00,VWS V14.01,2013-04-25 17:32:00,
2013-04-25 13:33:00,46.0,24.8,30.24,WNW,293,0.0,0.0,43,0.00,,---,0.00,VWS V14.01,2013-04-25 17:33:00,
2013-04-25 13:34:00,46.0,25.3,30.24,WNW,293,0.0,0.0,44,0.00,,---,0.00,VWS V14.01,2013-04-25 17:34:00,
2013-04-25 13:35:00,46.0,26.4,30.24,WNW,293,0.0,0.0,46,0.00,,---,0.00,VWS V14.01,2013-04-25 17:35:00,
2013-04-25 13:36:00,46.0,26.4,30.24,WNW,293,0.0,0.0,46,0.00,,---,0.00,VWS V14.01,2013-04-25 17:36:00,
2013-04-25 13:37:00,46.0,25.9,30.24,WNW,293,0.0,0.0,45,0.00,,---,0.00,VWS V14.01,2013-04-25 17:37:00,
2013-04-25 13:38:00,46.0,25.9,30.24,WNW,293,0.0,0.0,45,0.00,,---,0.00,VWS V14.01,2013-04-25 17:38:00,
2013-04-25 13:39:00,45.8,25.7,30.24,WNW,293,0.0,0.0,45,0.00,,---,0.00,VWS V14.01,2013-04-25 17:39:00,
2013-04-25 13:40:00,45.8,25.7,30.24,WNW,286,0.0,0.0,45,0.00,,---,0.00,VWS V14.01,2013-04-25 17:40:00,
2013-04-25 13:41:00,45.8,26.2,30.24,WNW,293,0.0,0.0,46,0.00,,---,0.00,VWS V14.01,2013-04-25 17:41:00,
2013-04-25 13:42:00,45.8,25.7,30.24,WNW,293,0.0,0.0,45,0.00,,---,0.00,VWS V14.01,2013-04-25 17:42:00,
2013-04-25 13:43:00,45.8,25.7,30.24,WNW,293,0.0,0.0,45,0.00,,---,0.00,VWS V14.01,2013-04-25 17:43:00,
2013-04-25 13:44:00,45.8,26.7,30.24,WNW,293,0.0,0.0,47,0.00,,---,0.00,VWS V14.01,2013-04-25 17:44:00,
2013-04-25 13:45:00,45.8,26.2,30.24,WNW,293,0.0,0.0,46,0.00,,---,0.00,VWS V14.01,2013-04-25 17:45:00,
2013-04-25 13:46:00,45.8,26.7,30.24,WNW,293,0.0,0.0,47,0.00,,---,0.00,VWS V14.01,2013-04-25 17:46:00,
2013-04-25 13:47:00,45.7,26.1,30.24,WNW,293,0.0,0.0,46,0.00,,---,0.00,VWS V14.01,2013-04-25 17:47:00,
2013-04-25 13:48:00,45.7,26.1,30.24,WNW,293,0.0,1.0,46,0.00,,---,0.00,VWS V14.01,2013-04-25 17:48:00,
2013-04-25 13:49:00,45.7,26.1,30.24,WNW,293,0.0,1.0,46,0.00,,---,0.00,VWS V14.01,2013-04-25 17:49:00,
2013-04-25 13:50:00,45.7,26.1,30.24,WNW,293,0.0,1.0,46,0.00,,---,0.00,VWS V14.01,2013-04-25 17:50:00,
2013-04-25 13:51:00,45.7,25.6,30.24,WNW,293,0.0,0.0,45,0.00,,---,0.00,VWS V14.01,2013-04-25 17:51:00,
2013-04-25 13:52:00,45.5,25.4,30.24,WNW,293,2.0,2.0,45,0.00,,---,0.00,VWS V14.01,2013-04-25 17:52:00,
2013-04-25 13:53:00,45.5,25.4,30.24,WNW,293,0.0,2.0,45,0.00,,---,0.00,VWS V14.01,2013-04-25 17:53:00,
2013-04-25 13:54:00,45.5,25.9,30.24,WNW,293,0.0,2.0,46,0.00,,---,0.00,VWS V14.01,2013-04-25 17:54:00,
2013-04-25 13:55:00,45.4,26.4,30.24,WNW,293,0.0,2.0,47,0.00,,---,0.00,VWS V14.01,2013-04-25 17:55:00,
2013-04-25 13:56:00,45.4,25.9,30.24,WNW,293,0.0,2.0,46,0.00,,---,0.00,VWS V14.01,2013-04-25 17:56:00,
2013-04-25 13:57:00,45.4,25.3,30.24,WNW,293,0.0,2.0,45,0.00,,---,0.00,VWS V14.01,2013-04-25 17:57:00,
2013-04-25 13:58:00,45.4,25.3,30.24,WNW,293,0.0,2.0,45,0.00,,---,0.00,VWS V14.01,2013-04-25 17:58:00,
2013-04-25 13:59:00,45.4,25.3,30.24,WNW,293,0.0,2.0,45,0.00,,---,0.00,VWS V14.01,2013-04-25 17:59:00,
2013-04-25 14:00:00,45.4,25.9,30.25,WNW,293,0.0,2.0,46,0.00,,---,0.00,VWS V14.01,2013-04-25 18:00:00,
2013-04-25 14:01:00,45.4,25.9,30.25,WNW,293,0.0,0.0,46,0.00,,---,0.00,VWS V14.01,2013-04-25 18:01:00,
2013-04-25 14:02:00,45.4,26.4,30.25,WNW,293,0.0,0.0,47,0.00,,---,0.00,VWS V14.01,2013-04-25 18:02:00,
2013-04-25 14:03:00,45.4,26.4,30.25,WNW,293,0.0,0.0,47,0.00,,---,0.00,VWS V14.01,2013-04-25 18:03:00,
2013-04-25 14:04:00,45.2,26.2,30.25,WNW,293,0.0,0.0,47,0.00,,---,0.00,VWS V14.01,2013-04-25 18:04:00,
2013-04-25 14:05:00,45.2,26.2,30.25,WNW,293,0.0,0.0,47,0.00,,---,0.00,VWS V14.01,2013-04-25 18:05:00,
2013-04-25 14:06:00,45.2,26.2,30.25,WNW,293,0.0,0.0,47,0.00,,---,0.00,VWS V14.01,2013-04-25 18:06:00,
2013-04-25 14:07:00,45.2,25.7,30.25,WNW,293,0.0,0.0,46,0.00,,---,0.00,VWS V14.01,2013-04-25 18:07:00,
2013-04-25 14:08:00,45.2,25.7,30.25,WNW,293,0.0,0.0,46,0.00,,---,0.00,VWS V14.01,2013-04-25 18:08:00,
2013-04-25 14:09:00,45.2,26.2,30.25,WNW,293,0.0,0.0,47,0.00,,---,0.00,VWS V14.01,2013-04-25 18:09:00,
2013-04-25 14:10:00,45.2,26.2,30.25,WNW,293,0.0,0.0,47,0.00,,---,0.00,VWS V14.01,2013-04-25 18:10:00,
2013-04-25 14:11:00,45.2,25.7,30.25,WNW,293,0.0,0.0,46,0.00,,---,0.00,VWS V14.01,2013-04-25 18:11:00,
2013-04-25 14:12:00,45.2,25.7,30.25,WNW,293,0.0,0.0,46,0.00,,---,0.00,VWS V14.01,2013-04-25 18:12:00,
2013-04-25 14:13:00,45.2,25.1,30.25,WNW,293,0.0,0.0,45,0.00,,---,0.00,VWS V14.01,2013-04-25 18:13:00,
2013-04-25 14:14:00,45.1,25.6,30.25,WNW,293,0.0,0.0,46,0.00,,---,0.00,VWS V14.01,2013-04-25 18:14:00,
2013-04-25 14:15:00,45.1,25.6,30.24,WNW,293,0.0,0.0,46,0.00,,---,0.00,VWS V14.01,2013-04-25 18:15:00,
2013-04-25 14:16:00,45.1,25.6,30.24,WNW,293,0.0,0.0,46,0.00,,---,0.00,VWS V14.01,2013-04-25 18:16:00,
2013-04-25 14:17:00,45.1,25.6,30.24,WNW,293,0.0,0.0,46,0.00,,---,0.00,VWS V14.01,2013-04-25 18:17:00,
2013-04-25 14:18:00,45.1,25.6,30.24,WNW,293,0.0,0.0,46,0.00,,---,0.00,VWS V14.01,2013-04-25 18:18:00,
2013-04-25 14:19:00,45.1,25.0,30.24,WNW,293,0.0,0.0,45,0.00,,---,0.00,VWS V14.01,2013-04-25 18:19:00,
2013-04-25 14:20:00,45.1,25.0,30.24,WNW,293,0.0,0.0,45,0.00,,---,0.00,VWS V14.01,2013-04-25 18:20:00,
2013-04-25 14:21:00,45.1,25.6,30.24,WNW,293,0.0,0.0,46,0.00,,---,0.00,VWS V14.01,2013-04-25 18:21:00,
2013-04-25 14:22:00,45.1,26.6,30.24,WNW,293,0.0,0.0,48,0.00,,---,0.00,VWS V14.01,2013-04-25 18:22:00,
2013-04-25 14:23:00,44.9,25.9,30.24,WNW,293,0.0,0.0,47,0.00,,---,0.00,VWS V14.01,2013-04-25 18:23:00,
2013-04-25 14:24:00,44.9,25.9,30.24,WNW,293,0.0,0.0,47,0.00,,---,0.00,VWS V14.01,2013-04-25 18:24:00,
2013-04-25 14:25:00,44.9,25.9,30.24,WNW,293,0.0,0.0,47,0.00,,---,0.00,VWS V14.01,2013-04-25 18:25:00,
2013-04-25 14:26:00,44.9,25.9,30.24,WNW,293,0.0,1.0,47,0.00,,---,0.00,VWS V14.01,2013-04-25 18:26:00,
2013-04-25 14:27:00,44.9,25.4,30.24,WNW,293,0.0,1.0,46,0.00,,---,0.00,VWS V14.01,2013-04-25 18:27:00,
2013-04-25 14:28:00,44.9,26.9,30.24,WNW,293,0.0,1.0,49,0.00,,---,0.00,VWS V14.01,2013-04-25 18:28:00,
2013-04-25 14:29:00,44.9,27.4,30.24,WNW,293,0.0,1.0,50,0.00,,---,0.00,VWS V14.01,2013-04-25 18:29:00,
2013-04-25 14:30:00,44.8,26.8,30.24,WNW,285,0.0,1.0,49,0.00,,---,0.00,VWS V14.01,2013-04-25 18:30:00,
2013-04-25 14:31:00,44.8,26.8,30.24,WNW,293,0.0,0.0,49,0.00,,---,0.00,VWS V14.01,2013-04-25 18:31:00,
2013-04-25 14:32:00,44.8,26.3,30.24,WNW,293,0.0,0.0,48,0.00,,---,0.00,VWS V14.01,2013-04-25 18:32:00,
2013-04-25 14:33:00,44.8,26.3,30.24,WNW,293,0.0,0.0,48,0.00,,---,0.00,VWS V14.01,2013-04-25 18:33:00,
2013-04-25 14:34:00,44.6,26.6,30.24,WNW,293,2.0,2.0,49,0.00,,---,0.00,VWS V14.01,2013-04-25 18:34:00,
2013-04-25 14:35:00,44.6,27.1,30.24,WNW,293,0.0,2.0,50,0.00,,---,0.00,VWS V14.01,2013-04-25 18:35:00,
2013-04-25 14:36:00,44.5,26.5,30.24,WNW,293,0.0,2.0,49,0.00,,---,0.00,VWS V14.01,2013-04-25 18:36:00,
2013-04-25 14:37:00,44.5,26.5,30.24,WNW,293,0.0,2.0,49,0.00,,---,0.00,VWS V14.01,2013-04-25 18:37:00,
2013-04-25 14:38:00,44.5,27.5,30.24,WNW,293,0.0,2.0,51,0.00,,---,0.00,VWS V14.01,2013-04-25 18:38:00,
2013-04-25 14:39:00,44.5,28.0,30.24,WNW,293,0.0,2.0,52,0.00,,---,0.00,VWS V14.01,2013-04-25 18:39:00,
2013-04-25 14:40:00,44.3,27.8,30.24,WNW,293,0.0,2.0,52,0.00,,---,0.00,VWS V14.01,2013-04-25 18:40:00,
2013-04-25 14:41:00,44.3,27.3,30.24,WNW,293,0.0,0.0,51,0.00,,---,0.00,VWS V14.01,2013-04-25 18:41:00,
2013-04-25 14:42:00,44.2,26.8,30.24,WNW,293,0.0,0.0,50,0.00,,---,0.00,VWS V14.01,2013-04-25 18:42:00,
2013-04-25 14:43:00,44.2,26.8,30.24,WNW,293,0.0,0.0,50,0.00,,---,0.00,VWS V14.01,2013-04-25 18:43:00,
2013-04-25 14:44:00,44.2,26.3,30.24,WNW,293,0.0,0.0,49,0.00,,---,0.00,VWS V14.01,2013-04-25 18:44:00,
2013-04-25 14:45:00,44.2,26.3,30.25,WNW,293,0.0,0.0,49,0.00,,---,0.00,VWS V14.01,2013-04-25 18:45:00,
2013-04-25 14:46:00,44.2,26.3,30.25,WNW,293,0.0,0.0,49,0.00,,---,0.00,VWS V14.01,2013-04-25 18:46:00,
2013-04-25 14:47:00,44.2,26.3,30.25,WNW,286,0.0,0.0,49,0.00,,---,0.00,VWS V14.01,2013-04-25 18:47:00,
2013-04-25 14:48:00,44.2,26.3,30.25,WNW,286,0.0,0.0,49,0.00,,---,0.00,VWS V14.01,2013-04-25 18:48:00,
2013-04-25 14:49:00,43.9,26.0,30.25,WNW,293,0.0,0.0,49,0.00,,---,0.00,VWS V14.01,2013-04-25 18:49:00,
2013-04-25 14:50:00,43.9,26.0,30.25,WNW,293,0.0,0.0,49,0.00,,---,0.00,VWS V14.01,2013-04-25 18:50:00,
2013-04-25 14:51:00,43.9,26.0,30.25,WNW,293,0.0,0.0,49,0.00,,---,0.00,VWS V14.01,2013-04-25 18:51:00,
2013-04-25 14:52:00,43.9,27.4,30.25,WNW,293,0.0,0.0,52,0.00,,---,0.00,VWS V14.01,2013-04-25 18:52:00,
2013-04-25 14:53:00,43.8,27.3,30.25,WNW,293,0.0,0.0,52,0.00,,---,0.00,VWS V14.01,2013-04-25 18:53:00,
2013-04-25 14:54:00,43.8,27.3,30.25,WNW,293,0.0,0.0,52,0.00,,---,0.00,VWS V14.01,2013-04-25 18:54:00,
2013-04-25 14:55:00,43.8,26.9,30.25,WNW,286,0.0,0.0,51,0.00,,---,0.00,VWS V14.01,2013-04-25 18:55:00,
2013-04-25 14:56:00,43.6,26.7,30.25,WNW,293,0.0,0.0,51,0.00,,---,0.00,VWS V14.01,2013-04-25 18:56:00,
2013-04-25 14:57:00,43.6,26.7,30.25,WNW,293,0.0,0.0,51,0.00,,---,0.00,VWS V14.01,2013-04-25 18:57:00,
2013-04-25 14:58:00,43.6,26.7,30.25,WNW,293,0.0,0.0,51,0.00,,---,0.00,VWS V14.01,2013-04-25 18:58:00,
2013-04-25 14:59:00,43.5,26.6,30.25,WNW,293,0.0,0.0,51,0.00,,---,0.00,VWS V14.01,2013-04-25 18:59:00,
2013-04-25 15:00:00,43.5,27.1,30.24,WNW,293,0.0,0.0,52,0.00,,---,0.00,VWS V14.01,2013-04-25 19:00:00,
2013-04-25 15:01:00,43.5,26.6,30.24,WNW,293,0.0,0.0,51,0.00,,---,0.00,VWS V14.01,2013-04-25 19:01:00,
2013-04-25 15:02:00,43.3,26.4,30.24,WNW,293,0.0,0.0,51,0.00,,---,0.00,VWS V14.01,2013-04-25 19:02:00,
2013-04-25 15:03:00,43.3,26.4,30.24,WNW,293,0.0,0.0,51,0.00,,---,0.00,VWS V14.01,2013-04-25 19:03:00,
2013-04-25 15:04:00,43.3,27.3,30.24,WNW,293,0.0,0.0,53,0.00,,---,0.00,VWS V14.01,2013-04-25 19:04:00,
2013-04-25 15:05:00,43.3,27.8,30.24,WNW,293,0.0,0.0,54,0.00,,---,0.00,VWS V14.01,2013-04-25 19:05:00,
2013-04-25 15:06:00,43.3,27.8,30.24,WNW,293,0.0,0.0,54,0.00,,---,0.00,VWS V14.01,2013-04-25 19:06:00,
2013-04-25 15:07:00,43.2,27.7,30.24,WNW,293,0.0,0.0,54,0.00,,---,0.00,VWS V14.01,2013-04-25 19:07:00,
2013-04-25 15:08:00,43.2,27.7,30.24,WNW,293,0.0,0.0,54,0.00,,---,0.00,VWS V14.01,2013-04-25 19:08:00,
2013-04-25 15:09:00,43.2,28.1,30.24,WNW,293,0.0,0.0,55,0.00,,---,0.00,VWS V14.01,2013-04-25 19:09:00,
2013-04-25 15:10:00,43.1,28.0,30.24,WNW,293,0.0,0.0,55,0.00,,---,0.00,VWS V14.01,2013-04-25 19:10:00,
2013-04-25 15:11:00,43.1,27.6,30.24,WNW,293,0.0,0.0,54,0.00,,---,0.00,VWS V14.01,2013-04-25 19:11:00,
2013-04-25 15:12:00,43.1,27.6,30.24,WNW,293,0.0,0.0,54,0.00,,---,0.00,VWS V14.01,2013-04-25 19:12:00,
2013-04-25 15:13:00,42.9,27.4,30.24,WNW,293,0.0,0.0,54,0.00,,---,0.00,VWS V14.01,2013-04-25 19:13:00,
2013-04-25 15:14:00,42.9,27.9,30.24,WNW,293,0.0,0.0,55,0.00,,---,0.00,VWS V14.01,2013-04-25 19:14:00,
2013-04-25 15:15:00,42.9,27.9,30.24,WNW,293,0.0,0.0,55,0.00,,---,0.00,VWS V14.01,2013-04-25 19:15:00,
2013-04-25 15:16:00,42.9,27.9,30.24,WNW,293,0.0,0.0,55,0.00,,---,0.00,VWS V14.01,2013-04-25 19:16:00,
2013-04-25 15:17:00,42.8,27.3,30.24,WNW,293,0.0,0.0,54,0.00,,---,0.00,VWS V14.01,2013-04-25 19:17:00,
2013-04-25 15:18:00,42.8,27.3,30.24,WNW,293,0.0,0.0,54,0.00,,---,0.00,VWS V14.01,2013-04-25 19:18:00,
2013-04-25 15:19:00,42.8,27.8,30.24,WNW,293,0.0,0.0,55,0.00,,---,0.00,VWS V14.01,2013-04-25 19:19:00,
2013-04-25 15:20:00,42.8,27.8,30.24,WNW,293,0.0,0.0,55,0.00,,---,0.00,VWS V14.01,2013-04-25 19:20:00,
2013-04-25 15:21:00,42.8,27.8,30.24,WNW,293,0.0,0.0,55,0.00,,---,0.00,VWS V14.01,2013-04-25 19:21:00,
2013-04-25 15:22:00,42.6,27.6,30.24,WNW,293,0.0,0.0,55,0.00,,---,0.00,VWS V14.01,2013-04-25 19:22:00,
2013-04-25 15:23:00,42.6,27.6,30.24,WNW,293,0.0,0.0,55,0.00,,---,0.00,VWS V14.01,2013-04-25 19:23:00,
2013-04-25 15:24:00,42.6,27.6,30.24,WNW,293,0.0,0.0,55,0.00,,---,0.00,VWS V14.01,2013-04-25 19:24:00,
2013-04-25 15:25:00,42.6,28.0,30.24,WNW,293,0.0,0.0,56,0.00,,---,0.00,VWS V14.01,2013-04-25 19:25:00,
2013-04-25 15:26:00,42.6,28.0,30.24,WNW,293,0.0,0.0,56,0.00,,---,0.00,VWS V14.01,2013-04-25 19:26:00,
2013-04-25 15:27:00,42.5,27.9,30.24,WNW,293,0.0,0.0,56,0.00,,---,0.00,VWS V14.01,2013-04-25 19:27:00,
2013-04-25 15:28:00,42.5,27.9,30.24,WNW,293,0.0,0.0,56,0.00,,---,0.00,VWS V14.01,2013-04-25 19:28:00,
2013-04-25 15:29:00,42.5,27.9,30.24,WNW,293,0.0,0.0,56,0.00,,---,0.00,VWS V14.01,2013-04-25 19:29:00,
2013-04-25 15:30:00,42.5,27.9,30.24,WNW,293,0.0,0.0,56,0.00,,---,0.00,VWS V14.01,2013-04-25 19:30:00,
2013-04-25 15:31:00,42.3,28.2,30.24,WNW,293,0.0,0.0,57,0.00,,---,0.00,VWS V14.01,2013-04-25 19:31:00,
2013-04-25 15:32:00,42.3,28.2,30.24,WNW,293,0.0,0.0,57,0.00,,---,0.00,VWS V14.01,2013-04-25 19:32:00,
2013-04-25 15:33:00,42.3,28.6,30.24,WNW,293,0.0,0.0,58,0.00,,---,0.00,VWS V14.01,2013-04-25 19:33:00,
2013-04-25 15:34:00,42.3,28.6,30.24,WNW,293,0.0,0.0,58,0.00,,---,0.00,VWS V14.01,2013-04-25 19:34:00,
2013-04-25 15:35:00,42.2,28.5,30.24,WNW,293,0.0,0.0,58,0.00,,---,0.00,VWS V14.01,2013-04-25 19:35:00,
2013-04-25 15:36:00,42.2,28.5,30.24,WNW,293,0.0,0.0,58,0.00,,---,0.00,VWS V14.01,2013-04-25 19:36:00,
2013-04-25 15:37:00,42.1,28.0,30.24,WNW,293,0.0,0.0,57,0.00,,---,0.00,VWS V14.01,2013-04-25 19:37:00,
2013-04-25 15:38:00,42.1,28.0,30.24,WNW,293,0.0,0.0,57,0.00,,---,0.00,VWS V14.01,2013-04-25 19:38:00,
2013-04-25 15:39:00,42.1,28.0,30.24,WNW,293,0.0,0.0,57,0.00,,---,0.00,VWS V14.01,2013-04-25 19:39:00,
2013-04-25 15:40:00,42.1,28.4,30.24,WNW,293,0.0,0.0,58,0.00,,---,0.00,VWS V14.01,2013-04-25 19:40:00,
2013-04-25 15:41:00,41.9,28.6,30.24,WNW,293,0.0,0.0,59,0.00,,---,0.00,VWS V14.01,2013-04-25 19:41:00,
2013-04-25 15:42:00,41.9,28.6,30.24,WNW,293,0.0,0.0,59,0.00,,---,0.00,VWS V14.01,2013-04-25 19:42:00,
2013-04-25 15:43:00,41.9,28.6,30.24,WNW,293,0.0,0.0,59,0.00,,---,0.00,VWS V14.01,2013-04-25 19:43:00,
2013-04-25 15:44:00,41.8,28.1,30.24,WNW,293,0.0,0.0,58,0.00,,---,0.00,VWS V14.01,2013-04-25 19:44:00,
2013-04-25 15:45:00,41.8,28.1,30.24,WNW,285,0.0,0.0,58,0.00,,---,0.00,VWS V14.01,2013-04-25 19:45:00,
2013-04-25 15:46:00,41.8,28.1,30.24,WNW,293,0.0,0.0,58,0.00,,---,0.00,VWS V14.01,2013-04-25 19:46:00,
2013-04-25 15:47:00,41.6,27.9,30.24,WNW,293,0.0,0.0,58,0.00,,---,0.00,VWS V14.01,2013-04-25 19:47:00,
2013-04-25 15:48:00,41.6,27.9,30.24,WNW,293,0.0,0.0,58,0.00,,---,0.00,VWS V14.01,2013-04-25 19:48:00,
2013-04-25 15:49:00,41.5,27.8,30.24,WNW,293,0.0,0.0,58,0.00,,---,0.00,VWS V14.01,2013-04-25 19:49:00,
2013-04-25 15:50:00,41.5,27.8,30.24,WNW,293,0.0,0.0,58,0.00,,---,0.00,VWS V14.01,2013-04-25 19:50:00,
2013-04-25 15:51:00,41.5,27.8,30.24,WNW,293,0.0,0.0,58,0.00,,---,0.00,VWS V14.01,2013-04-25 19:51:00,
2013-04-25 15:52:00,41.3,28.1,30.24,WNW,293,0.0,0.0,59,0.00,,---,0.00,VWS V14.01,2013-04-25 19:52:00,
2013-04-25 15:53:00,41.3,27.6,30.24,WNW,293,0.0,0.0,58,0.00,,---,0.00,VWS V14.01,2013-04-25 19:53:00,
2013-04-25 15:54:00,41.2,28.0,30.24,WNW,293,0.0,0.0,59,0.00,,---,0.00,VWS V14.01,2013-04-25 19:54:00,
2013-04-25 15:55:00,41.2,28.0,30.24,WNW,293,0.0,0.0,59,0.00,,---,0.00,VWS V14.01,2013-04-25 19:55:00,
2013-04-25 15:56:00,41.2,28.8,30.24,WNW,293,0.0,0.0,61,0.00,,---,0.00,VWS V14.01,2013-04-25 19:56:00,
2013-04-25 15:57:00,41.2,28.8,30.24,WNW,293,0.0,0.0,61,0.00,,---,0.00,VWS V14.01,2013-04-25 19:57:00,
2013-04-25 15:58:00,41.1,28.3,30.24,WNW,293,0.0,0.0,60,0.00,,---,0.00,VWS V14.01,2013-04-25 19:58:00,
2013-04-25 15:59:00,41.1,28.7,30.24,WNW,293,0.0,0.0,61,0.00,,---,0.00,VWS V14.01,2013-04-25 19:59:00,
2013-04-25 16:00:00,41.1,28.7,30.25,WNW,293,0.0,0.0,61,0.00,,---,0.00,VWS V14.01,2013-04-25 20:00:00,
2013-04-25 16:01:00,40.9,28.5,30.25,WNW,293,0.0,0.0,61,0.00,,---,0.00,VWS V14.01,2013-04-25 20:01:00,
2013-04-25 16:02:00,40.9,28.5,30.25,WNW,293,0.0,0.0,61,0.00,,---,0.00,VWS V14.01,2013-04-25 20:02:00,
2013-04-25 16:03:00,40.8,28.4,30.25,WNW,293,0.0,0.0,61,0.00,,---,0.00,VWS V14.01,2013-04-25 20:03:00,
2013-04-25 16:04:00,40.8,28.0,30.25,WNW,293,0.0,0.0,60,0.00,,---,0.00,VWS V14.01,2013-04-25 20:04:00,
2013-04-25 16:05:00,40.8,28.0,30.25,WNW,293,0.0,0.0,60,0.00,,---,0.00,VWS V14.01,2013-04-25 20:05:00,
2013-04-25 16:06:00,40.6,27.8,30.25,WNW,293,0.0,0.0,60,0.00,,---,0.00,VWS V14.01,2013-04-25 20:06:00,
2013-04-25 16:07:00,40.6,27.8,30.25,WNW,293,0.0,0.0,60,0.00,,---,0.00,VWS V14.01,2013-04-25 20:07:00,
2013-04-25 16:08:00,40.6,27.8,30.25,WNW,293,0.0,0.0,60,0.00,,---,0.00,VWS V14.01,2013-04-25 20:08:00,
2013-04-25 16:09:00,40.6,27.8,30.25,WNW,293,0.0,0.0,60,0.00,,---,0.00,VWS V14.01,2013-04-25 20:09:00,
2013-04-25 16:10:00,40.5,27.7,30.25,WNW,293,0.0,0.0,60,0.00,,---,0.00,VWS V14.01,2013-04-25 20:10:00,
2013-04-25 16:11:00,40.5,27.7,30.25,WNW,293,0.0,0.0,60,0.00,,---,0.00,VWS V14.01,2013-04-25 20:11:00,
2013-04-25 16:12:00,40.5,27.7,30.25,WNW,293,0.0,0.0,60,0.00,,---,0.00,VWS V14.01,2013-04-25 20:12:00,
2013-04-25 16:13:00,40.5,28.1,30.25,WNW,293,0.0,0.0,61,0.00,,---,0.00,VWS V14.01,2013-04-25 20:13:00,
2013-04-25 16:14:00,40.3,27.9,30.25,WNW,293,0.0,0.0,61,0.00,,---,0.00,VWS V14.01,2013-04-25 20:14:00,
2013-04-25 16:15:00,40.3,27.9,30.26,WNW,293,0.0,0.0,61,0.00,,---,0.00,VWS V14.01,2013-04-25 20:15:00,
2013-04-25 16:16:00,40.3,27.9,30.26,WNW,293,0.0,0.0,61,0.00,,---,0.00,VWS V14.01,2013-04-25 20:16:00,
2013-04-25 16:17:00,40.2,27.8,30.26,WNW,293,0.0,0.0,61,0.00,,---,0.00,VWS V14.01,2013-04-25 20:17:00,
2013-04-25 16:18:00,40.2,27.8,30.26,WNW,293,0.0,0.0,61,0.00,,---,0.00,VWS V14.01,2013-04-25 20:18:00,
2013-04-25 16:19:00,40.2,27.8,30.26,WNW,293,0.0,0.0,61,0.00,,---,0.00,VWS V14.01,2013-04-25 20:19:00,
2013-04-25 16:20:00,40.1,27.8,30.26,WNW,293,0.0,0.0,61,0.00,,---,0.00,VWS V14.01,2013-04-25 20:20:00,
2013-04-25 16:21:00,40.1,27.8,30.26,WNW,293,0.0,0.0,61,0.00,,---,0.00,VWS V14.01,2013-04-25 20:21:00,
2013-04-25 16:22:00,40.1,27.8,30.26,WNW,293,0.0,0.0,61,0.00,,---,0.00,VWS V14.01,2013-04-25 20:22:00,
2013-04-25 16:23:00,40.1,27.8,30.26,WNW,293,0.0,0.0,61,0.00,,---,0.00,VWS V14.01,2013-04-25 20:23:00,
2013-04-25 16:24:00,39.9,28.0,30.26,WNW,293,0.0,0.0,62,0.00,,---,0.00,VWS V14.01,2013-04-25 20:24:00,
2013-04-25 16:25:00,39.9,28.0,30.26,WNW,293,0.0,0.0,62,0.00,,---,0.00,VWS V14.01,2013-04-25 20:25:00,
2013-04-25 16:26:00,39.9,28.0,30.26,WNW,293,0.0,0.0,62,0.00,,---,0.00,VWS V14.01,2013-04-25 20:26:00,
2013-04-25 16:27:00,39.9,28.3,30.26,WNW,293,0.0,0.0,63,0.00,,---,0.00,VWS V14.01,2013-04-25 20:27:00,
2013-04-25 16:28:00,39.8,28.2,30.26,WNW,293,0.0,0.0,63,0.00,,---,0.00,VWS V14.01,2013-04-25 20:28:00,
2013-04-25 16:29:00,39.8,28.2,30.26,WNW,293,0.0,0.0,63,0.00,,---,0.00,VWS V14.01,2013-04-25 20:29:00,
2013-04-25 16:30:00,39.8,28.2,30.26,WNW,293,0.0,0.0,63,0.00,,---,0.00,VWS V14.01,2013-04-25 20:30:00,
2013-04-25 16:31:00,39.8,28.2,30.26,WNW,293,0.0,0.0,63,0.00,,---,0.00,VWS V14.01,2013-04-25 20:31:00,
2013-04-25 16:32:00,39.8,28.2,30.26,WNW,293,0.0,0.0,63,0.00,,---,0.00,VWS V14.01,2013-04-25 20:32:00,
2013-04-25 16:33:00,39.6,28.1,30.26,WNW,293,0.0,0.0,63,0.00,,---,0.00,VWS V14.01,2013-04-25 20:33:00,
2013-04-25 16:34:00,39.6,28.1,30.26,WNW,293,0.0,0.0,63,0.00,,---,0.00,VWS V14.01,2013-04-25 20:34:00,
2013-04-25 16:35:00,39.6,28.1,30.26,WNW,293,0.0,0.0,63,0.00,,---,0.00,VWS V14.01,2013-04-25 20:35:00,
2013-04-25 16:36:00,39.6,28.1,30.26,WNW,293,0.0,0.0,63,0.00,,---,0.00,VWS V14.01,2013-04-25 20:36:00,
2013-04-25 16:37:00,39.6,28.1,30.26,WNW,293,0.0,0.0,63,0.00,,---,0.00,VWS V14.01,2013-04-25 20:37:00,
2013-04-25 16:38:00,39.5,28.0,30.26,WNW,293,0.0,0.0,63,0.00,,---,0.00,VWS V14.01,2013-04-25 20:38:00,
2013-04-25 16:39:00,39.5,28.0,30.26,WNW,293,0.0,0.0,63,0.00,,---,0.00,VWS V14.01,2013-04-25 20:39:00,
2013-04-25 16:40:00,39.5,28.0,30.26,WNW,293,0.0,0.0,63,0.00,,---,0.00,VWS V14.01,2013-04-25 20:40:00,
2013-04-25 16:41:00,39.5,28.0,30.26,WNW,293,0.0,0.0,63,0.00,,---,0.00,VWS V14.01,2013-04-25 20:41:00,
2013-04-25 16:42:00,39.5,28.0,30.26,WNW,293,0.0,0.0,63,0.00,,---,0.00,VWS V14.01,2013-04-25 20:42:00,
2013-04-25 16:43:00,39.5,28.0,30.26,WNW,293,0.0,0.0,63,0.00,,---,0.00,VWS V14.01,2013-04-25 20:43:00,
2013-04-25 16:44:00,39.5,28.4,30.26,WNW,293,0.0,0.0,64,0.00,,---,0.00,VWS V14.01,2013-04-25 20:44:00,
2013-04-25 16:45:00,39.5,28.4,30.26,WNW,293,0.0,0.0,64,0.00,,---,0.00,VWS V14.01,2013-04-25 20:45:00,
2013-04-25 16:46:00,39.3,28.2,30.26,WNW,293,0.0,0.0,64,0.00,,---,0.00,VWS V14.01,2013-04-25 20:46:00,
2013-04-25 16:47:00,39.3,27.8,30.26,WNW,293,0.0,0.0,63,0.00,,---,0.00,VWS V14.01,2013-04-25 20:47:00,
2013-04-25 16:48:00,39.3,28.2,30.26,WNW,293,0.0,0.0,64,0.00,,---,0.00,VWS V14.01,2013-04-25 20:48:00,
2013-04-25 16:49:00,39.3,28.2,30.26,WNW,293,0.0,0.0,64,0.00,,---,0.00,VWS V14.01,2013-04-25 20:49:00,
2013-04-25 16:50:00,39.3,28.2,30.26,WNW,293,0.0,0.0,64,0.00,,---,0.00,VWS V14.01,2013-04-25 20:50:00,
2013-04-25 16:51:00,39.2,28.1,30.26,WNW,293,0.0,0.0,64,0.00,,---,0.00,VWS V14.01,2013-04-25 20:51:00,
2013-04-25 16:52:00,39.2,28.1,30.26,WNW,293,0.0,0.0,64,0.00,,---,0.00,VWS V14.01,2013-04-25 20:52:00,
2013-04-25 16:53:00,39.2,28.4,30.26,WNW,293,0.0,0.0,65,0.00,,---,0.00,VWS V14.01,2013-04-25 20:53:00,
2013-04-25 16:54:00,39.2,28.4,30.26,WNW,293,0.0,0.0,65,0.00,,---,0.00,VWS V14.01,2013-04-25 20:54:00,
2013-04-25 16:55:00,39.1,28.3,30.26,WNW,293,0.0,0.0,65,0.00,,---,0.00,VWS V14.01,2013-04-25 20:55:00,
2013-04-25 16:56:00,39.1,28.3,30.26,WNW,293,0.0,0.0,65,0.00,,---,0.00,VWS V14.01,2013-04-25 20:56:00,
2013-04-25 16:57:00,39.1,28.3,30.26,WNW,293,0.0,0.0,65,0.00,,---,0.00,VWS V14.01,2013-04-25 20:57:00,
2013-04-25 16:58:00,38.9,28.1,30.26,WNW,293,0.0,0.0,65,0.00,,---,0.00,VWS V14.01,2013-04-25 20:58:00,
2013-04-25 16:59:00,38.9,28.1,30.26,WNW,293,0.0,0.0,65,0.00,,---,0.00,VWS V14.01,2013-04-25 20:59:00,
2013-04-25 17:00:00,38.9,28.1,30.26,WNW,293,0.0,0.0,65,0.00,,---,0.00,VWS V14.01,2013-04-25 21:00:00,
2013-04-25 17:01:00,38.9,28.1,30.26,WNW,293,0.0,0.0,65,0.00,,---,0.00,VWS V14.01,2013-04-25 21:01:00,
2013-04-25 17:02:00,38.9,28.1,30.26,WNW,293,0.0,0.0,65,0.00,,---,0.00,VWS V14.01,2013-04-25 21:02:00,
2013-04-25 17:03:00,38.9,28.1,30.26,WNW,293,0.0,0.0,65,0.00,,---,0.00,VWS V14.01,2013-04-25 21:03:00,
2013-04-25 17:04:00,38.6,27.9,30.26,WNW,293,0.0,0.0,65,0.00,,---,0.00,VWS V14.01,2013-04-25 21:04:00,
2013-04-25 17:05:00,38.6,27.9,30.26,WNW,293,0.0,0.0,65,0.00,,---,0.00,VWS V14.01,2013-04-25 21:05:00,
2013-04-25 17:06:00,38.6,27.9,30.26,WNW,293,0.0,0.0,65,0.00,,---,0.00,VWS V14.01,2013-04-25 21:06:00,
2013-04-25 17:07:00,38.5,27.8,30.26,WNW,293,0.0,0.0,65,0.00,,---,0.00,VWS V14.01,2013-04-25 21:07:00,
2013-04-25 17:08:00,38.5,27.8,30.26,WNW,293,0.0,0.0,65,0.00,,---,0.00,VWS V14.01,2013-04-25 21:08:00,
2013-04-25 17:09:00,38.5,27.8,30.26,WNW,293,0.0,0.0,65,0.00,,---,0.00,VWS V14.01,2013-04-25 21:09:00,
2013-04-25 17:10:00,38.5,27.8,30.26,WNW,293,0.0,0.0,65,0.00,,---,0.00,VWS V14.01,2013-04-25 21:10:00,
2013-04-25 17:11:00,38.5,27.8,30.26,WNW,293,0.0,0.0,65,0.00,,---,0.00,VWS V14.01,2013-04-25 21:11:00,
2013-04-25 17:12:00,38.3,27.6,30.26,WNW,293,0.0,0.0,65,0.00,,---,0.00,VWS V14.01,2013-04-25 21:12:00,
2013-04-25 17:13:00,38.3,27.6,30.26,WNW,293,0.0,0.0,65,0.00,,---,0.00,VWS V14.01,2013-04-25 21:13:00,
2013-04-25 17:14:00,38.3,27.6,30.26,WNW,293,0.0,0.0,65,0.00,,---,0.00,VWS V14.01,2013-04-25 21:14:00,
2013-04-25 17:15:00,38.3,27.6,30.28,WNW,293,0.0,0.0,65,0.00,,---,0.00,VWS V14.01,2013-04-25 21:15:00,
2013-04-25 17:16:00,38.3,27.6,30.28,WNW,293,0.0,0.0,65,0.00,,---,0.00,VWS V14.01,2013-04-25 21:16:00,
2013-04-25 17:17:00,38.3,27.6,30.28,WNW,293,0.0,0.0,65,0.00,,---,0.00,VWS V14.01,2013-04-25 21:17:00,
2013-04-25 17:18:00,38.3,27.6,30.28,WNW,293,0.0,0.0,65,0.00,,---,0.00,VWS V14.01,2013-04-25 21:18:00,
2013-04-25 17:19:00,38.2,27.5,30.28,WNW,293,0.0,0.0,65,0.00,,---,0.00,VWS V14.01,2013-04-25 21:19:00,
2013-04-25 17:20:00,38.2,27.9,30.28,WNW,293,0.0,0.0,66,0.00,,---,0.00,VWS V14.01,2013-04-25 21:20:00,
2013-04-25 17:21:00,38.2,27.9,30.28,WNW,293,0.0,0.0,66,0.00,,---,0.00,VWS V14.01,2013-04-25 21:21:00,
2013-04-25 17:22:00,38.2,27.9,30.28,WNW,293,0.0,0.0,66,0.00,,---,0.00,VWS V14.01,2013-04-25 21:22:00,
2013-04-25 17:23:00,38.2,27.9,30.28,WNW,293,0.0,0.0,66,0.00,,---,0.00,VWS V14.01,2013-04-25 21:23:00,
2013-04-25 17:24:00,38.0,27.7,30.28,WNW,293,0.0,0.0,66,0.00,,---,0.00,VWS V14.01,2013-04-25 21:24:00,
2013-04-25 17:25:00,38.0,27.7,30.28,WNW,293,0.0,0.0,66,0.00,,---,0.00,VWS V14.01,2013-04-25 21:25:00,
2013-04-25 17:26:00,38.0,27.7,30.28,WNW,293,0.0,0.0,66,0.00,,---,0.00,VWS V14.01,2013-04-25 21:26:00,
2013-04-25 17:27:00,38.0,27.7,30.28,WNW,293,0.0,0.0,66,0.00,,---,0.00,VWS V14.01,2013-04-25 21:27:00,
2013-04-25 17:28:00,37.9,27.6,30.28,WNW,293,0.0,0.0,66,0.00,,---,0.00,VWS V14.01,2013-04-25 21:28:00,
2013-04-25 17:29:00,37.9,27.9,30.28,WNW,293,0.0,0.0,67,0.00,,---,0.00,VWS V14.01,2013-04-25 21:29:00,
2013-04-25 17:30:00,37.9,27.9,30.28,WNW,293,0.0,0.0,67,0.00,,---,0.00,VWS V14.01,2013-04-25 21:30:00,
2013-04-25 17:31:00,37.8,27.8,30.28,WNW,293,0.0,0.0,67,0.00,,---,0.00,VWS V14.01,2013-04-25 21:31:00,
2013-04-25 17:32:00,37.8,27.8,30.28,WNW,293,0.0,0.0,67,0.00,,---,0.00,VWS V14.01,2013-04-25 21:32:00,
2013-04-25 17:33:00,37.8,27.8,30.28,WNW,293,0.0,0.0,67,0.00,,---,0.00,VWS V14.01,2013-04-25 21:33:00,
2013-04-25 17:34:00,37.8,28.2,30.28,WNW,293,0.0,0.0,68,0.00,,---,0.00,VWS V14.01,2013-04-25 21:34:00,
2013-04-25 17:35:00,37.6,28.0,30.28,WNW,293,0.0,0.0,68,0.00,,---,0.00,VWS V14.01,2013-04-25 21:35:00,
2013-04-25 17:36:00,37.6,28.0,30.28,WNW,293,0.0,0.0,68,0.00,,---,0.00,VWS V14.01,2013-04-25 21:36:00,
2013-04-25 17:37:00,37.6,28.0,30.28,WNW,293,0.0,0.0,68,0.00,,---,0.00,VWS V14.01,2013-04-25 21:37:00,
2013-04-25 17:38:00,37.6,27.6,30.28,WNW,293,0.0,0.0,67,0.00,,---,0.00,VWS V14.01,2013-04-25 21:38:00,
2013-04-25 17:39:00,37.6,27.6,30.28,WNW,293,0.0,0.0,67,0.00,,---,0.00,VWS V14.01,2013-04-25 21:39:00,
2013-04-25 17:40:00,37.5,27.5,30.28,WNW,293,0.0,0.0,67,0.00,,---,0.00,VWS V14.01,2013-04-25 21:40:00,
2013-04-25 17:41:00,37.5,27.5,30.28,WNW,293,0.0,0.0,67,0.00,,---,0.00,VWS V14.01,2013-04-25 21:41:00,
2013-04-25 17:42:00,37.5,27.5,30.28,WNW,293,0.0,0.0,67,0.00,,---,0.00,VWS V14.01,2013-04-25 21:42:00,
2013-04-25 17:43:00,37.5,27.5,30.28,WNW,293,0.0,0.0,67,0.00,,---,0.00,VWS V14.01,2013-04-25 21:43:00,
2013-04-25 17:44:00,37.5,27.5,30.28,WNW,293,0.0,0.0,67,0.00,,---,0.00,VWS V14.01,2013-04-25 21:44:00,
2013-04-25 17:45:00,37.5,27.5,30.28,WNW,293,0.0,0.0,67,0.00,,---,0.00,VWS V14.01,2013-04-25 21:45:00,
2013-04-25 17:46:00,37.3,27.4,30.28,WNW,293,0.0,0.0,67,0.00,,---,0.00,VWS V14.01,2013-04-25 21:46:00,
2013-04-25 17:47:00,37.3,27.4,30.28,WNW,293,0.0,0.0,67,0.00,,---,0.00,VWS V14.01,2013-04-25 21:47:00,
2013-04-25 17:48:00,37.3,27.4,30.28,WNW,293,0.0,0.0,67,0.00,,---,0.00,VWS V14.01,2013-04-25 21:48:00,
2013-04-25 17:49:00,37.3,27.4,30.28,WNW,293,0.0,0.0,67,0.00,,---,0.00,VWS V14.01,2013-04-25 21:49:00,
2013-04-25 17:50:00,37.3,27.4,30.28,WNW,293,0.0,0.0,67,0.00,,---,0.00,VWS V14.01,2013-04-25 21:50:00,
2013-04-25 17:51:00,37.3,27.4,30.28,WNW,293,0.0,0.0,67,0.00,,---,0.00,VWS V14.01,2013-04-25 21:51:00,
2013-04-25 17:52:00,37.2,27.3,30.28,WNW,293,0.0,0.0,67,0.00,,---,0.00,VWS V14.01,2013-04-25 21:52:00,
2013-04-25 17:53:00,37.2,27.3,30.28,WNW,293,0.0,0.0,67,0.00,,---,0.00,VWS V14.01,2013-04-25 21:53:00,
2013-04-25 17:54:00,37.2,26.9,30.28,WNW,293,0.0,0.0,66,0.00,,---,0.00,VWS V14.01,2013-04-25 21:54:00,
2013-04-25 17:55:00,37.2,26.9,30.28,WNW,293,0.0,0.0,66,0.00,,---,0.00,VWS V14.01,2013-04-25 21:55:00,
2013-04-25 17:56:00,37.2,27.3,30.28,WNW,293,0.0,0.0,67,0.00,,---,0.00,VWS V14.01,2013-04-25 21:56:00,
2013-04-25 17:57:00,37.2,27.3,30.28,WNW,293,0.0,0.0,67,0.00,,---,0.00,VWS V14.01,2013-04-25 21:57:00,
2013-04-25 17:58:00,37.0,27.1,30.28,WNW,293,0.0,0.0,67,0.00,,---,0.00,VWS V14.01,2013-04-25 21:58:00,
2013-04-25 17:59:00,37.0,27.1,30.28,WNW,293,0.0,0.0,67,0.00,,---,0.00,VWS V14.01,2013-04-25 21:59:00,
2013-04-25 18:00:00,37.0,27.1,30.29,WNW,293,0.0,0.0,67,0.00,,---,0.00,VWS V14.01,2013-04-25 22:00:00,
2013-04-25 18:01:00,37.0,27.4,30.29,WNW,293,0.0,0.0,68,0.00,,---,0.00,VWS V14.01,2013-04-25 22:01:00,
2013-04-25 18:02:00,37.0,27.4,30.29,WNW,293,0.0,0.0,68,0.00,,---,0.00,VWS V14.01,2013-04-25 22:02:00,
2013-04-25 18:03:00,37.0,27.8,30.29,WNW,293,0.0,0.0,69,0.00,,---,0.00,VWS V14.01,2013-04-25 22:03:00,
2013-04-25 18:04:00,36.9,27.7,30.29,WNW,293,0.0,0.0,69,0.00,,---,0.00,VWS V14.01,2013-04-25 22:04:00,
2013-04-25 18:05:00,36.9,27.7,30.29,WNW,293,0.0,0.0,69,0.00,,---,0.00,VWS V14.01,2013-04-25 22:05:00,
2013-04-25 18:06:00,36.9,28.0,30.29,WNW,293,0.0,0.0,70,0.00,,---,0.00,VWS V14.01,2013-04-25 22:06:00,
2013-04-25 18:07:00,36.8,28.0,30.29,WNW,293,0.0,0.0,70,0.00,,---,0.00,VWS V14.01,2013-04-25 22:07:00,
2013-04-25 18:08:00,36.8,28.0,30.29,WNW,293,0.0,0.0,70,0.00,,---,0.00,VWS V14.01,2013-04-25 22:08:00,
2013-04-25 18:09:00,36.8,28.0,30.29,WNW,293,0.0,0.0,70,0.00,,---,0.00,VWS V14.01,2013-04-25 22:09:00,
2013-04-25 18:10:00,36.6,27.8,30.29,WNW,293,0.0,0.0,70,0.00,,---,0.00,VWS V14.01,2013-04-25 22:10:00,
2013-04-25 18:11:00,36.6,27.8,30.29,WNW,293,0.0,0.0,70,0.00,,---,0.00,VWS V14.01,2013-04-25 22:11:00,
2013-04-25 18:12:00,36.6,27.8,30.29,WNW,293,0.0,0.0,70,0.00,,---,0.00,VWS V14.01,2013-04-25 22:12:00,
2013-04-25 18:13:00,36.6,27.8,30.29,WNW,293,0.0,0.0,70,0.00,,---,0.00,VWS V14.01,2013-04-25 22:13:00,
2013-04-25 18:14:00,36.6,27.8,30.29,WNW,293,0.0,0.0,70,0.00,,---,0.00,VWS V14.01,2013-04-25 22:14:00,
2013-04-25 18:15:00,36.5,27.7,30.30,WNW,293,0.0,0.0,70,0.00,,---,0.00,VWS V14.01,2013-04-25 22:15:00,
2013-04-25 18:16:00,36.5,27.7,30.30,WNW,293,0.0,0.0,70,0.00,,---,0.00,VWS V14.01,2013-04-25 22:16:00,
2013-04-25 18:17:00,36.5,27.7,30.30,WNW,293,0.0,0.0,70,0.00,,---,0.00,VWS V14.01,2013-04-25 22:17:00,
2013-04-25 18:18:00,36.5,27.7,30.30,WNW,293,0.0,0.0,70,0.00,,---,0.00,VWS V14.01,2013-04-25 22:18:00,
2013-04-25 18:19:00,36.3,27.8,30.30,WNW,293,0.0,0.0,71,0.00,,---,0.00,VWS V14.01,2013-04-25 22:19:00,
2013-04-25 18:20:00,36.3,27.8,30.30,WNW,293,0.0,0.0,71,0.00,,---,0.00,VWS V14.01,2013-04-25 22:20:00,
2013-04-25 18:21:00,36.3,27.8,30.30,WNW,293,0.0,0.0,71,0.00,,---,0.00,VWS V14.01,2013-04-25 22:21:00,
2013-04-25 18:22:00,36.3,27.8,30.30,WNW,293,0.0,0.0,71,0.00,,---,0.00,VWS V14.01,2013-04-25 22:22:00,
2013-04-25 18:23:00,36.2,28.1,30.30,WNW,293,0.0,0.0,72,0.00,,---,0.00,VWS V14.01,2013-04-25 22:23:00,
2013-04-25 18:24:00,36.2,28.1,30.30,WNW,293,0.0,0.0,72,0.00,,---,0.00,VWS V14.01,2013-04-25 22:24:00,
2013-04-25 18:25:00,36.2,28.1,30.30,WNW,293,0.0,0.0,72,0.00,,---,0.00,VWS V14.01,2013-04-25 22:25:00,
2013-04-25 18:26:00,36.2,28.1,30.30,WNW,293,0.0,0.0,72,0.00,,---,0.00,VWS V14.01,2013-04-25 22:26:00,
2013-04-25 18:27:00,36.0,27.9,30.30,WNW,293,0.0,0.0,72,0.00,,---,0.00,VWS V14.01,2013-04-25 22:27:00,
2013-04-25 18:28:00,36.0,27.9,30.30,WNW,293,0.0,0.0,72,0.00,,---,0.00,VWS V14.01,2013-04-25 22:28:00,
2013-04-25 18:29:00,36.0,27.9,30.30,WNW,293,0.0,0.0,72,0.00,,---,0.00,VWS V14.01,2013-04-25 22:29:00,
2013-04-25 18:30:00,36.0,27.9,30.32,WNW,293,0.0,0.0,72,0.00,,---,0.00,VWS V14.01,2013-04-25 22:30:00,
2013-04-25 18:31:00,36.0,27.9,30.32,WNW,293,0.0,0.0,72,0.00,,---,0.00,VWS V14.01,2013-04-25 22:31:00,
2013-04-25 18:32:00,35.9,27.8,30.32,WNW,293,0.0,0.0,72,0.00,,---,0.00,VWS V14.01,2013-04-25 22:32:00,
2013-04-25 18:33:00,35.9,27.8,30.32,WNW,293,0.0,0.0,72,0.00,,---,0.00,VWS V14.01,2013-04-25 22:33:00,
2013-04-25 18:34:00,35.9,28.1,30.32,WNW,293,0.0,0.0,73,0.00,,---,0.00,VWS V14.01,2013-04-25 22:34:00,
2013-04-25 18:35:00,35.9,28.1,30.32,WNW,293,0.0,0.0,73,0.00,,---,0.00,VWS V14.01,2013-04-25 22:35:00,
2013-04-25 18:36:00,35.8,28.0,30.32,WNW,293,0.0,0.0,73,0.00,,---,0.00,VWS V14.01,2013-04-25 22:36:00,
2013-04-25 18:37:00,35.8,28.0,30.32,WNW,293,0.0,0.0,73,0.00,,---,0.00,VWS V14.01,2013-04-25 22:37:00,
2013-04-25 18:38:00,35.8,28.0,30.32,WNW,293,0.0,0.0,73,0.00,,---,0.00,VWS V14.01,2013-04-25 22:38:00,
2013-04-25 18:39:00,35.8,28.0,30.32,WNW,293,0.0,0.0,73,0.00,,---,0.00,VWS V14.01,2013-04-25 22:39:00,
2013-04-25 18:40:00,35.8,28.0,30.32,WNW,285,0.0,0.0,73,0.00,,---,0.00,VWS V14.01,2013-04-25 22:40:00,
2013-04-25 18:41:00,35.8,28.0,30.32,WNW,293,0.0,0.0,73,0.00,,---,0.00,VWS V14.01,2013-04-25 22:41:00,
2013-04-25 18:42:00,35.6,27.8,30.32,WNW,293,0.0,0.0,73,0.00,,---,0.00,VWS V14.01,2013-04-25 22:42:00,
2013-04-25 18:43:00,35.6,27.8,30.32,WNW,293,0.0,0.0,73,0.00,,---,0.00,VWS V14.01,2013-04-25 22:43:00,
2013-04-25 18:44:00,35.6,27.8,30.32,WNW,293,0.0,0.0,73,0.00,,---,0.00,VWS V14.01,2013-04-25 22:44:00,
2013-04-25 18:45:00,35.6,28.1,30.32,WNW,293,0.0,0.0,74,0.00,,---,0.00,VWS V14.01,2013-04-25 22:45:00,
2013-04-25 18:46:00,35.6,28.1,30.32,WNW,293,0.0,0.0,74,0.00,,---,0.00,VWS V14.01,2013-04-25 22:46:00,
2013-04-25 18:47:00,35.5,28.0,30.32,WNW,293,0.0,0.0,74,0.00,,---,0.00,VWS V14.01,2013-04-25 22:47:00,
2013-04-25 18:48:00,35.5,28.0,30.32,WNW,293,0.0,0.0,74,0.00,,---,0.00,VWS V14.01,2013-04-25 22:48:00,
2013-04-25 18:49:00,35.5,28.0,30.32,WNW,293,0.0,0.0,74,0.00,,---,0.00,VWS V14.01,2013-04-25 22:49:00,
2013-04-25 18:50:00,35.5,28.0,30.32,WNW,293,0.0,0.0,74,0.00,,---,0.00,VWS V14.01,2013-04-25 22:50:00,
2013-04-25 18:51:00,35.5,28.0,30.32,WNW,293,0.0,0.0,74,0.00,,---,0.00,VWS V14.01,2013-04-25 22:51:00,
2013-04-25 18:52:00,35.5,28.0,30.32,WNW,293,0.0,0.0,74,0.00,,---,0.00,VWS V14.01,2013-04-25 22:52:00,
2013-04-25 18:53:00,35.3,27.9,30.32,WNW,293,0.0,0.0,74,0.00,,---,0.00,VWS V14.01,2013-04-25 22:53:00,
2013-04-25 18:54:00,35.3,27.9,30.32,WNW,293,0.0,0.0,74,0.00,,---,0.00,VWS V14.01,2013-04-25 22:54:00,
2013-04-25 18:55:00,35.3,27.9,30.32,WNW,293,0.0,0.0,74,0.00,,---,0.00,VWS V14.01,2013-04-25 22:55:00,
2013-04-25 18:56:00,35.3,27.9,30.32,WNW,293,0.0,0.0,74,0.00,,---,0.00,VWS V14.01,2013-04-25 22:56:00,
2013-04-25 18:57:00,35.3,28.2,30.32,WNW,293,0.0,0.0,75,0.00,,---,0.00,VWS V14.01,2013-04-25 22:57:00,
2013-04-25 18:58:00,35.2,28.1,30.32,WNW,293,0.0,0.0,75,0.00,,---,0.00,VWS V14.01,2013-04-25 22:58:00,
2013-04-25 18:59:00,35.2,28.1,30.32,WNW,293,0.0,0.0,75,0.00,,---,0.00,VWS V14.01,2013-04-25 22:59:00,
2013-04-25 19:00:00,35.2,28.1,30.32,WNW,293,0.0,0.0,75,0.00,,---,0.00,VWS V14.01,2013-04-25 23:00:00,
2013-04-25 19:01:00,35.2,28.1,30.32,WNW,293,0.0,0.0,75,0.00,,---,0.00,VWS V14.01,2013-04-25 23:01:00,
2013-04-25 19:02:00,35.2,28.1,30.32,WNW,293,0.0,0.0,75,0.00,,---,0.00,VWS V14.01,2013-04-25 23:02:00,
2013-04-25 19:03:00,35.0,27.9,30.32,WNW,293,0.0,0.0,75,0.00,,---,0.00,VWS V14.01,2013-04-25 23:03:00,
2013-04-25 19:04:00,35.0,27.9,30.32,WNW,293,0.0,0.0,75,0.00,,---,0.00,VWS V14.01,2013-04-25 23:04:00,
2013-04-25 19:05:00,35.0,27.9,30.32,WNW,285,0.0,0.0,75,0.00,,---,0.00,VWS V14.01,2013-04-25 23:05:00,
2013-04-25 19:06:00,35.0,27.9,30.32,WNW,293,0.0,0.0,75,0.00,,---,0.00,VWS V14.01,2013-04-25 23:06:00,
2013-04-25 19:07:00,35.0,27.9,30.32,WNW,293,0.0,0.0,75,0.00,,---,0.00,VWS V14.01,2013-04-25 23:07:00,
2013-04-25 19:08:00,35.0,27.9,30.32,WNW,293,0.0,0.0,75,0.00,,---,0.00,VWS V14.01,2013-04-25 23:08:00,
2013-04-25 19:09:00,35.0,27.9,30.32,WNW,285,0.0,0.0,75,0.00,,---,0.00,VWS V14.01,2013-04-25 23:09:00,
2013-04-25 19:10:00,35.0,27.9,30.32,WNW,293,0.0,0.0,75,0.00,,---,0.00,VWS V14.01,2013-04-25 23:10:00,
2013-04-25 19:11:00,35.0,27.9,30.32,WNW,293,0.0,0.0,75,0.00,,---,0.00,VWS V14.01,2013-04-25 23:11:00,
2013-04-25 19:12:00,35.0,27.9,30.32,WNW,293,0.0,0.0,75,0.00,,---,0.00,VWS V14.01,2013-04-25 23:12:00,
2013-04-25 19:13:00,35.0,27.9,30.32,WNW,293,0.0,0.0,75,0.00,,---,0.00,VWS V14.01,2013-04-25 23:13:00,
2013-04-25 19:14:00,35.0,28.2,30.32,WNW,293,0.0,0.0,76,0.00,,---,0.00,VWS V14.01,2013-04-25 23:14:00,
2013-04-25 19:15:00,35.0,28.2,30.35,WNW,293,0.0,0.0,76,0.00,,---,0.00,VWS V14.01,2013-04-25 23:15:00,
2013-04-25 19:16:00,35.0,28.2,30.35,WNW,293,0.0,0.0,76,0.00,,---,0.00,VWS V14.01,2013-04-25 23:16:00,
2013-04-25 19:17:00,35.0,28.2,30.35,WNW,293,0.0,0.0,76,0.00,,---,0.00,VWS V14.01,2013-04-25 23:17:00,
2013-04-25 19:18:00,35.0,28.2,30.35,WNW,293,0.0,0.0,76,0.00,,---,0.00,VWS V14.01,2013-04-25 23:18:00,
2013-04-25 19:19:00,35.0,28.2,30.35,WNW,293,0.0,0.0,76,0.00,,---,0.00,VWS V14.01,2013-04-25 23:19:00,
2013-04-25 19:20:00,35.0,28.2,30.35,WNW,293,0.0,0.0,76,0.00,,---,0.00,VWS V14.01,2013-04-25 23:20:00,
2013-04-25 19:21:00,35.0,28.2,30.35,WNW,293,0.0,0.0,76,0.00,,---,0.00,VWS V14.01,2013-04-25 23:21:00,
2013-04-25 19:22:00,35.0,28.2,30.35,WNW,293,0.0,0.0,76,0.00,,---,0.00,VWS V14.01,2013-04-25 23:22:00,
2013-04-25 19:23:00,35.0,28.2,30.35,WNW,293,0.0,0.0,76,0.00,,---,0.00,VWS V14.01,2013-04-25 23:23:00,
2013-04-25 19:24:00,35.0,28.2,30.35,WNW,293,0.0,0.0,76,0.00,,---,0.00,VWS V14.01,2013-04-25 23:24:00,
2013-04-25 19:25:00,35.0,28.2,30.35,WNW,293,0.0,0.0,76,0.00,,---,0.00,VWS V14.01,2013-04-25 23:25:00,
2013-04-25 19:26:00,35.0,28.2,30.35,WNW,293,0.0,0.0,76,0.00,,---,0.00,VWS V14.01,2013-04-25 23:26:00,
2013-04-25 19:27:00,35.0,28.2,30.35,WNW,293,0.0,0.0,76,0.00,,---,0.00,VWS V14.01,2013-04-25 23:27:00,
2013-04-25 19:28:00,35.0,28.2,30.35,WNW,293,0.0,0.0,76,0.00,,---,0.00,VWS V14.01,2013-04-25 23:28:00,
2013-04-25 19:29:00,35.0,28.2,30.35,WNW,293,0.0,0.0,76,0.00,,---,0.00,VWS V14.01,2013-04-25 23:29:00,
2013-04-25 19:30:00,35.0,28.2,30.35,WNW,293,0.0,0.0,76,0.00,,---,0.00,VWS V14.01,2013-04-25 23:30:00,
2013-04-25 19:31:00,35.0,28.2,30.35,WNW,293,0.0,0.0,76,0.00,,---,0.00,VWS V14.01,2013-04-25 23:31:00,
2013-04-25 19:32:00,35.0,28.5,30.35,WNW,293,0.0,0.0,77,0.00,,---,0.00,VWS V14.01,2013-04-25 23:32:00,
2013-04-25 19:33:00,35.0,28.5,30.35,WNW,293,0.0,0.0,77,0.00,,---,0.00,VWS V14.01,2013-04-25 23:33:00,
2013-04-25 19:34:00,35.0,28.5,30.35,WNW,293,0.0,0.0,77,0.00,,---,0.00,VWS V14.01,2013-04-25 23:34:00,
2013-04-25 19:35:00,35.0,28.5,30.35,WNW,293,0.0,0.0,77,0.00,,---,0.00,VWS V14.01,2013-04-25 23:35:00,
2013-04-25 19:36:00,35.0,28.5,30.35,WNW,293,0.0,0.0,77,0.00,,---,0.00,VWS V14.01,2013-04-25 23:36:00,
2013-04-25 19:37:00,35.2,28.7,30.35,WNW,293,0.0,0.0,77,0.00,,---,0.00,VWS V14.01,2013-04-25 23:37:00,
2013-04-25 19:38:00,35.2,28.7,30.35,WNW,293,0.0,0.0,77,0.00,,---,0.00,VWS V14.01,2013-04-25 23:38:00,
2013-04-25 19:39:00,35.2,28.7,30.35,WNW,293,0.0,0.0,77,0.00,,---,0.00,VWS V14.01,2013-04-25 23:39:00,
2013-04-25 19:40:00,35.2,28.7,30.35,WNW,293,0.0,0.0,77,0.00,,---,0.00,VWS V14.01,2013-04-25 23:40:00,
2013-04-25 19:41:00,35.3,28.8,30.35,WNW,293,0.0,0.0,77,0.00,,---,0.00,VWS V14.01,2013-04-25 23:41:00,
2013-04-25 19:42:00,35.3,28.8,30.35,WNW,293,0.0,0.0,77,0.00,,---,0.00,VWS V14.01,2013-04-25 23:42:00,
2013-04-25 19:43:00,35.3,28.8,30.35,WNW,293,0.0,0.0,77,0.00,,---,0.00,VWS V14.01,2013-04-25 23:43:00,
2013-04-25 19:44:00,35.3,28.8,30.35,WNW,293,0.0,0.0,77,0.00,,---,0.00,VWS V14.01,2013-04-25 23:44:00,
2013-04-25 19:45:00,35.5,29.3,30.35,WNW,293,0.0,0.0,78,0.00,,---,0.00,VWS V14.01,2013-04-25 23:45:00,
2013-04-25 19:46:00,35.5,29.3,30.35,WNW,293,0.0,0.0,78,0.00,,---,0.00,VWS V14.01,2013-04-25 23:46:00,
2013-04-25 19:47:00,35.5,29.3,30.35,WNW,293,0.0,0.0,78,0.00,,---,0.00,VWS V14.01,2013-04-25 23:47:00,
2013-04-25 19:48:00,35.5,29.3,30.35,WNW,293,0.0,0.0,78,0.00,,---,0.00,VWS V14.01,2013-04-25 23:48:00,
2013-04-25 19:49:00,35.6,29.4,30.35,WNW,293,0.0,0.0,78,0.00,,---,0.00,VWS V14.01,2013-04-25 23:49:00,
2013-04-25 19:50:00,35.6,29.4,30.35,WNW,293,0.0,0.0,78,0.00,,---,0.00,VWS V14.01,2013-04-25 23:50:00,
2013-04-25 19:51:00,35.8,29.6,30.35,WNW,293,0.0,0.0,78,0.00,,---,0.00,VWS V14.01,2013-04-25 23:51:00,
2013-04-25 19:52:00,35.8,29.9,30.35,WNW,293,0.0,0.0,79,0.00,,---,0.00,VWS V14.01,2013-04-25 23:52:00,
2013-04-25 19:53:00,35.9,30.0,30.35,WNW,293,0.0,0.0,79,0.00,,---,0.00,VWS V14.01,2013-04-25 23:53:00,
2013-04-25 19:54:00,35.9,30.0,30.35,WNW,293,0.0,0.0,79,0.00,,---,0.00,VWS V14.01,2013-04-25 23:54:00,
2013-04-25 19:55:00,36.0,30.1,30.35,WNW,293,0.0,0.0,79,0.00,,---,0.00,VWS V14.01,2013-04-25 23:55:00,
2013-04-25 19:56:00,36.0,30.1,30.35,WNW,293,0.0,0.0,79,0.00,,---,0.00,VWS V14.01,2013-04-25 23:56:00,
2013-04-25 19:57:00,36.2,30.3,30.35,WNW,293,0.0,0.0,79,0.00,,---,0.00,VWS V14.01,2013-04-25 23:57:00,
2013-04-25 19:58:00,36.3,30.4,30.35,WNW,293,0.0,0.0,79,0.00,,---,0.00,VWS V14.01,2013-04-25 23:58:00,
2013-04-25 19:59:00,36.3,30.4,30.35,WNW,293,0.0,0.0,79,0.00,,---,0.00,VWS V14.01,2013-04-25 23:59:00,
2013-04-25 20:00:00,36.5,30.6,30.36,WNW,293,0.0,0.0,79,0.00,,---,0.00,VWS V14.01,2013-04-26 00:00:00,
2013-04-25 20:01:00,36.6,30.7,30.36,WNW,293,0.0,0.0,79,0.00,,---,0.00,VWS V14.01,2013-04-26 00:01:00,
2013-04-25 20:02:00,36.6,30.7,30.36,WNW,293,0.0,0.0,79,0.00,,---,0.00,VWS V14.01,2013-04-26 00:02:00,
2013-04-25 20:03:00,36.8,30.6,30.36,WNW,293,0.0,0.0,78,0.00,,---,0.00,VWS V14.01,2013-04-26 00:03:00,
2013-04-25 20:04:00,36.9,30.7,30.36,WNW,293,0.0,0.0,78,0.00,,---,0.00,VWS V14.01,2013-04-26 00:04:00,
2013-04-25 20:05:00,36.9,30.7,30.36,WNW,293,0.0,0.0,78,0.00,,---,0.00,VWS V14.01,2013-04-26 00:05:00,
2013-04-25 20:06:00,37.0,30.8,30.36,WNW,293,0.0,0.0,78,0.00,,---,0.00,VWS V14.01,2013-04-26 00:06:00,
2013-04-25 20:07:00,37.2,31.0,30.36,WNW,293,0.0,0.0,78,0.00,,---,0.00,VWS V14.01,2013-04-26 00:07:00,
2013-04-25 20:08:00,37.3,31.1,30.36,WNW,293,0.0,0.0,78,0.00,,---,0.00,VWS V14.01,2013-04-26 00:08:00,
2013-04-25 20:09:00,37.3,31.1,30.36,WNW,293,0.0,0.0,78,0.00,,---,0.00,VWS V14.01,2013-04-26 00:09:00,
2013-04-25 20:10:00,37.5,31.3,30.36,WNW,293,0.0,0.0,78,0.00,,---,0.00,VWS V14.01,2013-04-26 00:10:00,
2013-04-25 20:11:00,37.6,31.4,30.36,WNW,293,0.0,0.0,78,0.00,,---,0.00,VWS V14.01,2013-04-26 00:11:00,
2013-04-25 20:12:00,37.8,31.6,30.36,WNW,293,0.0,0.0,78,0.00,,---,0.00,VWS V14.01,2013-04-26 00:12:00,
2013-04-25 20:13:00,37.9,31.4,30.36,WNW,293,0.0,0.0,77,0.00,,---,0.00,VWS V14.01,2013-04-26 00:13:00,
2013-04-25 20:14:00,38.0,31.8,30.36,WNW,293,0.0,0.0,78,0.00,,---,0.00,VWS V14.01,2013-04-26 00:14:00,
2013-04-25 20:15:00,38.2,32.0,30.37,WNW,293,0.0,0.0,78,0.00,,---,0.00,VWS V14.01,2013-04-26 00:15:00,
2013-04-25 20:16:00,38.3,31.7,30.37,WNW,293,0.0,0.0,77,0.00,,---,0.00,VWS V14.01,2013-04-26 00:16:00,
2013-04-25 20:17:00,38.5,31.9,30.37,WNW,293,0.0,0.0,77,0.00,,---,0.00,VWS V14.01,2013-04-26 00:17:00,
2013-04-25 20:18:00,38.6,32.0,30.37,WNW,293,0.0,0.0,77,0.00,,---,0.00,VWS V14.01,2013-04-26 00:18:00,
2013-04-25 20:19:00,38.8,32.2,30.37,WNW,293,0.0,0.0,77,0.00,,---,0.00,VWS V14.01,2013-04-26 00:19:00,
2013-04-25 20:20:00,38.9,32.3,30.37,WNW,293,0.0,0.0,77,0.00,,---,0.00,VWS V14.01,2013-04-26 00:20:00,
2013-04-25 20:21:00,39.1,32.5,30.37,WNW,293,0.0,0.0,77,0.00,,---,0.00,VWS V14.01,2013-04-26 00:21:00,
2013-04-25 20:22:00,39.2,32.6,30.37,WNW,293,0.0,0.0,77,0.00,,---,0.00,VWS V14.01,2013-04-26 00:22:00,
2013-04-25 20:23:00,39.3,32.7,30.37,WNW,293,0.0,0.0,77,0.00,,---,0.00,VWS V14.01,2013-04-26 00:23:00,
2013-04-25 20:24:00,39.5,32.9,30.37,WNW,293,0.0,0.0,77,0.00,,---,0.00,VWS V14.01,2013-04-26 00:24:00,
2013-04-25 20:25:00,39.6,33.0,30.37,WNW,293,0.0,0.0,77,0.00,,---,0.00,VWS V14.01,2013-04-26 00:25:00,
2013-04-25 20:26:00,39.8,33.2,30.37,WNW,293,0.0,0.0,77,0.00,,---,0.00,VWS V14.01,2013-04-26 00:26:00,
2013-04-25 20:27:00,39.9,33.3,30.37,WNW,293,0.0,0.0,77,0.00,,---,0.00,VWS V14.01,2013-04-26 00:27:00,
2013-04-25 20:28:00,40.1,33.5,30.37,WNW,293,0.0,0.0,77,0.00,,---,0.00,VWS V14.01,2013-04-26 00:28:00,
2013-04-25 20:29:00,40.2,32.9,30.37,WNW,293,0.0,0.0,75,0.00,,---,0.00,VWS V14.01,2013-04-26 00:29:00,
2013-04-25 20:30:00,40.3,33.0,30.38,WNW,293,0.0,0.0,75,0.00,,---,0.00,VWS V14.01,2013-04-26 00:30:00,
2013-04-25 20:31:00,40.5,33.2,30.38,WNW,293,0.0,0.0,75,0.00,,---,0.00,VWS V14.01,2013-04-26 00:31:00,
2013-04-25 20:32:00,40.6,33.3,30.38,WNW,293,0.0,0.0,75,0.00,,---,0.00,VWS V14.01,2013-04-26 00:32:00,
2013-04-25 20:33:00,40.8,33.5,30.38,WNW,293,0.0,0.0,75,0.00,,---,0.00,VWS V14.01,2013-04-26 00:33:00,
2013-04-25 20:34:00,40.9,33.3,30.38,WNW,293,0.0,0.0,74,0.00,,---,0.00,VWS V14.01,2013-04-26 00:34:00,
2013-04-25 20:35:00,41.1,33.5,30.38,WNW,293,0.0,0.0,74,0.00,,---,0.00,VWS V14.01,2013-04-26 00:35:00,
2013-04-25 20:36:00,41.2,33.2,30.38,WNW,293,0.0,0.0,73,0.00,,---,0.00,VWS V14.01,2013-04-26 00:36:00,
2013-04-25 20:37:00,41.3,33.3,30.38,WNW,293,0.0,0.0,73,0.00,,---,0.00,VWS V14.01,2013-04-26 00:37:00,
2013-04-25 20:38:00,41.5,33.5,30.38,WNW,293,0.0,0.0,73,0.00,,---,0.00,VWS V14.01,2013-04-26 00:38:00,
2013-04-25 20:39:00,41.6,32.6,30.38,WNW,293,0.0,0.0,70,0.00,,---,0.00,VWS V14.01,2013-04-26 00:39:00,
2013-04-25 20:40:00,41.8,32.0,30.38,WNW,293,0.0,0.0,68,0.00,,---,0.00,VWS V14.01,2013-04-26 00:40:00,
2013-04-25 20:41:00,41.9,31.8,30.38,WNW,293,0.0,0.0,67,0.00,,---,0.00,VWS V14.01,2013-04-26 00:41:00,
2013-04-25 20:42:00,42.1,31.6,30.38,WNW,293,0.0,0.0,66,0.00,,---,0.00,VWS V14.01,2013-04-26 00:42:00,
2013-04-25 20:43:00,42.3,31.4,30.38,WNW,293,0.0,0.0,65,0.00,,---,0.00,VWS V14.01,2013-04-26 00:43:00,
2013-04-25 20:44:00,42.5,31.2,30.38,WNW,293,0.0,0.0,64,0.00,,---,0.00,VWS V14.01,2013-04-26 00:44:00,
2013-04-25 20:45:00,42.6,30.5,30.37,WNW,293,0.0,0.0,62,0.00,,---,0.00,VWS V14.01,2013-04-26 00:45:00,
2013-04-25 20:46:00,42.8,30.7,30.37,WNW,293,0.0,0.0,62,0.00,,---,0.00,VWS V14.01,2013-04-26 00:46:00,
2013-04-25 20:47:00,42.9,30.4,30.37,WNW,293,0.0,0.0,61,0.00,,---,0.00,VWS V14.01,2013-04-26 00:47:00,
2013-04-25 20:48:00,43.1,30.2,30.37,WNW,293,0.0,0.0,60,0.00,,---,0.00,VWS V14.01,2013-04-26 00:48:00,
2013-04-25 20:49:00,43.3,30.0,30.37,WNW,293,0.0,0.0,59,0.00,,---,0.00,VWS V14.01,2013-04-26 00:49:00,
2013-04-25 20:50:00,43.8,30.4,30.37,WNW,293,0.0,0.0,59,0.00,,---,0.00,VWS V14.01,2013-04-26 00:50:00,
2013-04-25 20:51:00,43.9,30.5,30.37,WNW,293,0.0,0.0,59,0.00,,---,0.00,VWS V14.01,2013-04-26 00:51:00,
2013-04-25 20:52:00,44.3,30.9,30.37,WNW,293,0.0,0.0,59,0.00,,---,0.00,VWS V14.01,2013-04-26 00:52:00,
2013-04-25 20:53:00,44.6,30.8,30.37,WNW,293,0.0,0.0,58,0.00,,---,0.00,VWS V14.01,2013-04-26 00:53:00,
2013-04-25 20:54:00,44.8,30.5,30.37,WNW,293,0.0,0.0,57,0.00,,---,0.00,VWS V14.01,2013-04-26 00:54:00,
2013-04-25 20:55:00,44.9,30.6,30.37,WNW,293,0.0,0.0,57,0.00,,---,0.00,VWS V14.01,2013-04-26 00:55:00,
2013-04-25 20:56:00,45.1,30.8,30.37,WNW,293,0.0,0.0,57,0.00,,---,0.00,VWS V14.01,2013-04-26 00:56:00,
2013-04-25 20:57:00,45.4,31.5,30.37,WNW,293,0.0,0.0,58,0.00,,---,0.00,VWS V14.01,2013-04-26 00:57:00,
2013-04-25 20:58:00,45.5,31.6,30.37,WNW,293,0.0,0.0,58,0.00,,---,0.00,VWS V14.01,2013-04-26 00:58:00,
2013-04-25 20:59:00,45.7,30.9,30.37,WNW,293,0.0,0.0,56,0.00,,---,0.00,VWS V14.01,2013-04-26 00:59:00,
2013-04-25 21:00:00,46.0,31.6,30.36,WNW,293,0.0,0.0,57,0.00,,---,0.00,VWS V14.01,2013-04-26 01:00:00,
2013-04-25 21:01:00,46.2,30.5,30.36,WNW,293,0.0,0.0,54,0.00,,---,0.00,VWS V14.01,2013-04-26 01:01:00,
2013-04-25 21:02:00,46.4,30.7,30.36,WNW,293,0.0,0.0,54,0.00,,---,0.00,VWS V14.01,2013-04-26 01:02:00,
2013-04-25 21:03:00,46.7,30.0,30.36,WNW,293,0.0,0.0,52,0.00,,---,0.00,VWS V14.01,2013-04-26 01:03:00,
2013-04-25 21:04:00,47.1,31.3,30.36,WNW,293,0.0,0.0,54,0.00,,---,0.00,VWS V14.01,2013-04-26 01:04:00,
2013-04-25 21:05:00,47.3,31.5,30.36,WNW,293,0.0,0.0,54,0.00,,---,0.00,VWS V14.01,2013-04-26 01:05:00,
2013-04-25 21:06:00,47.7,31.9,30.36,WNW,293,0.0,0.0,54,0.00,,---,0.00,VWS V14.01,2013-04-26 01:06:00,
2013-04-25 21:07:00,47.9,31.1,30.36,WNW,293,0.0,0.0,52,0.00,,---,0.00,VWS V14.01,2013-04-26 01:07:00,
2013-04-25 21:08:00,48.2,31.4,30.36,WNW,293,0.0,0.0,52,0.00,,---,0.00,VWS V14.01,2013-04-26 01:08:00,
2013-04-25 21:09:00,48.5,30.7,30.36,WNW,293,0.0,0.0,50,0.00,,---,0.00,VWS V14.01,2013-04-26 01:09:00,
2013-04-25 21:10:00,48.6,29.8,30.36,WNW,293,0.0,0.0,48,0.00,,---,0.00,VWS V14.01,2013-04-26 01:10:00,
2013-04-25 21:11:00,48.8,29.5,30.36,WNW,293,0.0,0.0,47,0.00,,---,0.00,VWS V14.01,2013-04-26 01:11:00,
2013-04-25 21:12:00,49.1,29.8,30.36,WNW,293,0.0,0.0,47,0.00,,---,0.00,VWS V14.01,2013-04-26 01:12:00,
2013-04-25 21:13:00,49.4,30.5,30.36,WNW,293,0.0,0.0,48,0.00,,---,0.00,VWS V14.01,2013-04-26 01:13:00,
2013-04-25 21:14:00,49.5,30.1,30.36,WNW,293,0.0,0.0,47,0.00,,---,0.00,VWS V14.01,2013-04-26 01:14:00,
2013-04-25 21:15:00,49.6,30.2,30.36,WNW,293,0.0,0.0,47,0.00,,---,0.00,VWS V14.01,2013-04-26 01:15:00,
2013-04-25 21:16:00,49.8,30.9,30.36,WNW,293,0.0,0.0,48,0.00,,---,0.00,VWS V14.01,2013-04-26 01:16:00,
2013-04-25 21:17:00,49.9,30.5,30.36,WNW,293,0.0,0.0,47,0.00,,---,0.00,VWS V14.01,2013-04-26 01:17:00,
2013-04-25 21:18:00,50.2,31.3,30.36,WNW,293,0.0,0.0,48,0.00,,---,0.00,VWS V14.01,2013-04-26 01:18:00,
2013-04-25 21:19:00,50.4,30.4,30.36,WNW,293,0.0,0.0,46,0.00,,---,0.00,VWS V14.01,2013-04-26 01:19:00,
2013-04-25 21:20:00,50.7,30.1,30.36,WNW,293,0.0,0.0,45,0.00,,---,0.00,VWS V14.01,2013-04-26 01:20:00,
2013-04-25 21:21:00,50.8,30.2,30.36,WNW,293,0.0,0.0,45,0.00,,---,0.00,VWS V14.01,2013-04-26 01:21:00,
2013-04-25 21:22:00,50.8,30.2,30.36,WNW,293,0.0,0.0,45,0.00,,---,0.00,VWS V14.01,2013-04-26 01:22:00,
2013-04-25 21:23:00,51.0,30.4,30.36,WNW,293,0.0,0.0,45,0.00,,---,0.00,VWS V14.01,2013-04-26 01:23:00,
2013-04-25 21:24:00,51.1,30.5,30.36,WNW,293,0.0,0.0,45,0.00,,---,0.00,VWS V14.01,2013-04-26 01:24:00,
2013-04-25 21:25:00,51.3,30.7,30.36,WNW,293,0.0,0.0,45,0.00,,---,0.00,VWS V14.01,2013-04-26 01:25:00,
2013-04-25 21:26:00,51.4,30.8,30.36,WNW,293,0.0,0.0,45,0.00,,---,0.00,VWS V14.01,2013-04-26 01:26:00,
2013-04-25 21:27:00,51.6,30.4,30.36,WNW,293,0.0,0.0,44,0.00,,---,0.00,VWS V14.01,2013-04-26 01:27:00,
2013-04-25 21:28:00,51.7,31.6,30.36,WNW,293,0.0,0.0,46,0.00,,---,0.00,VWS V14.01,2013-04-26 01:28:00,
2013-04-25 21:29:00,52.0,31.3,30.36,WNW,293,0.0,0.0,45,0.00,,---,0.00,VWS V14.01,2013-04-26 01:29:00,
2013-04-25 21:30:00,52.0,30.8,30.36,WNW,293,0.0,0.0,44,0.00,,---,0.00,VWS V14.01,2013-04-26 01:30:00,
2013-04-25 21:31:00,52.2,31.0,30.36,WNW,293,0.0,0.0,44,0.00,,---,0.00,VWS V14.01,2013-04-26 01:31:00,
2013-04-25 21:32:00,52.5,31.2,30.36,WNW,293,0.0,0.0,44,0.00,,---,0.00,VWS V14.01,2013-04-26 01:32:00,
2013-04-25 21:33:00,52.8,32.1,30.36,WNW,293,0.0,0.0,45,0.00,,---,0.00,VWS V14.01,2013-04-26 01:33:00,
2013-04-25 21:34:00,52.9,29.9,30.36,WNW,293,0.0,0.0,41,0.00,,---,0.00,VWS V14.01,2013-04-26 01:34:00,
2013-04-25 21:35:00,53.2,31.3,30.36,WNW,292,0.0,0.0,43,0.00,,---,0.00,VWS V14.01,2013-04-26 01:35:00,
2013-04-25 21:36:00,53.3,29.6,30.36,WNW,292,0.0,0.0,40,0.00,,---,0.00,VWS V14.01,2013-04-26 01:36:00,
2013-04-25 21:37:00,53.6,29.9,30.36,WNW,292,0.0,0.0,40,0.00,,---,0.00,VWS V14.01,2013-04-26 01:37:00,
2013-04-25 21:38:00,53.8,30.1,30.36,WNW,292,0.0,0.0,40,0.00,,---,0.00,VWS V14.01,2013-04-26 01:38:00,
2013-04-25 21:39:00,53.8,29.4,30.36,WNW,292,0.0,0.0,39,0.00,,---,0.00,VWS V14.01,2013-04-26 01:39:00,
2013-04-25 21:40:00,53.8,29.4,30.36,WNW,292,0.0,0.0,39,0.00,,---,0.00,VWS V14.01,2013-04-26 01:40:00,
2013-04-25 21:41:00,54.5,31.3,30.36,WNW,292,0.0,0.0,41,0.00,,---,0.00,VWS V14.01,2013-04-26 01:41:00,
2013-04-25 21:42:00,54.7,31.5,30.36,WNW,292,0.0,0.0,41,0.00,,---,0.00,VWS V14.01,2013-04-26 01:42:00,
2013-04-25 21:43:00,54.8,29.0,30.36,WNW,292,0.0,0.0,37,0.00,,---,0.00,VWS V14.01,2013-04-26 01:43:00,
2013-04-25 21:44:00,55.0,28.6,30.36,WNW,292,0.0,0.0,36,0.00,,---,0.00,VWS V14.01,2013-04-26 01:44:00,
2013-04-25 21:45:00,55.1,30.0,30.35,WNW,292,0.0,0.0,38,0.00,,---,0.00,VWS V14.01,2013-04-26 01:45:00,
2013-04-25 21:46:00,55.3,30.1,30.35,WNW,292,0.0,0.0,38,0.00,,---,0.00,VWS V14.01,2013-04-26 01:46:00,
2013-04-25 21:47:00,55.4,30.2,30.35,WNW,292,0.0,0.0,38,0.00,,---,0.00,VWS V14.01,2013-04-26 01:47:00,
2013-04-25 21:48:00,55.6,30.4,30.35,WNW,292,1.0,1.0,38,0.00,,---,0.00,VWS V14.01,2013-04-26 01:48:00,
2013-04-25 21:49:00,55.7,29.9,30.35,WNW,292,0.0,1.0,37,0.00,,---,0.00,VWS V14.01,2013-04-26 01:49:00,
2013-04-25 21:50:00,55.9,30.0,30.35,West,264,2.0,2.0,37,0.00,,---,0.00,VWS V14.01,2013-04-26 01:50:00,
2013-04-25 21:51:00,56.0,29.4,30.35,WSW,248,3.0,5.0,36,0.00,,---,0.00,VWS V14.01,2013-04-26 01:51:00,
2013-04-25 21:52:00,56.0,28.8,30.35,SSE,163,0.0,5.0,35,0.00,,---,0.00,VWS V14.01,2013-04-26 01:52:00,
2013-04-25 21:53:00,56.2,28.9,30.35,SSE,158,2.0,5.0,35,0.00,,---,0.00,VWS V14.01,2013-04-26 01:53:00,
2013-04-25 21:54:00,56.2,28.2,30.35,SSE,155,0.0,5.0,34,0.00,,---,0.00,VWS V14.01,2013-04-26 01:54:00,
2013-04-25 21:55:00,56.3,29.0,30.35,SSE,155,0.0,5.0,35,0.00,,---,0.00,VWS V14.01,2013-04-26 01:55:00,
2013-04-25 21:56:00,56.3,29.0,30.35,SSE,155,0.0,5.0,35,0.00,,---,0.00,VWS V14.01,2013-04-26 01:56:00,
2013-04-25 21:57:00,56.5,29.2,30.35,ESE,111,0.0,5.0,35,0.00,,---,0.00,VWS V14.01,2013-04-26 01:57:00,
2013-04-25 21:58:00,56.5,29.2,30.35,ESE,111,0.0,5.0,35,0.00,,---,0.00,VWS V14.01,2013-04-26 01:58:00,
2013-04-25 21:59:00,56.6,29.3,30.35,ESE,111,0.0,5.0,35,0.00,,---,0.00,VWS V14.01,2013-04-26 01:59:00,
2013-04-25 22:00:00,56.6,28.6,30.34,ESE,111,2.0,5.0,34,0.00,,---,0.00,VWS V14.01,2013-04-26 02:00:00,
2013-04-25 22:01:00,56.7,28.7,30.34,ESE,111,0.0,2.0,34,0.00,,---,0.00,VWS V14.01,2013-04-26 02:01:00,
2013-04-25 22:02:00,56.9,29.5,30.34,ESE,111,0.0,2.0,35,0.00,,---,0.00,VWS V14.01,2013-04-26 02:02:00,
2013-04-25 22:03:00,57.0,29.6,30.34,ESE,110,3.0,3.0,35,0.00,,---,0.00,VWS V14.01,2013-04-26 02:03:00,
2013-04-25 22:04:00,57.0,28.9,30.34,ESE,108,0.0,5.0,34,0.00,,---,0.00,VWS V14.01,2013-04-26 02:04:00,
2013-04-25 22:05:00,57.0,28.9,30.34,ESE,108,2.0,5.0,34,0.00,,---,0.00,VWS V14.01,2013-04-26 02:05:00,
2013-04-25 22:06:00,57.0,28.9,30.34,ESE,108,0.0,5.0,34,0.00,,---,0.00,VWS V14.01,2013-04-26 02:06:00,
2013-04-25 22:07:00,57.2,29.1,30.34,ESE,108,0.0,5.0,34,0.00,,---,0.00,VWS V14.01,2013-04-26 02:07:00,
2013-04-25 22:08:00,57.2,29.1,30.34,East,86,3.0,5.0,34,0.00,,---,0.00,VWS V14.01,2013-04-26 02:08:00,
2013-04-25 22:09:00,57.2,29.1,30.34,East,86,0.0,5.0,34,0.00,,---,0.00,VWS V14.01,2013-04-26 02:09:00,
2013-04-25 22:10:00,57.3,29.9,30.34,East,86,1.0,5.0,35,0.00,,---,0.00,VWS V14.01,2013-04-26 02:10:00,
2013-04-25 22:11:00,57.5,30.8,30.34,East,87,3.0,3.0,36,0.00,,---,0.00,VWS V14.01,2013-04-26 02:11:00,
2013-04-25 22:12:00,57.5,30.8,30.34,East,87,2.0,3.0,36,0.00,,---,0.00,VWS V14.01,2013-04-26 02:12:00,
2013-04-25 22:13:00,57.6,29.5,30.34,East,87,0.0,3.0,34,0.00,,---,0.00,VWS V14.01,2013-04-26 02:13:00,
2013-04-25 22:14:00,57.6,28.7,30.34,East,87,0.0,3.0,33,0.00,,---,0.00,VWS V14.01,2013-04-26 02:14:00,
2013-04-25 22:15:00,57.6,28.7,30.34,East,87,0.0,3.0,33,0.00,,---,0.00,VWS V14.01,2013-04-26 02:15:00,
2013-04-25 22:16:00,57.8,30.4,30.34,East,87,0.0,3.0,35,0.00,,---,0.00,VWS V14.01,2013-04-26 02:16:00,
2013-04-25 22:17:00,58.0,30.5,30.34,East,87,3.0,3.0,35,0.00,,---,0.00,VWS V14.01,2013-04-26 02:17:00,
2013-04-25 22:18:00,58.0,29.1,30.34,East,87,0.0,3.0,33,0.00,,---,0.00,VWS V14.01,2013-04-26 02:18:00,
2013-04-25 22:19:00,58.1,29.9,30.34,SSE,148,5.0,6.0,34,0.00,,---,0.00,VWS V14.01,2013-04-26 02:19:00,
2013-04-25 22:20:00,58.1,29.9,30.34,SSE,149,2.0,6.0,34,0.00,,---,0.00,VWS V14.01,2013-04-26 02:20:00,
2013-04-25 22:21:00,58.1,28.4,30.34,SSE,149,4.0,6.0,32,0.00,,---,0.00,VWS V14.01,2013-04-26 02:21:00,
2013-04-25 22:22:00,58.1,28.4,30.34,SE,128,0.0,6.0,32,0.00,,---,0.00,VWS V14.01,2013-04-26 02:22:00,
2013-04-25 22:23:00,58.1,27.6,30.34,SE,130,3.0,6.0,31,0.00,,---,0.00,VWS V14.01,2013-04-26 02:23:00,
2013-04-25 22:24:00,58.1,28.4,30.34,SE,130,0.0,6.0,32,0.00,,---,0.00,VWS V14.01,2013-04-26 02:24:00,
2013-04-25 22:25:00,58.3,27.8,30.34,SE,137,3.0,6.0,31,0.00,,---,0.00,VWS V14.01,2013-04-26 02:25:00,
2013-04-25 22:26:00,58.3,27.8,30.34,SE,137,2.0,6.0,31,0.00,,---,0.00,VWS V14.01,2013-04-26 02:26:00,
2013-04-25 22:27:00,58.3,27.8,30.34,SE,134,1.0,6.0,31,0.00,,---,0.00,VWS V14.01,2013-04-26 02:27:00,
2013-04-25 22:28:00,58.1,27.6,30.34,SE,134,0.0,6.0,31,0.00,,---,0.00,VWS V14.01,2013-04-26 02:28:00,
2013-04-25 22:29:00,58.3,27.8,30.34,SE,134,0.0,6.0,31,0.00,,---,0.00,VWS V14.01,2013-04-26 02:29:00,
2013-04-25 22:30:00,58.3,27.8,30.34,ESE,110,3.0,6.0,31,0.00,,---,0.00,VWS V14.01,2013-04-26 02:30:00,
2013-04-25 22:31:00,58.3,27.8,30.34,ESE,110,3.0,3.0,31,0.00,,---,0.00,VWS V14.01,2013-04-26 02:31:00,
2013-04-25 22:32:00,58.3,29.3,30.34,SSE,149,6.0,6.0,33,0.00,,---,0.00,VWS V14.01,2013-04-26 02:32:00,
2013-04-25 22:33:00,58.3,27.8,30.34,SSE,149,2.0,6.0,31,0.00,,---,0.00,VWS V14.01,2013-04-26 02:33:00,
2013-04-25 22:34:00,58.3,28.6,30.34,SE,144,3.0,6.0,32,0.00,,---,0.00,VWS V14.01,2013-04-26 02:34:00,
2013-04-25 22:35:00,58.3,28.6,30.34,SE,144,2.0,6.0,32,0.00,,---,0.00,VWS V14.01,2013-04-26 02:35:00,
2013-04-25 22:36:00,58.3,28.6,30.34,ESE,108,2.0,6.0,32,0.00,,---,0.00,VWS V14.01,2013-04-26 02:36:00,
2013-04-25 22:37:00,58.4,27.9,30.34,ESE,108,0.0,6.0,31,0.00,,---,0.00,VWS V14.01,2013-04-26 02:37:00,
2013-04-25 22:38:00,58.4,29.4,30.34,ESE,108,0.0,6.0,33,0.00,,---,0.00,VWS V14.01,2013-04-26 02:38:00,
2013-04-25 22:39:00,58.4,27.9,30.34,ESE,114,3.0,6.0,31,0.00,,---,0.00,VWS V14.01,2013-04-26 02:39:00,
2013-04-25 22:40:00,58.4,27.9,30.34,SSE,156,5.0,6.0,31,0.00,,---,0.00,VWS V14.01,2013-04-26 02:40:00,
2013-04-25 22:41:00,58.4,27.9,30.34,SSE,162,5.0,6.0,31,0.00,,---,0.00,VWS V14.01,2013-04-26 02:41:00,
2013-04-25 22:42:00,58.4,27.1,30.34,SSE,162,1.0,6.0,30,0.00,,---,0.00,VWS V14.01,2013-04-26 02:42:00,
2013-04-25 22:43:00,58.3,27.0,30.34,SSE,165,3.0,6.0,30,0.00,,---,0.00,VWS V14.01,2013-04-26 02:43:00,
2013-04-25 22:44:00,58.3,27.8,30.34,SSE,165,2.0,6.0,31,0.00,,---,0.00,VWS V14.01,2013-04-26 02:44:00,
2013-04-25 22:45:00,58.3,29.3,30.34,SE,146,0.0,6.0,33,0.00,,---,0.00,VWS V14.01,2013-04-26 02:45:00,
2013-04-25 22:46:00,58.3,29.3,30.34,SE,145,2.0,6.0,33,0.00,,---,0.00,VWS V14.01,2013-04-26 02:46:00,
2013-04-25 22:47:00,58.3,27.8,30.34,SSE,165,6.0,6.0,31,0.00,,---,0.00,VWS V14.01,2013-04-26 02:47:00,
2013-04-25 22:48:00,58.3,27.8,30.34,SSE,168,5.0,6.0,31,0.00,,---,0.00,VWS V14.01,2013-04-26 02:48:00,
2013-04-25 22:49:00,58.3,27.8,30.34,SSE,155,3.0,6.0,31,0.00,,---,0.00,VWS V14.01,2013-04-26 02:49:00,
2013-04-25 22:50:00,58.3,29.3,30.34,SSE,155,0.0,6.0,33,0.00,,---,0.00,VWS V14.01,2013-04-26 02:50:00,
2013-04-25 22:51:00,58.4,30.9,30.34,SSE,155,0.0,0.0,35,0.00,,---,0.00,VWS V14.01,2013-04-26 02:51:00,
2013-04-25 22:52:00,58.6,29.6,30.34,SSE,155,0.0,0.0,33,0.00,,---,0.00,VWS V14.01,2013-04-26 02:52:00,
2013-04-25 22:53:00,58.7,30.4,30.34,SSE,155,3.0,3.0,34,0.00,,---,0.00,VWS V14.01,2013-04-26 02:53:00,
2013-04-25 22:54:00,58.7,28.2,30.34,SSE,148,5.0,7.0,31,0.00,,---,0.00,VWS V14.01,2013-04-26 02:54:00,
2013-04-25 22:55:00,58.7,28.2,30.34,ESE,115,4.0,7.0,31,0.00,,---,0.00,VWS V14.01,2013-04-26 02:55:00,
2013-04-25 22:56:00,58.6,27.3,30.34,ESE,115,0.0,7.0,30,0.00,,---,0.00,VWS V14.01,2013-04-26 02:56:00,
2013-04-25 22:57:00,58.6,27.3,30.34,ESE,115,0.0,7.0,30,0.00,,---,0.00,VWS V14.01,2013-04-26 02:57:00,
2013-04-25 22:58:00,58.7,29.7,30.34,ESE,115,0.0,7.0,33,0.00,,---,0.00,VWS V14.01,2013-04-26 02:58:00,
2013-04-25 22:59:00,58.9,29.9,30.34,ESE,115,0.0,7.0,33,0.00,,---,0.00,VWS V14.01,2013-04-26 02:59:00,
2013-04-25 23:00:00,58.9,29.9,30.34,ESE,115,0.0,7.0,33,0.00,,---,0.00,VWS V14.01,2013-04-26 03:00:00,
2013-04-25 23:01:00,58.9,29.9,30.34,East,94,3.0,4.0,33,0.00,,---,0.00,VWS V14.01,2013-04-26 03:01:00,
2013-04-25 23:02:00,58.9,29.9,30.34,East,96,0.0,5.0,33,0.00,,---,0.00,VWS V14.01,2013-04-26 03:02:00,
2013-04-25 23:03:00,58.9,29.9,30.34,East,96,1.0,5.0,33,0.00,,---,0.00,VWS V14.01,2013-04-26 03:03:00,
2013-04-25 23:04:00,59.0,30.0,30.34,East,96,1.0,5.0,33,0.00,,---,0.00,VWS V14.01,2013-04-26 03:04:00,
2013-04-25 23:05:00,59.0,30.0,30.34,East,96,2.0,5.0,33,0.00,,---,0.00,VWS V14.01,2013-04-26 03:05:00,
2013-04-25 23:06:00,59.2,30.9,30.34,East,96,0.0,5.0,34,0.00,,---,0.00,VWS V14.01,2013-04-26 03:06:00,
2013-04-25 23:07:00,59.2,29.4,30.34,East,101,1.0,5.0,32,0.00,,---,0.00,VWS V14.01,2013-04-26 03:07:00,
2013-04-25 23:08:00,59.2,28.6,30.34,East,101,0.0,5.0,31,0.00,,---,0.00,VWS V14.01,2013-04-26 03:08:00,
2013-04-25 23:09:00,59.3,30.2,30.34,ESE,110,5.0,6.0,33,0.00,,---,0.00,VWS V14.01,2013-04-26 03:09:00,
2013-04-25 23:10:00,59.3,30.2,30.34,ESE,110,0.0,6.0,33,0.00,,---,0.00,VWS V14.01,2013-04-26 03:10:00,
2013-04-25 23:11:00,59.3,29.5,30.34,ESE,110,0.0,2.0,32,0.00,,---,0.00,VWS V14.01,2013-04-26 03:11:00,
2013-04-25 23:12:00,59.5,30.4,30.34,ESE,110,0.0,2.0,33,0.00,,---,0.00,VWS V14.01,2013-04-26 03:12:00,
2013-04-25 23:13:00,59.8,31.4,30.34,ESE,110,0.0,2.0,34,0.00,,---,0.00,VWS V14.01,2013-04-26 03:13:00,
2013-04-25 23:14:00,59.9,30.8,30.34,ESE,110,0.0,2.0,33,0.00,,---,0.00,VWS V14.01,2013-04-26 03:14:00,
2013-04-25 23:15:00,60.1,31.7,30.34,ESE,110,0.0,2.0,34,0.00,,---,0.00,VWS V14.01,2013-04-26 03:15:00,
2013-04-25 23:16:00,60.2,31.0,30.34,ESE,115,2.0,3.0,33,0.00,,---,0.00,VWS V14.01,2013-04-26 03:16:00,
2013-04-25 23:17:00,60.2,30.2,30.34,ESE,115,0.0,3.0,32,0.00,,---,0.00,VWS V14.01,2013-04-26 03:17:00,
2013-04-25 23:18:00,60.2,30.2,30.34,ESE,115,0.0,3.0,32,0.00,,---,0.00,VWS V14.01,2013-04-26 03:18:00,
2013-04-25 23:19:00,60.5,30.5,30.34,South,170,5.0,6.0,32,0.00,,---,0.00,VWS V14.01,2013-04-26 03:19:00,
2013-04-25 23:20:00,60.5,30.5,30.34,SSE,159,1.0,6.0,32,0.00,,---,0.00,VWS V14.01,2013-04-26 03:20:00,
2013-04-25 23:21:00,60.5,28.9,30.34,SSE,159,0.0,1.0,30,0.00,,---,0.00,VWS V14.01,2013-04-26 03:21:00,
2013-04-25 23:22:00,60.5,28.9,30.34,East,84,3.0,3.0,30,0.00,,---,0.00,VWS V14.01,2013-04-26 03:22:00,
2013-04-25 23:23:00,60.5,30.5,30.34,East,87,5.0,5.0,32,0.00,,---,0.00,VWS V14.01,2013-04-26 03:23:00,
2013-04-25 23:24:00,60.5,28.9,30.34,SSE,163,6.0,6.0,30,0.00,,---,0.00,VWS V14.01,2013-04-26 03:24:00,
2013-04-25 23:25:00,60.5,29.7,30.34,SSE,163,6.0,7.0,31,0.00,,---,0.00,VWS V14.01,2013-04-26 03:25:00,
2013-04-25 23:26:00,60.4,28.9,30.34,SSE,163,0.0,7.0,30,0.00,,---,0.00,VWS V14.01,2013-04-26 03:26:00,
2013-04-25 23:27:00,60.4,31.2,30.34,SSE,163,0.0,7.0,33,0.00,,---,0.00,VWS V14.01,2013-04-26 03:27:00,
2013-04-25 23:28:00,60.4,30.4,30.34,SSE,163,0.0,7.0,32,0.00,,---,0.00,VWS V14.01,2013-04-26 03:28:00,
2013-04-25 23:29:00,60.4,31.9,30.34,SE,141,0.0,7.0,34,0.00,,---,0.00,VWS V14.01,2013-04-26 03:29:00,
2013-04-25 23:30:00,60.4,29.6,30.34,SSE,156,3.0,7.0,31,0.00,,---,0.00,VWS V14.01,2013-04-26 03:30:00,
2013-04-25 23:31:00,60.4,29.6,30.34,SSE,155,0.0,3.0,31,0.00,,---,0.00,VWS V14.01,2013-04-26 03:31:00,
2013-04-25 23:32:00,60.4,28.9,30.34,SSE,155,1.0,3.0,30,0.00,,---,0.00,VWS V14.01,2013-04-26 03:32:00,
2013-04-25 23:33:00,60.4,28.9,30.34,SE,130,0.0,5.0,30,0.00,,---,0.00,VWS V14.01,2013-04-26 03:33:00,
2013-04-25 23:34:00,60.4,29.6,30.34,SE,130,1.0,5.0,31,0.00,,---,0.00,VWS V14.01,2013-04-26 03:34:00,
2013-04-25 23:35:00,60.2,28.7,30.34,South,170,5.0,5.0,30,0.00,,---,0.00,VWS V14.01,2013-04-26 03:35:00,
2013-04-25 23:36:00,60.4,30.4,30.34,South,170,1.0,5.0,32,0.00,,---,0.00,VWS V14.01,2013-04-26 03:36:00,
2013-04-25 23:37:00,60.5,30.5,30.34,South,170,1.0,5.0,32,0.00,,---,0.00,VWS V14.01,2013-04-26 03:37:00,
2013-04-25 23:38:00,60.7,29.1,30.34,SE,141,1.0,5.0,30,0.00,,---,0.00,VWS V14.01,2013-04-26 03:38:00,
2013-04-25 23:39:00,60.7,31.5,30.34,SE,141,2.0,5.0,33,0.00,,---,0.00,VWS V14.01,2013-04-26 03:39:00,
2013-04-25 23:40:00,60.7,29.9,30.34,SE,141,0.0,5.0,31,0.00,,---,0.00,VWS V14.01,2013-04-26 03:40:00,
2013-04-25 23:41:00,60.9,30.9,30.34,SE,141,0.0,0.0,32,0.00,,---,0.00,VWS V14.01,2013-04-26 03:41:00,
2013-04-25 23:42:00,60.9,29.3,30.34,SE,145,3.0,6.0,30,0.00,,---,0.00,VWS V14.01,2013-04-26 03:42:00,
2013-04-25 23:43:00,60.9,29.3,30.34,SSW,199,1.0,6.0,30,0.00,,---,0.00,VWS V14.01,2013-04-26 03:43:00,
2013-04-25 23:44:00,61.0,30.2,30.34,SSW,196,2.0,6.0,31,0.00,,---,0.00,VWS V14.01,2013-04-26 03:44:00,
2013-04-25 23:45:00,61.0,30.2,30.34,South,175,2.0,6.0,31,0.00,,---,0.00,VWS V14.01,2013-04-26 03:45:00,
2013-04-25 23:46:00,61.0,29.4,30.34,SSE,149,3.0,6.0,30,0.00,,---,0.00,VWS V14.01,2013-04-26 03:46:00,
2013-04-25 23:47:00,61.0,28.5,30.34,SSE,152,1.0,6.0,29,0.00,,---,0.00,VWS V14.01,2013-04-26 03:47:00,
2013-04-25 23:48:00,61.0,28.5,30.34,SSE,152,0.0,6.0,29,0.00,,---,0.00,VWS V14.01,2013-04-26 03:48:00,
2013-04-25 23:49:00,61.3,31.2,30.34,SE,132,2.0,6.0,32,0.00,,---,0.00,VWS V14.01,2013-04-26 03:49:00,
2013-04-25 23:50:00,61.3,28.8,30.34,SE,144,4.0,6.0,29,0.00,,---,0.00,VWS V14.01,2013-04-26 03:50:00,
2013-04-25 23:51:00,61.3,28.8,30.34,SSW,193,2.0,6.0,29,0.00,,---,0.00,VWS V14.01,2013-04-26 03:51:00,
2013-04-25 23:52:00,61.3,27.9,30.34,South,185,6.0,6.0,28,0.00,,---,0.00,VWS V14.01,2013-04-26 03:52:00,
2013-04-25 23:53:00,61.3,27.9,30.34,South,169,5.0,7.0,28,0.00,,---,0.00,VWS V14.01,2013-04-26 03:53:00,
2013-04-25 23:54:00,61.3,28.8,30.34,SSE,162,5.0,7.0,29,0.00,,---,0.00,VWS V14.01,2013-04-26 03:54:00,
2013-04-25 23:55:00,61.3,27.9,30.34,SSE,162,2.0,7.0,28,0.00,,---,0.00,VWS V14.01,2013-04-26 03:55:00,
2013-04-25 23:56:00,61.3,27.9,30.34,East,90,6.0,7.0,28,0.00,,---,0.00,VWS V14.01,2013-04-26 03:56:00,
2013-04-25 23:57:00,61.3,27.9,30.34,East,89,5.0,7.0,28,0.00,,---,0.00,VWS V14.01,2013-04-26 03:57:00,
2013-04-25 23:58:00,61.0,27.7,30.34,ESE,104,1.0,7.0,28,0.00,,---,0.00,VWS V14.01,2013-04-26 03:58:00,
2013-04-25 23:59:00,60.9,29.3,30.34,ESE,104,0.0,7.0,30,0.00,,---,0.00,VWS V14.01,2013-04-26 03:59:00,